<?xml version="1.0" encoding="UTF-8" standalone="no" ?>
<gpx xmlns="http://www.topografix.com/GPX/1/1" xmlns:xsi="http://www.w3.org/2001/XMLSchema-instance" xsi:schemaLocation="http://www.topografix.com/GPX/1/1 http://www.topografix.com/GPX/1/1/gpx.xsd" version="1.1" creator="VisuGPX - https://www.visugpx.com">
  <metadata>
    <name>Mézin Poudenas 23-09-2022</name>
  </metadata>
  <trk>
    <name><![CDATA[T2022-09-23-12-13]]></name>
    <extensions>
      <line xmlns="http://www.topografix.com/GPX/gpx_style/0/2">
        <color>0000FF</color>
        <width>4</width>
      </line>
    </extensions>
    <trkseg>
      <trkpt lat="44.05642" lon="0.26101">
        <ele>105.8</ele>
        <time>2022-09-23T06:57:45Z</time>
      </trkpt>
      <trkpt lat="44.05646" lon="0.261">
        <ele>107.8</ele>
        <time>2022-09-23T07:00:43Z</time>
      </trkpt>
      <trkpt lat="44.0565" lon="0.26098">
        <ele>110.6</ele>
        <time>2022-09-23T07:00:50Z</time>
      </trkpt>
      <trkpt lat="44.05654" lon="0.26094">
        <ele>110.9</ele>
        <time>2022-09-23T07:02:17Z</time>
      </trkpt>
      <trkpt lat="44.05658" lon="0.26091">
        <ele>109.8</ele>
        <time>2022-09-23T07:02:20Z</time>
      </trkpt>
      <trkpt lat="44.05663" lon="0.26085">
        <ele>108</ele>
        <time>2022-09-23T07:02:30Z</time>
      </trkpt>
      <trkpt lat="44.05667" lon="0.26081">
        <ele>107.8</ele>
        <time>2022-09-23T07:02:33Z</time>
      </trkpt>
      <trkpt lat="44.05673" lon="0.26076">
        <ele>107.7</ele>
        <time>2022-09-23T07:02:44Z</time>
      </trkpt>
      <trkpt lat="44.05677" lon="0.26072">
        <ele>107.9</ele>
        <time>2022-09-23T07:02:47Z</time>
      </trkpt>
      <trkpt lat="44.05683" lon="0.26067">
        <ele>108.3</ele>
        <time>2022-09-23T07:02:55Z</time>
      </trkpt>
      <trkpt lat="44.05688" lon="0.26063">
        <ele>108.5</ele>
        <time>2022-09-23T07:02:58Z</time>
      </trkpt>
      <trkpt lat="44.05694" lon="0.26057">
        <ele>108.4</ele>
        <time>2022-09-23T07:03:09Z</time>
      </trkpt>
      <trkpt lat="44.05697" lon="0.26053">
        <ele>108</ele>
        <time>2022-09-23T07:03:12Z</time>
      </trkpt>
      <trkpt lat="44.05703" lon="0.26046">
        <ele>106.7</ele>
        <time>2022-09-23T07:03:23Z</time>
      </trkpt>
      <trkpt lat="44.05708" lon="0.26041">
        <ele>106.4</ele>
        <time>2022-09-23T07:03:26Z</time>
      </trkpt>
      <trkpt lat="44.05713" lon="0.26034">
        <ele>106.6</ele>
        <time>2022-09-23T07:03:54Z</time>
      </trkpt>
      <trkpt lat="44.05717" lon="0.2603">
        <ele>107.9</ele>
        <time>2022-09-23T07:03:59Z</time>
      </trkpt>
      <trkpt lat="44.05713" lon="0.26027">
        <ele>108.5</ele>
        <time>2022-09-23T07:07:53Z</time>
      </trkpt>
      <trkpt lat="44.05709" lon="0.26023">
        <ele>109.5</ele>
        <time>2022-09-23T07:07:57Z</time>
      </trkpt>
      <trkpt lat="44.05705" lon="0.26021">
        <ele>110.1</ele>
        <time>2022-09-23T07:08:03Z</time>
      </trkpt>
      <trkpt lat="44.05701" lon="0.26019">
        <ele>110.1</ele>
        <time>2022-09-23T07:08:06Z</time>
      </trkpt>
      <trkpt lat="44.05697" lon="0.26015">
        <ele>109.9</ele>
        <time>2022-09-23T07:08:12Z</time>
      </trkpt>
      <trkpt lat="44.05692" lon="0.26012">
        <ele>109.4</ele>
        <time>2022-09-23T07:08:17Z</time>
      </trkpt>
      <trkpt lat="44.05688" lon="0.26007">
        <ele>108.8</ele>
        <time>2022-09-23T07:08:20Z</time>
      </trkpt>
      <trkpt lat="44.05684" lon="0.26002">
        <ele>107.6</ele>
        <time>2022-09-23T07:08:25Z</time>
      </trkpt>
      <trkpt lat="44.05682" lon="0.25996">
        <ele>106.2</ele>
        <time>2022-09-23T07:08:32Z</time>
      </trkpt>
      <trkpt lat="44.05678" lon="0.25989">
        <ele>105.3</ele>
        <time>2022-09-23T07:08:45Z</time>
      </trkpt>
      <trkpt lat="44.05673" lon="0.25985">
        <ele>104.9</ele>
        <time>2022-09-23T07:08:48Z</time>
      </trkpt>
      <trkpt lat="44.05668" lon="0.25983">
        <ele>104.6</ele>
        <time>2022-09-23T07:08:51Z</time>
      </trkpt>
      <trkpt lat="44.05664" lon="0.25979">
        <ele>104.3</ele>
        <time>2022-09-23T07:08:55Z</time>
      </trkpt>
      <trkpt lat="44.05662" lon="0.25973">
        <ele>103.8</ele>
        <time>2022-09-23T07:09:00Z</time>
      </trkpt>
      <trkpt lat="44.05658" lon="0.25968">
        <ele>103</ele>
        <time>2022-09-23T07:09:04Z</time>
      </trkpt>
      <trkpt lat="44.05653" lon="0.25964">
        <ele>101.6</ele>
        <time>2022-09-23T07:09:11Z</time>
      </trkpt>
      <trkpt lat="44.05648" lon="0.25959">
        <ele>100.7</ele>
        <time>2022-09-23T07:09:14Z</time>
      </trkpt>
      <trkpt lat="44.05644" lon="0.25953">
        <ele>100.3</ele>
        <time>2022-09-23T07:09:17Z</time>
      </trkpt>
      <trkpt lat="44.05641" lon="0.25948">
        <ele>100.4</ele>
        <time>2022-09-23T07:09:20Z</time>
      </trkpt>
      <trkpt lat="44.05636" lon="0.25943">
        <ele>100.6</ele>
        <time>2022-09-23T07:09:24Z</time>
      </trkpt>
      <trkpt lat="44.05632" lon="0.25938">
        <ele>100.9</ele>
        <time>2022-09-23T07:09:28Z</time>
      </trkpt>
      <trkpt lat="44.05628" lon="0.25936">
        <ele>101.4</ele>
        <time>2022-09-23T07:09:34Z</time>
      </trkpt>
      <trkpt lat="44.05623" lon="0.25934">
        <ele>101.1</ele>
        <time>2022-09-23T07:09:38Z</time>
      </trkpt>
      <trkpt lat="44.0562" lon="0.25928">
        <ele>100.1</ele>
        <time>2022-09-23T07:09:44Z</time>
      </trkpt>
      <trkpt lat="44.05619" lon="0.25921">
        <ele>100.1</ele>
        <time>2022-09-23T07:09:47Z</time>
      </trkpt>
      <trkpt lat="44.05617" lon="0.25914">
        <ele>100.1</ele>
        <time>2022-09-23T07:09:51Z</time>
      </trkpt>
      <trkpt lat="44.05611" lon="0.25912">
        <ele>99.8</ele>
        <time>2022-09-23T07:09:56Z</time>
      </trkpt>
      <trkpt lat="44.05606" lon="0.25911">
        <ele>99.4</ele>
        <time>2022-09-23T07:09:59Z</time>
      </trkpt>
      <trkpt lat="44.05602" lon="0.25908">
        <ele>98.4</ele>
        <time>2022-09-23T07:10:04Z</time>
      </trkpt>
      <trkpt lat="44.05603" lon="0.25899">
        <ele>97.3</ele>
        <time>2022-09-23T07:10:11Z</time>
      </trkpt>
      <trkpt lat="44.05606" lon="0.2589">
        <ele>97</ele>
        <time>2022-09-23T07:10:14Z</time>
      </trkpt>
      <trkpt lat="44.05608" lon="0.25881">
        <ele>97.2</ele>
        <time>2022-09-23T07:10:17Z</time>
      </trkpt>
      <trkpt lat="44.0561" lon="0.25875">
        <ele>97.5</ele>
        <time>2022-09-23T07:10:20Z</time>
      </trkpt>
      <trkpt lat="44.05612" lon="0.25869">
        <ele>97.6</ele>
        <time>2022-09-23T07:10:25Z</time>
      </trkpt>
      <trkpt lat="44.05615" lon="0.2586">
        <ele>97.8</ele>
        <time>2022-09-23T07:10:36Z</time>
      </trkpt>
      <trkpt lat="44.05618" lon="0.25853">
        <ele>98.1</ele>
        <time>2022-09-23T07:10:39Z</time>
      </trkpt>
      <trkpt lat="44.05619" lon="0.25846">
        <ele>98.5</ele>
        <time>2022-09-23T07:10:42Z</time>
      </trkpt>
      <trkpt lat="44.05618" lon="0.25837">
        <ele>98.9</ele>
        <time>2022-09-23T07:10:45Z</time>
      </trkpt>
      <trkpt lat="44.05619" lon="0.2583">
        <ele>99.3</ele>
        <time>2022-09-23T07:10:49Z</time>
      </trkpt>
      <trkpt lat="44.05618" lon="0.25823">
        <ele>99.6</ele>
        <time>2022-09-23T07:10:52Z</time>
      </trkpt>
      <trkpt lat="44.05618" lon="0.25816">
        <ele>99.8</ele>
        <time>2022-09-23T07:10:57Z</time>
      </trkpt>
      <trkpt lat="44.0562" lon="0.25808">
        <ele>99.7</ele>
        <time>2022-09-23T07:11:07Z</time>
      </trkpt>
      <trkpt lat="44.05619" lon="0.258">
        <ele>100.2</ele>
        <time>2022-09-23T07:11:10Z</time>
      </trkpt>
      <trkpt lat="44.05624" lon="0.25793">
        <ele>101.6</ele>
        <time>2022-09-23T07:11:23Z</time>
      </trkpt>
      <trkpt lat="44.05629" lon="0.25789">
        <ele>102.4</ele>
        <time>2022-09-23T07:11:26Z</time>
      </trkpt>
      <trkpt lat="44.05631" lon="0.25783">
        <ele>103.1</ele>
        <time>2022-09-23T07:11:30Z</time>
      </trkpt>
      <trkpt lat="44.05633" lon="0.25778">
        <ele>103.7</ele>
        <time>2022-09-23T07:11:33Z</time>
      </trkpt>
      <trkpt lat="44.05637" lon="0.25773">
        <ele>104.4</ele>
        <time>2022-09-23T07:11:37Z</time>
      </trkpt>
      <trkpt lat="44.0564" lon="0.25767">
        <ele>105.1</ele>
        <time>2022-09-23T07:11:42Z</time>
      </trkpt>
      <trkpt lat="44.05642" lon="0.25761">
        <ele>105.5</ele>
        <time>2022-09-23T07:11:48Z</time>
      </trkpt>
      <trkpt lat="44.05644" lon="0.25753">
        <ele>106</ele>
        <time>2022-09-23T07:11:59Z</time>
      </trkpt>
      <trkpt lat="44.05645" lon="0.25747">
        <ele>106.4</ele>
        <time>2022-09-23T07:12:02Z</time>
      </trkpt>
      <trkpt lat="44.05642" lon="0.2574">
        <ele>107.3</ele>
        <time>2022-09-23T07:12:21Z</time>
      </trkpt>
      <trkpt lat="44.05646" lon="0.25743">
        <ele>106</ele>
        <time>2022-09-23T07:12:47Z</time>
      </trkpt>
      <trkpt lat="44.05642" lon="0.25738">
        <ele>105.7</ele>
        <time>2022-09-23T07:13:48Z</time>
      </trkpt>
      <trkpt lat="44.05638" lon="0.25735">
        <ele>107.4</ele>
        <time>2022-09-23T07:13:53Z</time>
      </trkpt>
      <trkpt lat="44.05644" lon="0.25738">
        <ele>108.8</ele>
        <time>2022-09-23T07:16:55Z</time>
      </trkpt>
      <trkpt lat="44.05648" lon="0.25741">
        <ele>108.8</ele>
        <time>2022-09-23T07:17:01Z</time>
      </trkpt>
      <trkpt lat="44.05648" lon="0.25735">
        <ele>108.8</ele>
        <time>2022-09-23T07:17:13Z</time>
      </trkpt>
      <trkpt lat="44.05648" lon="0.25728">
        <ele>108.6</ele>
        <time>2022-09-23T07:17:16Z</time>
      </trkpt>
      <trkpt lat="44.05646" lon="0.25721">
        <ele>108</ele>
        <time>2022-09-23T07:17:21Z</time>
      </trkpt>
      <trkpt lat="44.05643" lon="0.25715">
        <ele>107.4</ele>
        <time>2022-09-23T07:17:24Z</time>
      </trkpt>
      <trkpt lat="44.05639" lon="0.25712">
        <ele>106.9</ele>
        <time>2022-09-23T07:17:27Z</time>
      </trkpt>
      <trkpt lat="44.05635" lon="0.25708">
        <ele>106</ele>
        <time>2022-09-23T07:17:31Z</time>
      </trkpt>
      <trkpt lat="44.05631" lon="0.257">
        <ele>105.5</ele>
        <time>2022-09-23T07:20:02Z</time>
      </trkpt>
      <trkpt lat="44.05628" lon="0.25692">
        <ele>106.4</ele>
        <time>2022-09-23T07:20:05Z</time>
      </trkpt>
      <trkpt lat="44.05631" lon="0.25686">
        <ele>108.3</ele>
        <time>2022-09-23T07:20:33Z</time>
      </trkpt>
      <trkpt lat="44.05637" lon="0.25684">
        <ele>108.2</ele>
        <time>2022-09-23T07:20:57Z</time>
      </trkpt>
      <trkpt lat="44.05638" lon="0.25678">
        <ele>107.5</ele>
        <time>2022-09-23T07:21:01Z</time>
      </trkpt>
      <trkpt lat="44.05638" lon="0.2567">
        <ele>107</ele>
        <time>2022-09-23T07:21:05Z</time>
      </trkpt>
      <trkpt lat="44.05638" lon="0.25664">
        <ele>106.6</ele>
        <time>2022-09-23T07:21:09Z</time>
      </trkpt>
      <trkpt lat="44.05638" lon="0.25656">
        <ele>105.7</ele>
        <time>2022-09-23T07:21:14Z</time>
      </trkpt>
      <trkpt lat="44.05637" lon="0.2565">
        <ele>104.8</ele>
        <time>2022-09-23T07:21:20Z</time>
      </trkpt>
      <trkpt lat="44.05635" lon="0.25644">
        <ele>104.3</ele>
        <time>2022-09-23T07:21:24Z</time>
      </trkpt>
      <trkpt lat="44.05632" lon="0.25639">
        <ele>103.5</ele>
        <time>2022-09-23T07:21:27Z</time>
      </trkpt>
      <trkpt lat="44.05627" lon="0.25635">
        <ele>102.4</ele>
        <time>2022-09-23T07:21:31Z</time>
      </trkpt>
      <trkpt lat="44.05623" lon="0.25633">
        <ele>101.8</ele>
        <time>2022-09-23T07:21:34Z</time>
      </trkpt>
      <trkpt lat="44.0562" lon="0.25628">
        <ele>101.8</ele>
        <time>2022-09-23T07:21:39Z</time>
      </trkpt>
      <trkpt lat="44.05617" lon="0.25623">
        <ele>102.1</ele>
        <time>2022-09-23T07:21:45Z</time>
      </trkpt>
      <trkpt lat="44.05613" lon="0.25625">
        <ele>102.9</ele>
        <time>2022-09-23T07:21:51Z</time>
      </trkpt>
      <trkpt lat="44.05608" lon="0.25624">
        <ele>103.7</ele>
        <time>2022-09-23T07:21:57Z</time>
      </trkpt>
      <trkpt lat="44.05603" lon="0.25618">
        <ele>104.2</ele>
        <time>2022-09-23T07:22:00Z</time>
      </trkpt>
      <trkpt lat="44.05598" lon="0.25615">
        <ele>104.4</ele>
        <time>2022-09-23T07:22:04Z</time>
      </trkpt>
      <trkpt lat="44.05592" lon="0.25615">
        <ele>104.3</ele>
        <time>2022-09-23T07:22:07Z</time>
      </trkpt>
      <trkpt lat="44.05586" lon="0.25618">
        <ele>104.1</ele>
        <time>2022-09-23T07:22:10Z</time>
      </trkpt>
      <trkpt lat="44.05581" lon="0.25622">
        <ele>103.4</ele>
        <time>2022-09-23T07:22:14Z</time>
      </trkpt>
      <trkpt lat="44.05581" lon="0.25614">
        <ele>100.4</ele>
        <time>2022-09-23T07:22:23Z</time>
      </trkpt>
      <trkpt lat="44.05582" lon="0.25608">
        <ele>98.6</ele>
        <time>2022-09-23T07:22:27Z</time>
      </trkpt>
      <trkpt lat="44.05586" lon="0.25603">
        <ele>96.7</ele>
        <time>2022-09-23T07:22:32Z</time>
      </trkpt>
      <trkpt lat="44.05586" lon="0.25596">
        <ele>95.4</ele>
        <time>2022-09-23T07:22:36Z</time>
      </trkpt>
      <trkpt lat="44.05586" lon="0.25588">
        <ele>94.6</ele>
        <time>2022-09-23T07:22:40Z</time>
      </trkpt>
      <trkpt lat="44.05588" lon="0.25581">
        <ele>94</ele>
        <time>2022-09-23T07:22:44Z</time>
      </trkpt>
      <trkpt lat="44.05591" lon="0.25576">
        <ele>93.4</ele>
        <time>2022-09-23T07:22:48Z</time>
      </trkpt>
      <trkpt lat="44.05594" lon="0.2557">
        <ele>92.8</ele>
        <time>2022-09-23T07:22:52Z</time>
      </trkpt>
      <trkpt lat="44.05598" lon="0.25565">
        <ele>91.8</ele>
        <time>2022-09-23T07:22:56Z</time>
      </trkpt>
      <trkpt lat="44.05602" lon="0.25562">
        <ele>91</ele>
        <time>2022-09-23T07:23:03Z</time>
      </trkpt>
      <trkpt lat="44.05605" lon="0.25556">
        <ele>91</ele>
        <time>2022-09-23T07:23:06Z</time>
      </trkpt>
      <trkpt lat="44.05607" lon="0.2555">
        <ele>91.2</ele>
        <time>2022-09-23T07:23:09Z</time>
      </trkpt>
      <trkpt lat="44.05609" lon="0.25545">
        <ele>91.6</ele>
        <time>2022-09-23T07:23:13Z</time>
      </trkpt>
      <trkpt lat="44.0561" lon="0.25538">
        <ele>91.4</ele>
        <time>2022-09-23T07:23:18Z</time>
      </trkpt>
      <trkpt lat="44.0561" lon="0.25531">
        <ele>90.5</ele>
        <time>2022-09-23T07:23:22Z</time>
      </trkpt>
      <trkpt lat="44.05612" lon="0.25524">
        <ele>87.6</ele>
        <time>2022-09-23T07:23:32Z</time>
      </trkpt>
      <trkpt lat="44.05612" lon="0.25515">
        <ele>86.6</ele>
        <time>2022-09-23T07:23:35Z</time>
      </trkpt>
      <trkpt lat="44.05612" lon="0.25509">
        <ele>85.4</ele>
        <time>2022-09-23T07:23:38Z</time>
      </trkpt>
      <trkpt lat="44.0561" lon="0.25502">
        <ele>84.2</ele>
        <time>2022-09-23T07:23:42Z</time>
      </trkpt>
      <trkpt lat="44.05615" lon="0.25495">
        <ele>82</ele>
        <time>2022-09-23T07:23:49Z</time>
      </trkpt>
      <trkpt lat="44.05619" lon="0.25489">
        <ele>80.9</ele>
        <time>2022-09-23T07:23:52Z</time>
      </trkpt>
      <trkpt lat="44.0562" lon="0.25482">
        <ele>79</ele>
        <time>2022-09-23T07:23:57Z</time>
      </trkpt>
      <trkpt lat="44.05618" lon="0.25476">
        <ele>76.4</ele>
        <time>2022-09-23T07:24:05Z</time>
      </trkpt>
      <trkpt lat="44.05621" lon="0.25471">
        <ele>74.4</ele>
        <time>2022-09-23T07:24:09Z</time>
      </trkpt>
      <trkpt lat="44.05623" lon="0.25465">
        <ele>73.5</ele>
        <time>2022-09-23T07:24:15Z</time>
      </trkpt>
      <trkpt lat="44.0562" lon="0.25459">
        <ele>75.1</ele>
        <time>2022-09-23T07:24:40Z</time>
      </trkpt>
      <trkpt lat="44.05622" lon="0.25466">
        <ele>78.6</ele>
        <time>2022-09-23T07:25:06Z</time>
      </trkpt>
      <trkpt lat="44.05625" lon="0.25462">
        <ele>76.4</ele>
        <time>2022-09-23T07:25:21Z</time>
      </trkpt>
      <trkpt lat="44.0563" lon="0.25462">
        <ele>75.9</ele>
        <time>2022-09-23T07:25:25Z</time>
      </trkpt>
      <trkpt lat="44.05635" lon="0.25458">
        <ele>75.1</ele>
        <time>2022-09-23T07:25:30Z</time>
      </trkpt>
      <trkpt lat="44.05639" lon="0.25454">
        <ele>74</ele>
        <time>2022-09-23T07:25:34Z</time>
      </trkpt>
      <trkpt lat="44.05643" lon="0.2545">
        <ele>72.8</ele>
        <time>2022-09-23T07:25:38Z</time>
      </trkpt>
      <trkpt lat="44.05648" lon="0.25447">
        <ele>72</ele>
        <time>2022-09-23T07:25:41Z</time>
      </trkpt>
      <trkpt lat="44.05653" lon="0.25444">
        <ele>71.1</ele>
        <time>2022-09-23T07:25:45Z</time>
      </trkpt>
      <trkpt lat="44.05657" lon="0.25439">
        <ele>70.4</ele>
        <time>2022-09-23T07:25:50Z</time>
      </trkpt>
      <trkpt lat="44.05662" lon="0.25434">
        <ele>70.4</ele>
        <time>2022-09-23T07:25:54Z</time>
      </trkpt>
      <trkpt lat="44.05666" lon="0.25429">
        <ele>71</ele>
        <time>2022-09-23T07:25:58Z</time>
      </trkpt>
      <trkpt lat="44.0567" lon="0.25424">
        <ele>71.7</ele>
        <time>2022-09-23T07:26:02Z</time>
      </trkpt>
      <trkpt lat="44.05674" lon="0.25419">
        <ele>72.2</ele>
        <time>2022-09-23T07:26:06Z</time>
      </trkpt>
      <trkpt lat="44.05677" lon="0.25413">
        <ele>72.1</ele>
        <time>2022-09-23T07:26:11Z</time>
      </trkpt>
      <trkpt lat="44.05681" lon="0.25408">
        <ele>71.8</ele>
        <time>2022-09-23T07:26:14Z</time>
      </trkpt>
      <trkpt lat="44.05684" lon="0.25405">
        <ele>71.4</ele>
        <time>2022-09-23T07:26:18Z</time>
      </trkpt>
      <trkpt lat="44.05688" lon="0.25401">
        <ele>71.4</ele>
        <time>2022-09-23T07:26:22Z</time>
      </trkpt>
      <trkpt lat="44.05691" lon="0.25396">
        <ele>71.5</ele>
        <time>2022-09-23T07:26:26Z</time>
      </trkpt>
      <trkpt lat="44.05693" lon="0.2539">
        <ele>71.6</ele>
        <time>2022-09-23T07:26:29Z</time>
      </trkpt>
      <trkpt lat="44.05695" lon="0.25384">
        <ele>71.6</ele>
        <time>2022-09-23T07:26:33Z</time>
      </trkpt>
      <trkpt lat="44.05696" lon="0.25377">
        <ele>72</ele>
        <time>2022-09-23T07:26:37Z</time>
      </trkpt>
      <trkpt lat="44.057" lon="0.25373">
        <ele>72.8</ele>
        <time>2022-09-23T07:26:42Z</time>
      </trkpt>
      <trkpt lat="44.05705" lon="0.25368">
        <ele>73.3</ele>
        <time>2022-09-23T07:26:46Z</time>
      </trkpt>
      <trkpt lat="44.05708" lon="0.25362">
        <ele>73.3</ele>
        <time>2022-09-23T07:26:50Z</time>
      </trkpt>
      <trkpt lat="44.0571" lon="0.25356">
        <ele>72.3</ele>
        <time>2022-09-23T07:26:54Z</time>
      </trkpt>
      <trkpt lat="44.05712" lon="0.2535">
        <ele>71</ele>
        <time>2022-09-23T07:26:59Z</time>
      </trkpt>
      <trkpt lat="44.05713" lon="0.25343">
        <ele>70.3</ele>
        <time>2022-09-23T07:27:04Z</time>
      </trkpt>
      <trkpt lat="44.05714" lon="0.25336">
        <ele>70</ele>
        <time>2022-09-23T07:27:09Z</time>
      </trkpt>
      <trkpt lat="44.05717" lon="0.2533">
        <ele>69.3</ele>
        <time>2022-09-23T07:27:14Z</time>
      </trkpt>
      <trkpt lat="44.05718" lon="0.25324">
        <ele>69</ele>
        <time>2022-09-23T07:27:18Z</time>
      </trkpt>
      <trkpt lat="44.05718" lon="0.25317">
        <ele>68.6</ele>
        <time>2022-09-23T07:27:22Z</time>
      </trkpt>
      <trkpt lat="44.05717" lon="0.25311">
        <ele>68.2</ele>
        <time>2022-09-23T07:27:26Z</time>
      </trkpt>
      <trkpt lat="44.05716" lon="0.25304">
        <ele>68</ele>
        <time>2022-09-23T07:27:30Z</time>
      </trkpt>
      <trkpt lat="44.05715" lon="0.25297">
        <ele>68.4</ele>
        <time>2022-09-23T07:27:34Z</time>
      </trkpt>
      <trkpt lat="44.05715" lon="0.25289">
        <ele>69.4</ele>
        <time>2022-09-23T07:27:38Z</time>
      </trkpt>
      <trkpt lat="44.05714" lon="0.25282">
        <ele>70.6</ele>
        <time>2022-09-23T07:27:42Z</time>
      </trkpt>
      <trkpt lat="44.05713" lon="0.25275">
        <ele>71.4</ele>
        <time>2022-09-23T07:27:46Z</time>
      </trkpt>
      <trkpt lat="44.05713" lon="0.25267">
        <ele>72.2</ele>
        <time>2022-09-23T07:27:50Z</time>
      </trkpt>
      <trkpt lat="44.05712" lon="0.2526">
        <ele>72.9</ele>
        <time>2022-09-23T07:27:54Z</time>
      </trkpt>
      <trkpt lat="44.05711" lon="0.25253">
        <ele>73.4</ele>
        <time>2022-09-23T07:27:58Z</time>
      </trkpt>
      <trkpt lat="44.05711" lon="0.25246">
        <ele>73.5</ele>
        <time>2022-09-23T07:28:02Z</time>
      </trkpt>
      <trkpt lat="44.05711" lon="0.25239">
        <ele>73.8</ele>
        <time>2022-09-23T07:28:05Z</time>
      </trkpt>
      <trkpt lat="44.05711" lon="0.25232">
        <ele>74.2</ele>
        <time>2022-09-23T07:28:08Z</time>
      </trkpt>
      <trkpt lat="44.05712" lon="0.25224">
        <ele>74</ele>
        <time>2022-09-23T07:28:12Z</time>
      </trkpt>
      <trkpt lat="44.05712" lon="0.25217">
        <ele>72.9</ele>
        <time>2022-09-23T07:28:16Z</time>
      </trkpt>
      <trkpt lat="44.05711" lon="0.2521">
        <ele>71.4</ele>
        <time>2022-09-23T07:28:21Z</time>
      </trkpt>
      <trkpt lat="44.05713" lon="0.25203">
        <ele>69.5</ele>
        <time>2022-09-23T07:28:26Z</time>
      </trkpt>
      <trkpt lat="44.05715" lon="0.25195">
        <ele>67.3</ele>
        <time>2022-09-23T07:28:32Z</time>
      </trkpt>
      <trkpt lat="44.05715" lon="0.25188">
        <ele>66.4</ele>
        <time>2022-09-23T07:28:36Z</time>
      </trkpt>
      <trkpt lat="44.05716" lon="0.25181">
        <ele>65.9</ele>
        <time>2022-09-23T07:28:40Z</time>
      </trkpt>
      <trkpt lat="44.05717" lon="0.25175">
        <ele>65.5</ele>
        <time>2022-09-23T07:28:44Z</time>
      </trkpt>
      <trkpt lat="44.05717" lon="0.25167">
        <ele>64.8</ele>
        <time>2022-09-23T07:28:50Z</time>
      </trkpt>
      <trkpt lat="44.05718" lon="0.2516">
        <ele>64.4</ele>
        <time>2022-09-23T07:28:55Z</time>
      </trkpt>
      <trkpt lat="44.05719" lon="0.25153">
        <ele>63.8</ele>
        <time>2022-09-23T07:29:00Z</time>
      </trkpt>
      <trkpt lat="44.05719" lon="0.25145">
        <ele>63.5</ele>
        <time>2022-09-23T07:29:06Z</time>
      </trkpt>
      <trkpt lat="44.05719" lon="0.25139">
        <ele>63.5</ele>
        <time>2022-09-23T07:29:12Z</time>
      </trkpt>
      <trkpt lat="44.05719" lon="0.25132">
        <ele>63.7</ele>
        <time>2022-09-23T07:29:15Z</time>
      </trkpt>
      <trkpt lat="44.05718" lon="0.25122">
        <ele>64.7</ele>
        <time>2022-09-23T07:29:18Z</time>
      </trkpt>
      <trkpt lat="44.05717" lon="0.25115">
        <ele>65.5</ele>
        <time>2022-09-23T07:29:22Z</time>
      </trkpt>
      <trkpt lat="44.05717" lon="0.25108">
        <ele>66.8</ele>
        <time>2022-09-23T07:29:25Z</time>
      </trkpt>
      <trkpt lat="44.05719" lon="0.25102">
        <ele>66.8</ele>
        <time>2022-09-23T07:29:28Z</time>
      </trkpt>
      <trkpt lat="44.05719" lon="0.25091">
        <ele>65.6</ele>
        <time>2022-09-23T07:29:37Z</time>
      </trkpt>
      <trkpt lat="44.05718" lon="0.25083">
        <ele>65.4</ele>
        <time>2022-09-23T07:29:40Z</time>
      </trkpt>
      <trkpt lat="44.05718" lon="0.25074">
        <ele>65.7</ele>
        <time>2022-09-23T07:29:50Z</time>
      </trkpt>
      <trkpt lat="44.05719" lon="0.25064">
        <ele>66.5</ele>
        <time>2022-09-23T07:29:53Z</time>
      </trkpt>
      <trkpt lat="44.0572" lon="0.25058">
        <ele>67.3</ele>
        <time>2022-09-23T07:29:56Z</time>
      </trkpt>
      <trkpt lat="44.0572" lon="0.2505">
        <ele>67.9</ele>
        <time>2022-09-23T07:30:00Z</time>
      </trkpt>
      <trkpt lat="44.0572" lon="0.25042">
        <ele>68.3</ele>
        <time>2022-09-23T07:30:05Z</time>
      </trkpt>
      <trkpt lat="44.05718" lon="0.25033">
        <ele>67.7</ele>
        <time>2022-09-23T07:30:13Z</time>
      </trkpt>
      <trkpt lat="44.05716" lon="0.25025">
        <ele>66.9</ele>
        <time>2022-09-23T07:30:16Z</time>
      </trkpt>
      <trkpt lat="44.05716" lon="0.25018">
        <ele>66.2</ele>
        <time>2022-09-23T07:30:19Z</time>
      </trkpt>
      <trkpt lat="44.05715" lon="0.2501">
        <ele>65.3</ele>
        <time>2022-09-23T07:30:22Z</time>
      </trkpt>
      <trkpt lat="44.05715" lon="0.25003">
        <ele>64.3</ele>
        <time>2022-09-23T07:30:26Z</time>
      </trkpt>
      <trkpt lat="44.05711" lon="0.25002">
        <ele>62.7</ele>
        <time>2022-09-23T07:30:57Z</time>
      </trkpt>
      <trkpt lat="44.05706" lon="0.24999">
        <ele>62.4</ele>
        <time>2022-09-23T07:31:00Z</time>
      </trkpt>
      <trkpt lat="44.05705" lon="0.24992">
        <ele>61.9</ele>
        <time>2022-09-23T07:31:04Z</time>
      </trkpt>
      <trkpt lat="44.05705" lon="0.24985">
        <ele>61.3</ele>
        <time>2022-09-23T07:31:08Z</time>
      </trkpt>
      <trkpt lat="44.05705" lon="0.24978">
        <ele>61</ele>
        <time>2022-09-23T07:31:12Z</time>
      </trkpt>
      <trkpt lat="44.05706" lon="0.24971">
        <ele>60.4</ele>
        <time>2022-09-23T07:31:17Z</time>
      </trkpt>
      <trkpt lat="44.05706" lon="0.24965">
        <ele>60.1</ele>
        <time>2022-09-23T07:31:21Z</time>
      </trkpt>
      <trkpt lat="44.05703" lon="0.24958">
        <ele>59.1</ele>
        <time>2022-09-23T07:31:28Z</time>
      </trkpt>
      <trkpt lat="44.05699" lon="0.24953">
        <ele>58.4</ele>
        <time>2022-09-23T07:31:31Z</time>
      </trkpt>
      <trkpt lat="44.05695" lon="0.24948">
        <ele>57.5</ele>
        <time>2022-09-23T07:31:35Z</time>
      </trkpt>
      <trkpt lat="44.05691" lon="0.24944">
        <ele>56.8</ele>
        <time>2022-09-23T07:31:39Z</time>
      </trkpt>
      <trkpt lat="44.05686" lon="0.24941">
        <ele>56.1</ele>
        <time>2022-09-23T07:31:43Z</time>
      </trkpt>
      <trkpt lat="44.05681" lon="0.24939">
        <ele>55.1</ele>
        <time>2022-09-23T07:31:47Z</time>
      </trkpt>
      <trkpt lat="44.05676" lon="0.24938">
        <ele>54.8</ele>
        <time>2022-09-23T07:31:52Z</time>
      </trkpt>
      <trkpt lat="44.05672" lon="0.24936">
        <ele>54.7</ele>
        <time>2022-09-23T07:31:57Z</time>
      </trkpt>
      <trkpt lat="44.05667" lon="0.24934">
        <ele>54</ele>
        <time>2022-09-23T07:32:03Z</time>
      </trkpt>
      <trkpt lat="44.05662" lon="0.24932">
        <ele>53.3</ele>
        <time>2022-09-23T07:32:06Z</time>
      </trkpt>
      <trkpt lat="44.05657" lon="0.2493">
        <ele>52.7</ele>
        <time>2022-09-23T07:32:10Z</time>
      </trkpt>
      <trkpt lat="44.05652" lon="0.24929">
        <ele>52.4</ele>
        <time>2022-09-23T07:32:13Z</time>
      </trkpt>
      <trkpt lat="44.05646" lon="0.24928">
        <ele>52.3</ele>
        <time>2022-09-23T07:32:17Z</time>
      </trkpt>
      <trkpt lat="44.0564" lon="0.24928">
        <ele>52.3</ele>
        <time>2022-09-23T07:32:21Z</time>
      </trkpt>
      <trkpt lat="44.05636" lon="0.24928">
        <ele>52.7</ele>
        <time>2022-09-23T07:32:24Z</time>
      </trkpt>
      <trkpt lat="44.05631" lon="0.24928">
        <ele>53.3</ele>
        <time>2022-09-23T07:32:27Z</time>
      </trkpt>
      <trkpt lat="44.05625" lon="0.24927">
        <ele>54.4</ele>
        <time>2022-09-23T07:32:31Z</time>
      </trkpt>
      <trkpt lat="44.0562" lon="0.24924">
        <ele>55.9</ele>
        <time>2022-09-23T07:32:35Z</time>
      </trkpt>
      <trkpt lat="44.05615" lon="0.24925">
        <ele>57.2</ele>
        <time>2022-09-23T07:32:39Z</time>
      </trkpt>
      <trkpt lat="44.0561" lon="0.24924">
        <ele>58</ele>
        <time>2022-09-23T07:32:44Z</time>
      </trkpt>
      <trkpt lat="44.05605" lon="0.24922">
        <ele>58</ele>
        <time>2022-09-23T07:32:49Z</time>
      </trkpt>
      <trkpt lat="44.056" lon="0.24923">
        <ele>58</ele>
        <time>2022-09-23T07:32:53Z</time>
      </trkpt>
      <trkpt lat="44.05595" lon="0.24923">
        <ele>58.5</ele>
        <time>2022-09-23T07:32:57Z</time>
      </trkpt>
      <trkpt lat="44.0559" lon="0.24923">
        <ele>59.2</ele>
        <time>2022-09-23T07:33:03Z</time>
      </trkpt>
      <trkpt lat="44.05585" lon="0.24922">
        <ele>59.3</ele>
        <time>2022-09-23T07:33:06Z</time>
      </trkpt>
      <trkpt lat="44.0558" lon="0.2492">
        <ele>59.2</ele>
        <time>2022-09-23T07:33:10Z</time>
      </trkpt>
      <trkpt lat="44.05575" lon="0.24918">
        <ele>59.4</ele>
        <time>2022-09-23T07:33:14Z</time>
      </trkpt>
      <trkpt lat="44.0557" lon="0.24917">
        <ele>59.6</ele>
        <time>2022-09-23T07:33:18Z</time>
      </trkpt>
      <trkpt lat="44.05565" lon="0.24915">
        <ele>59.1</ele>
        <time>2022-09-23T07:33:23Z</time>
      </trkpt>
      <trkpt lat="44.05561" lon="0.24907">
        <ele>56.9</ele>
        <time>2022-09-23T07:33:46Z</time>
      </trkpt>
      <trkpt lat="44.05558" lon="0.24902">
        <ele>54.7</ele>
        <time>2022-09-23T07:33:54Z</time>
      </trkpt>
      <trkpt lat="44.05553" lon="0.24901">
        <ele>55.3</ele>
        <time>2022-09-23T07:37:20Z</time>
      </trkpt>
      <trkpt lat="44.05549" lon="0.24899">
        <ele>57.3</ele>
        <time>2022-09-23T07:37:27Z</time>
      </trkpt>
      <trkpt lat="44.05544" lon="0.24898">
        <ele>58.6</ele>
        <time>2022-09-23T07:37:34Z</time>
      </trkpt>
      <trkpt lat="44.05538" lon="0.24896">
        <ele>59.3</ele>
        <time>2022-09-23T07:37:37Z</time>
      </trkpt>
      <trkpt lat="44.0553" lon="0.24892">
        <ele>60.8</ele>
        <time>2022-09-23T07:37:48Z</time>
      </trkpt>
      <trkpt lat="44.05526" lon="0.2489">
        <ele>61.1</ele>
        <time>2022-09-23T07:37:51Z</time>
      </trkpt>
      <trkpt lat="44.0552" lon="0.24887">
        <ele>61.4</ele>
        <time>2022-09-23T07:37:55Z</time>
      </trkpt>
      <trkpt lat="44.05516" lon="0.24885">
        <ele>61.5</ele>
        <time>2022-09-23T07:37:58Z</time>
      </trkpt>
      <trkpt lat="44.0551" lon="0.24883">
        <ele>61.3</ele>
        <time>2022-09-23T07:38:04Z</time>
      </trkpt>
      <trkpt lat="44.05503" lon="0.2488">
        <ele>61</ele>
        <time>2022-09-23T07:38:07Z</time>
      </trkpt>
      <trkpt lat="44.05499" lon="0.24878">
        <ele>61</ele>
        <time>2022-09-23T07:38:10Z</time>
      </trkpt>
      <trkpt lat="44.05492" lon="0.24877">
        <ele>61</ele>
        <time>2022-09-23T07:38:16Z</time>
      </trkpt>
      <trkpt lat="44.05486" lon="0.24876">
        <ele>60.7</ele>
        <time>2022-09-23T07:38:19Z</time>
      </trkpt>
      <trkpt lat="44.05478" lon="0.24873">
        <ele>59.9</ele>
        <time>2022-09-23T07:38:26Z</time>
      </trkpt>
      <trkpt lat="44.05472" lon="0.2487">
        <ele>59.2</ele>
        <time>2022-09-23T07:38:29Z</time>
      </trkpt>
      <trkpt lat="44.05467" lon="0.24867">
        <ele>58.2</ele>
        <time>2022-09-23T07:38:32Z</time>
      </trkpt>
      <trkpt lat="44.05463" lon="0.24863">
        <ele>57.3</ele>
        <time>2022-09-23T07:38:36Z</time>
      </trkpt>
      <trkpt lat="44.05458" lon="0.24858">
        <ele>56</ele>
        <time>2022-09-23T07:38:42Z</time>
      </trkpt>
      <trkpt lat="44.05452" lon="0.24854">
        <ele>55.2</ele>
        <time>2022-09-23T07:38:45Z</time>
      </trkpt>
      <trkpt lat="44.05445" lon="0.24852">
        <ele>53.6</ele>
        <time>2022-09-23T07:38:53Z</time>
      </trkpt>
      <trkpt lat="44.05439" lon="0.24851">
        <ele>53.2</ele>
        <time>2022-09-23T07:38:56Z</time>
      </trkpt>
      <trkpt lat="44.05431" lon="0.24848">
        <ele>52.3</ele>
        <time>2022-09-23T07:39:05Z</time>
      </trkpt>
      <trkpt lat="44.05426" lon="0.24845">
        <ele>51.8</ele>
        <time>2022-09-23T07:39:08Z</time>
      </trkpt>
      <trkpt lat="44.0542" lon="0.24842">
        <ele>51.5</ele>
        <time>2022-09-23T07:39:16Z</time>
      </trkpt>
      <trkpt lat="44.05415" lon="0.24839">
        <ele>51.7</ele>
        <time>2022-09-23T07:39:19Z</time>
      </trkpt>
      <trkpt lat="44.0541" lon="0.24837">
        <ele>52.1</ele>
        <time>2022-09-23T07:39:23Z</time>
      </trkpt>
      <trkpt lat="44.05405" lon="0.24835">
        <ele>52.3</ele>
        <time>2022-09-23T07:39:28Z</time>
      </trkpt>
      <trkpt lat="44.05399" lon="0.24833">
        <ele>52.3</ele>
        <time>2022-09-23T07:39:32Z</time>
      </trkpt>
      <trkpt lat="44.05393" lon="0.2483">
        <ele>52.3</ele>
        <time>2022-09-23T07:39:41Z</time>
      </trkpt>
      <trkpt lat="44.05387" lon="0.24828">
        <ele>52.2</ele>
        <time>2022-09-23T07:39:44Z</time>
      </trkpt>
      <trkpt lat="44.05379" lon="0.24825">
        <ele>51.8</ele>
        <time>2022-09-23T07:39:54Z</time>
      </trkpt>
      <trkpt lat="44.05373" lon="0.24822">
        <ele>51.4</ele>
        <time>2022-09-23T07:39:57Z</time>
      </trkpt>
      <trkpt lat="44.05367" lon="0.2482">
        <ele>51.1</ele>
        <time>2022-09-23T07:40:04Z</time>
      </trkpt>
      <trkpt lat="44.05361" lon="0.24818">
        <ele>51.4</ele>
        <time>2022-09-23T07:40:07Z</time>
      </trkpt>
      <trkpt lat="44.05354" lon="0.24815">
        <ele>52.2</ele>
        <time>2022-09-23T07:40:12Z</time>
      </trkpt>
      <trkpt lat="44.05348" lon="0.24813">
        <ele>53.2</ele>
        <time>2022-09-23T07:40:15Z</time>
      </trkpt>
      <trkpt lat="44.0534" lon="0.24809">
        <ele>54.9</ele>
        <time>2022-09-23T07:40:22Z</time>
      </trkpt>
      <trkpt lat="44.05334" lon="0.24806">
        <ele>55.7</ele>
        <time>2022-09-23T07:40:25Z</time>
      </trkpt>
      <trkpt lat="44.05327" lon="0.24803">
        <ele>56.8</ele>
        <time>2022-09-23T07:40:32Z</time>
      </trkpt>
      <trkpt lat="44.05322" lon="0.24802">
        <ele>57</ele>
        <time>2022-09-23T07:40:35Z</time>
      </trkpt>
      <trkpt lat="44.05317" lon="0.24801">
        <ele>57.3</ele>
        <time>2022-09-23T07:40:39Z</time>
      </trkpt>
      <trkpt lat="44.05312" lon="0.24799">
        <ele>57.5</ele>
        <time>2022-09-23T07:40:44Z</time>
      </trkpt>
      <trkpt lat="44.05307" lon="0.24796">
        <ele>57.8</ele>
        <time>2022-09-23T07:40:51Z</time>
      </trkpt>
      <trkpt lat="44.05301" lon="0.24793">
        <ele>58.1</ele>
        <time>2022-09-23T07:40:54Z</time>
      </trkpt>
      <trkpt lat="44.05296" lon="0.2479">
        <ele>58.3</ele>
        <time>2022-09-23T07:40:58Z</time>
      </trkpt>
      <trkpt lat="44.05291" lon="0.24787">
        <ele>58.5</ele>
        <time>2022-09-23T07:41:05Z</time>
      </trkpt>
      <trkpt lat="44.05284" lon="0.24785">
        <ele>58.5</ele>
        <time>2022-09-23T07:41:08Z</time>
      </trkpt>
      <trkpt lat="44.05278" lon="0.24783">
        <ele>58.3</ele>
        <time>2022-09-23T07:41:11Z</time>
      </trkpt>
      <trkpt lat="44.05271" lon="0.2478">
        <ele>58</ele>
        <time>2022-09-23T07:41:18Z</time>
      </trkpt>
      <trkpt lat="44.05265" lon="0.24778">
        <ele>58</ele>
        <time>2022-09-23T07:41:21Z</time>
      </trkpt>
      <trkpt lat="44.05259" lon="0.24776">
        <ele>58.3</ele>
        <time>2022-09-23T07:41:25Z</time>
      </trkpt>
      <trkpt lat="44.05255" lon="0.24775">
        <ele>58.9</ele>
        <time>2022-09-23T07:41:29Z</time>
      </trkpt>
      <trkpt lat="44.05248" lon="0.2477">
        <ele>60.5</ele>
        <time>2022-09-23T07:41:40Z</time>
      </trkpt>
      <trkpt lat="44.05241" lon="0.24767">
        <ele>61.4</ele>
        <time>2022-09-23T07:41:43Z</time>
      </trkpt>
      <trkpt lat="44.05233" lon="0.24764">
        <ele>63.2</ele>
        <time>2022-09-23T07:41:52Z</time>
      </trkpt>
      <trkpt lat="44.05228" lon="0.24762">
        <ele>63.8</ele>
        <time>2022-09-23T07:41:55Z</time>
      </trkpt>
      <trkpt lat="44.05223" lon="0.2476">
        <ele>64.1</ele>
        <time>2022-09-23T07:42:00Z</time>
      </trkpt>
      <trkpt lat="44.05219" lon="0.24757">
        <ele>64.4</ele>
        <time>2022-09-23T07:42:04Z</time>
      </trkpt>
      <trkpt lat="44.05214" lon="0.24753">
        <ele>64.9</ele>
        <time>2022-09-23T07:42:07Z</time>
      </trkpt>
      <trkpt lat="44.0521" lon="0.2475">
        <ele>65.3</ele>
        <time>2022-09-23T07:42:10Z</time>
      </trkpt>
      <trkpt lat="44.05206" lon="0.24748">
        <ele>65.4</ele>
        <time>2022-09-23T07:42:14Z</time>
      </trkpt>
      <trkpt lat="44.05201" lon="0.24747">
        <ele>65.2</ele>
        <time>2022-09-23T07:42:18Z</time>
      </trkpt>
      <trkpt lat="44.05195" lon="0.24746">
        <ele>65</ele>
        <time>2022-09-23T07:42:22Z</time>
      </trkpt>
      <trkpt lat="44.0519" lon="0.24744">
        <ele>64.9</ele>
        <time>2022-09-23T07:42:25Z</time>
      </trkpt>
      <trkpt lat="44.05185" lon="0.24742">
        <ele>64.7</ele>
        <time>2022-09-23T07:42:29Z</time>
      </trkpt>
      <trkpt lat="44.0518" lon="0.24739">
        <ele>64.1</ele>
        <time>2022-09-23T07:42:33Z</time>
      </trkpt>
      <trkpt lat="44.05174" lon="0.24738">
        <ele>63.1</ele>
        <time>2022-09-23T07:42:37Z</time>
      </trkpt>
      <trkpt lat="44.0517" lon="0.24736">
        <ele>62.5</ele>
        <time>2022-09-23T07:42:40Z</time>
      </trkpt>
      <trkpt lat="44.05164" lon="0.24736">
        <ele>62.1</ele>
        <time>2022-09-23T07:42:44Z</time>
      </trkpt>
      <trkpt lat="44.0516" lon="0.24735">
        <ele>61.5</ele>
        <time>2022-09-23T07:42:49Z</time>
      </trkpt>
      <trkpt lat="44.05155" lon="0.24732">
        <ele>61</ele>
        <time>2022-09-23T07:42:52Z</time>
      </trkpt>
      <trkpt lat="44.05149" lon="0.2473">
        <ele>60</ele>
        <time>2022-09-23T07:42:58Z</time>
      </trkpt>
      <trkpt lat="44.05144" lon="0.24728">
        <ele>59.5</ele>
        <time>2022-09-23T07:43:02Z</time>
      </trkpt>
      <trkpt lat="44.0514" lon="0.24725">
        <ele>59</ele>
        <time>2022-09-23T07:43:06Z</time>
      </trkpt>
      <trkpt lat="44.05136" lon="0.24722">
        <ele>58.7</ele>
        <time>2022-09-23T07:43:11Z</time>
      </trkpt>
      <trkpt lat="44.05132" lon="0.24716">
        <ele>58.8</ele>
        <time>2022-09-23T07:43:17Z</time>
      </trkpt>
      <trkpt lat="44.05128" lon="0.24709">
        <ele>58.9</ele>
        <time>2022-09-23T07:43:28Z</time>
      </trkpt>
      <trkpt lat="44.05124" lon="0.24703">
        <ele>58.8</ele>
        <time>2022-09-23T07:43:31Z</time>
      </trkpt>
      <trkpt lat="44.0512" lon="0.24699">
        <ele>58.7</ele>
        <time>2022-09-23T07:43:34Z</time>
      </trkpt>
      <trkpt lat="44.05116" lon="0.24694">
        <ele>58.2</ele>
        <time>2022-09-23T07:43:38Z</time>
      </trkpt>
      <trkpt lat="44.05112" lon="0.24688">
        <ele>57.3</ele>
        <time>2022-09-23T07:43:42Z</time>
      </trkpt>
      <trkpt lat="44.05108" lon="0.24684">
        <ele>57.2</ele>
        <time>2022-09-23T07:43:46Z</time>
      </trkpt>
      <trkpt lat="44.05104" lon="0.24679">
        <ele>57.3</ele>
        <time>2022-09-23T07:43:50Z</time>
      </trkpt>
      <trkpt lat="44.051" lon="0.24674">
        <ele>57</ele>
        <time>2022-09-23T07:43:55Z</time>
      </trkpt>
      <trkpt lat="44.05096" lon="0.2467">
        <ele>57</ele>
        <time>2022-09-23T07:44:00Z</time>
      </trkpt>
      <trkpt lat="44.05091" lon="0.24668">
        <ele>57.4</ele>
        <time>2022-09-23T07:44:05Z</time>
      </trkpt>
      <trkpt lat="44.05088" lon="0.24662">
        <ele>58.8</ele>
        <time>2022-09-23T07:44:26Z</time>
      </trkpt>
      <trkpt lat="44.05086" lon="0.24655">
        <ele>59.5</ele>
        <time>2022-09-23T07:44:29Z</time>
      </trkpt>
      <trkpt lat="44.05085" lon="0.24649">
        <ele>60.6</ele>
        <time>2022-09-23T07:44:34Z</time>
      </trkpt>
      <trkpt lat="44.05081" lon="0.24644">
        <ele>60.5</ele>
        <time>2022-09-23T07:44:43Z</time>
      </trkpt>
      <trkpt lat="44.05076" lon="0.24644">
        <ele>59.2</ele>
        <time>2022-09-23T07:44:47Z</time>
      </trkpt>
      <trkpt lat="44.0507" lon="0.24644">
        <ele>58.2</ele>
        <time>2022-09-23T07:44:51Z</time>
      </trkpt>
      <trkpt lat="44.05065" lon="0.24644">
        <ele>57.8</ele>
        <time>2022-09-23T07:44:56Z</time>
      </trkpt>
      <trkpt lat="44.0506" lon="0.24647">
        <ele>57.8</ele>
        <time>2022-09-23T07:45:01Z</time>
      </trkpt>
      <trkpt lat="44.05055" lon="0.24649">
        <ele>57.7</ele>
        <time>2022-09-23T07:45:06Z</time>
      </trkpt>
      <trkpt lat="44.05049" lon="0.24653">
        <ele>58.1</ele>
        <time>2022-09-23T07:45:15Z</time>
      </trkpt>
      <trkpt lat="44.05044" lon="0.24653">
        <ele>58.3</ele>
        <time>2022-09-23T07:45:18Z</time>
      </trkpt>
      <trkpt lat="44.05038" lon="0.24652">
        <ele>57.9</ele>
        <time>2022-09-23T07:45:37Z</time>
      </trkpt>
      <trkpt lat="44.05033" lon="0.2465">
        <ele>57.4</ele>
        <time>2022-09-23T07:45:40Z</time>
      </trkpt>
      <trkpt lat="44.05028" lon="0.2465">
        <ele>57.3</ele>
        <time>2022-09-23T07:45:43Z</time>
      </trkpt>
      <trkpt lat="44.05024" lon="0.24646">
        <ele>57.9</ele>
        <time>2022-09-23T07:45:48Z</time>
      </trkpt>
      <trkpt lat="44.05019" lon="0.24643">
        <ele>59.6</ele>
        <time>2022-09-23T07:48:37Z</time>
      </trkpt>
      <trkpt lat="44.05014" lon="0.24637">
        <ele>60.4</ele>
        <time>2022-09-23T07:48:40Z</time>
      </trkpt>
      <trkpt lat="44.05012" lon="0.24631">
        <ele>60.7</ele>
        <time>2022-09-23T07:48:44Z</time>
      </trkpt>
      <trkpt lat="44.0501" lon="0.24625">
        <ele>60.6</ele>
        <time>2022-09-23T07:48:47Z</time>
      </trkpt>
      <trkpt lat="44.05006" lon="0.24621">
        <ele>60.3</ele>
        <time>2022-09-23T07:48:53Z</time>
      </trkpt>
      <trkpt lat="44.05002" lon="0.24618">
        <ele>59.5</ele>
        <time>2022-09-23T07:48:57Z</time>
      </trkpt>
      <trkpt lat="44.04997" lon="0.24616">
        <ele>58.4</ele>
        <time>2022-09-23T07:49:04Z</time>
      </trkpt>
      <trkpt lat="44.04993" lon="0.24612">
        <ele>58.2</ele>
        <time>2022-09-23T07:49:08Z</time>
      </trkpt>
      <trkpt lat="44.04988" lon="0.24608">
        <ele>58.4</ele>
        <time>2022-09-23T07:49:12Z</time>
      </trkpt>
      <trkpt lat="44.04983" lon="0.24604">
        <ele>58.4</ele>
        <time>2022-09-23T07:49:16Z</time>
      </trkpt>
      <trkpt lat="44.04978" lon="0.24594">
        <ele>58.5</ele>
        <time>2022-09-23T07:49:29Z</time>
      </trkpt>
      <trkpt lat="44.04975" lon="0.24588">
        <ele>58.2</ele>
        <time>2022-09-23T07:49:32Z</time>
      </trkpt>
      <trkpt lat="44.04973" lon="0.24582">
        <ele>57.8</ele>
        <time>2022-09-23T07:49:37Z</time>
      </trkpt>
      <trkpt lat="44.0497" lon="0.24575">
        <ele>57.5</ele>
        <time>2022-09-23T07:49:41Z</time>
      </trkpt>
      <trkpt lat="44.04966" lon="0.24571">
        <ele>57.3</ele>
        <time>2022-09-23T07:49:45Z</time>
      </trkpt>
      <trkpt lat="44.04962" lon="0.24567">
        <ele>57.1</ele>
        <time>2022-09-23T07:49:50Z</time>
      </trkpt>
      <trkpt lat="44.04956" lon="0.24561">
        <ele>57.7</ele>
        <time>2022-09-23T07:49:58Z</time>
      </trkpt>
      <trkpt lat="44.04952" lon="0.24556">
        <ele>57.9</ele>
        <time>2022-09-23T07:50:01Z</time>
      </trkpt>
      <trkpt lat="44.04948" lon="0.2455">
        <ele>57.9</ele>
        <time>2022-09-23T07:50:05Z</time>
      </trkpt>
      <trkpt lat="44.04945" lon="0.24545">
        <ele>57.4</ele>
        <time>2022-09-23T07:50:11Z</time>
      </trkpt>
      <trkpt lat="44.04942" lon="0.2454">
        <ele>56.7</ele>
        <time>2022-09-23T07:50:17Z</time>
      </trkpt>
      <trkpt lat="44.04938" lon="0.24535">
        <ele>56.3</ele>
        <time>2022-09-23T07:50:20Z</time>
      </trkpt>
      <trkpt lat="44.04935" lon="0.24527">
        <ele>55.5</ele>
        <time>2022-09-23T07:50:31Z</time>
      </trkpt>
      <trkpt lat="44.04931" lon="0.2452">
        <ele>55.4</ele>
        <time>2022-09-23T07:50:34Z</time>
      </trkpt>
      <trkpt lat="44.04927" lon="0.24513">
        <ele>55.2</ele>
        <time>2022-09-23T07:50:40Z</time>
      </trkpt>
      <trkpt lat="44.04925" lon="0.24507">
        <ele>55.2</ele>
        <time>2022-09-23T07:50:43Z</time>
      </trkpt>
      <trkpt lat="44.04921" lon="0.24499">
        <ele>55</ele>
        <time>2022-09-23T07:50:50Z</time>
      </trkpt>
      <trkpt lat="44.04917" lon="0.24492">
        <ele>54.7</ele>
        <time>2022-09-23T07:50:53Z</time>
      </trkpt>
      <trkpt lat="44.04913" lon="0.24483">
        <ele>53.6</ele>
        <time>2022-09-23T07:51:03Z</time>
      </trkpt>
      <trkpt lat="44.0491" lon="0.24477">
        <ele>52.9</ele>
        <time>2022-09-23T07:51:06Z</time>
      </trkpt>
      <trkpt lat="44.04906" lon="0.2447">
        <ele>51.7</ele>
        <time>2022-09-23T07:51:14Z</time>
      </trkpt>
      <trkpt lat="44.04902" lon="0.24463">
        <ele>51.5</ele>
        <time>2022-09-23T07:51:17Z</time>
      </trkpt>
      <trkpt lat="44.04899" lon="0.24457">
        <ele>51.4</ele>
        <time>2022-09-23T07:51:21Z</time>
      </trkpt>
      <trkpt lat="44.04895" lon="0.2445">
        <ele>51.4</ele>
        <time>2022-09-23T07:51:29Z</time>
      </trkpt>
      <trkpt lat="44.04893" lon="0.24444">
        <ele>51.4</ele>
        <time>2022-09-23T07:51:32Z</time>
      </trkpt>
      <trkpt lat="44.0489" lon="0.24433">
        <ele>51.2</ele>
        <time>2022-09-23T07:51:43Z</time>
      </trkpt>
      <trkpt lat="44.04888" lon="0.24427">
        <ele>51</ele>
        <time>2022-09-23T07:51:46Z</time>
      </trkpt>
      <trkpt lat="44.04884" lon="0.24419">
        <ele>50.5</ele>
        <time>2022-09-23T07:51:53Z</time>
      </trkpt>
      <trkpt lat="44.04881" lon="0.24413">
        <ele>50.1</ele>
        <time>2022-09-23T07:51:56Z</time>
      </trkpt>
      <trkpt lat="44.04878" lon="0.24404">
        <ele>49.6</ele>
        <time>2022-09-23T07:52:04Z</time>
      </trkpt>
      <trkpt lat="44.04874" lon="0.24396">
        <ele>49.7</ele>
        <time>2022-09-23T07:52:07Z</time>
      </trkpt>
      <trkpt lat="44.04871" lon="0.24387">
        <ele>49.9</ele>
        <time>2022-09-23T07:52:14Z</time>
      </trkpt>
      <trkpt lat="44.04868" lon="0.24378">
        <ele>50.3</ele>
        <time>2022-09-23T07:52:17Z</time>
      </trkpt>
      <trkpt lat="44.04865" lon="0.24368">
        <ele>50.7</ele>
        <time>2022-09-23T07:52:25Z</time>
      </trkpt>
      <trkpt lat="44.04862" lon="0.2436">
        <ele>50.8</ele>
        <time>2022-09-23T07:52:28Z</time>
      </trkpt>
      <trkpt lat="44.04858" lon="0.2435">
        <ele>50.7</ele>
        <time>2022-09-23T07:52:35Z</time>
      </trkpt>
      <trkpt lat="44.04856" lon="0.24344">
        <ele>50.7</ele>
        <time>2022-09-23T07:52:38Z</time>
      </trkpt>
      <trkpt lat="44.04853" lon="0.24334">
        <ele>51</ele>
        <time>2022-09-23T07:52:46Z</time>
      </trkpt>
      <trkpt lat="44.0485" lon="0.24327">
        <ele>51.3</ele>
        <time>2022-09-23T07:52:49Z</time>
      </trkpt>
      <trkpt lat="44.04847" lon="0.24317">
        <ele>51.9</ele>
        <time>2022-09-23T07:53:00Z</time>
      </trkpt>
      <trkpt lat="44.04845" lon="0.24309">
        <ele>52.1</ele>
        <time>2022-09-23T07:53:03Z</time>
      </trkpt>
      <trkpt lat="44.04844" lon="0.24299">
        <ele>52.2</ele>
        <time>2022-09-23T07:53:12Z</time>
      </trkpt>
      <trkpt lat="44.04842" lon="0.24291">
        <ele>52.1</ele>
        <time>2022-09-23T07:53:15Z</time>
      </trkpt>
      <trkpt lat="44.04839" lon="0.24282">
        <ele>51.8</ele>
        <time>2022-09-23T07:53:23Z</time>
      </trkpt>
      <trkpt lat="44.04836" lon="0.24274">
        <ele>51.7</ele>
        <time>2022-09-23T07:53:26Z</time>
      </trkpt>
      <trkpt lat="44.04832" lon="0.24264">
        <ele>51.5</ele>
        <time>2022-09-23T07:53:33Z</time>
      </trkpt>
      <trkpt lat="44.04829" lon="0.24257">
        <ele>51.4</ele>
        <time>2022-09-23T07:53:36Z</time>
      </trkpt>
      <trkpt lat="44.04826" lon="0.24248">
        <ele>51.1</ele>
        <time>2022-09-23T07:53:45Z</time>
      </trkpt>
      <trkpt lat="44.04824" lon="0.2424">
        <ele>50.9</ele>
        <time>2022-09-23T07:53:48Z</time>
      </trkpt>
      <trkpt lat="44.04821" lon="0.24231">
        <ele>50.8</ele>
        <time>2022-09-23T07:53:55Z</time>
      </trkpt>
      <trkpt lat="44.04818" lon="0.24224">
        <ele>51.1</ele>
        <time>2022-09-23T07:53:58Z</time>
      </trkpt>
      <trkpt lat="44.04815" lon="0.24216">
        <ele>52</ele>
        <time>2022-09-23T07:54:05Z</time>
      </trkpt>
      <trkpt lat="44.04813" lon="0.24208">
        <ele>52.3</ele>
        <time>2022-09-23T07:54:08Z</time>
      </trkpt>
      <trkpt lat="44.0481" lon="0.24199">
        <ele>53</ele>
        <time>2022-09-23T07:54:16Z</time>
      </trkpt>
      <trkpt lat="44.04808" lon="0.24191">
        <ele>53.1</ele>
        <time>2022-09-23T07:54:19Z</time>
      </trkpt>
      <trkpt lat="44.04806" lon="0.24182">
        <ele>53.6</ele>
        <time>2022-09-23T07:54:27Z</time>
      </trkpt>
      <trkpt lat="44.04804" lon="0.24174">
        <ele>53.9</ele>
        <time>2022-09-23T07:54:30Z</time>
      </trkpt>
      <trkpt lat="44.04802" lon="0.24165">
        <ele>54.5</ele>
        <time>2022-09-23T07:54:38Z</time>
      </trkpt>
      <trkpt lat="44.048" lon="0.24159">
        <ele>54.8</ele>
        <time>2022-09-23T07:54:42Z</time>
      </trkpt>
      <trkpt lat="44.04799" lon="0.24152">
        <ele>54.7</ele>
        <time>2022-09-23T07:54:46Z</time>
      </trkpt>
      <trkpt lat="44.048" lon="0.24144">
        <ele>53.5</ele>
        <time>2022-09-23T07:54:50Z</time>
      </trkpt>
      <trkpt lat="44.04797" lon="0.24134">
        <ele>50.2</ele>
        <time>2022-09-23T07:55:00Z</time>
      </trkpt>
      <trkpt lat="44.04794" lon="0.24126">
        <ele>48.7</ele>
        <time>2022-09-23T07:55:03Z</time>
      </trkpt>
      <trkpt lat="44.04792" lon="0.24117">
        <ele>46</ele>
        <time>2022-09-23T07:55:11Z</time>
      </trkpt>
      <trkpt lat="44.0479" lon="0.24109">
        <ele>45.1</ele>
        <time>2022-09-23T07:55:14Z</time>
      </trkpt>
      <trkpt lat="44.04786" lon="0.241">
        <ele>43.5</ele>
        <time>2022-09-23T07:55:20Z</time>
      </trkpt>
      <trkpt lat="44.04783" lon="0.24092">
        <ele>42.8</ele>
        <time>2022-09-23T07:55:23Z</time>
      </trkpt>
      <trkpt lat="44.0478" lon="0.24083">
        <ele>41.6</ele>
        <time>2022-09-23T07:55:30Z</time>
      </trkpt>
      <trkpt lat="44.04777" lon="0.24075">
        <ele>41.4</ele>
        <time>2022-09-23T07:55:33Z</time>
      </trkpt>
      <trkpt lat="44.04775" lon="0.24066">
        <ele>41.1</ele>
        <time>2022-09-23T07:55:47Z</time>
      </trkpt>
      <trkpt lat="44.04774" lon="0.24059">
        <ele>41.4</ele>
        <time>2022-09-23T07:55:50Z</time>
      </trkpt>
      <trkpt lat="44.04771" lon="0.24051">
        <ele>42</ele>
        <time>2022-09-23T07:55:56Z</time>
      </trkpt>
      <trkpt lat="44.04767" lon="0.24042">
        <ele>42.4</ele>
        <time>2022-09-23T07:55:59Z</time>
      </trkpt>
      <trkpt lat="44.04763" lon="0.24033">
        <ele>43.4</ele>
        <time>2022-09-23T07:56:05Z</time>
      </trkpt>
      <trkpt lat="44.04759" lon="0.24025">
        <ele>44.1</ele>
        <time>2022-09-23T07:56:08Z</time>
      </trkpt>
      <trkpt lat="44.04756" lon="0.24017">
        <ele>44.8</ele>
        <time>2022-09-23T07:56:11Z</time>
      </trkpt>
      <trkpt lat="44.04753" lon="0.24009">
        <ele>45.5</ele>
        <time>2022-09-23T07:56:14Z</time>
      </trkpt>
      <trkpt lat="44.04749" lon="0.24">
        <ele>46.6</ele>
        <time>2022-09-23T07:56:21Z</time>
      </trkpt>
      <trkpt lat="44.04746" lon="0.2399">
        <ele>47.2</ele>
        <time>2022-09-23T07:56:24Z</time>
      </trkpt>
      <trkpt lat="44.04744" lon="0.23985">
        <ele>47.8</ele>
        <time>2022-09-23T07:56:30Z</time>
      </trkpt>
      <trkpt lat="44.04741" lon="0.23973">
        <ele>48.9</ele>
        <time>2022-09-23T07:56:33Z</time>
      </trkpt>
      <trkpt lat="44.04737" lon="0.23963">
        <ele>51.1</ele>
        <time>2022-09-23T07:56:42Z</time>
      </trkpt>
      <trkpt lat="44.04735" lon="0.23956">
        <ele>52.1</ele>
        <time>2022-09-23T07:56:45Z</time>
      </trkpt>
      <trkpt lat="44.04733" lon="0.23946">
        <ele>53.6</ele>
        <time>2022-09-23T07:56:53Z</time>
      </trkpt>
      <trkpt lat="44.04731" lon="0.23938">
        <ele>53.9</ele>
        <time>2022-09-23T07:56:56Z</time>
      </trkpt>
      <trkpt lat="44.04729" lon="0.23929">
        <ele>54.3</ele>
        <time>2022-09-23T07:57:05Z</time>
      </trkpt>
      <trkpt lat="44.04726" lon="0.23922">
        <ele>54.3</ele>
        <time>2022-09-23T07:57:08Z</time>
      </trkpt>
      <trkpt lat="44.04724" lon="0.23916">
        <ele>54.6</ele>
        <time>2022-09-23T07:57:12Z</time>
      </trkpt>
      <trkpt lat="44.04722" lon="0.23906">
        <ele>55.6</ele>
        <time>2022-09-23T07:57:22Z</time>
      </trkpt>
      <trkpt lat="44.04719" lon="0.23899">
        <ele>55.8</ele>
        <time>2022-09-23T07:57:25Z</time>
      </trkpt>
      <trkpt lat="44.04717" lon="0.23889">
        <ele>56.2</ele>
        <time>2022-09-23T07:57:33Z</time>
      </trkpt>
      <trkpt lat="44.04716" lon="0.23882">
        <ele>56</ele>
        <time>2022-09-23T07:57:36Z</time>
      </trkpt>
      <trkpt lat="44.04713" lon="0.23873">
        <ele>55.4</ele>
        <time>2022-09-23T07:57:44Z</time>
      </trkpt>
      <trkpt lat="44.0471" lon="0.23865">
        <ele>54.7</ele>
        <time>2022-09-23T07:57:47Z</time>
      </trkpt>
      <trkpt lat="44.04706" lon="0.23856">
        <ele>53.7</ele>
        <time>2022-09-23T07:57:54Z</time>
      </trkpt>
      <trkpt lat="44.04703" lon="0.23849">
        <ele>53.3</ele>
        <time>2022-09-23T07:57:57Z</time>
      </trkpt>
      <trkpt lat="44.04701" lon="0.23841">
        <ele>52.8</ele>
        <time>2022-09-23T07:58:01Z</time>
      </trkpt>
      <trkpt lat="44.04699" lon="0.23834">
        <ele>52.5</ele>
        <time>2022-09-23T07:58:04Z</time>
      </trkpt>
      <trkpt lat="44.04696" lon="0.23828">
        <ele>52.3</ele>
        <time>2022-09-23T07:58:08Z</time>
      </trkpt>
      <trkpt lat="44.04695" lon="0.23821">
        <ele>52.7</ele>
        <time>2022-09-23T07:58:11Z</time>
      </trkpt>
      <trkpt lat="44.04692" lon="0.2381">
        <ele>53.1</ele>
        <time>2022-09-23T07:58:23Z</time>
      </trkpt>
      <trkpt lat="44.04689" lon="0.238">
        <ele>53</ele>
        <time>2022-09-23T07:58:26Z</time>
      </trkpt>
      <trkpt lat="44.04686" lon="0.23793">
        <ele>52.5</ele>
        <time>2022-09-23T07:58:29Z</time>
      </trkpt>
      <trkpt lat="44.04683" lon="0.23786">
        <ele>52.4</ele>
        <time>2022-09-23T07:58:35Z</time>
      </trkpt>
      <trkpt lat="44.04682" lon="0.23779">
        <ele>53</ele>
        <time>2022-09-23T07:58:40Z</time>
      </trkpt>
      <trkpt lat="44.04682" lon="0.23772">
        <ele>54</ele>
        <time>2022-09-23T07:58:49Z</time>
      </trkpt>
      <trkpt lat="44.0468" lon="0.23764">
        <ele>54.6</ele>
        <time>2022-09-23T07:58:52Z</time>
      </trkpt>
      <trkpt lat="44.04676" lon="0.23753">
        <ele>55.5</ele>
        <time>2022-09-23T07:59:01Z</time>
      </trkpt>
      <trkpt lat="44.04672" lon="0.23743">
        <ele>55.7</ele>
        <time>2022-09-23T07:59:04Z</time>
      </trkpt>
      <trkpt lat="44.04668" lon="0.23735">
        <ele>55.9</ele>
        <time>2022-09-23T07:59:07Z</time>
      </trkpt>
      <trkpt lat="44.04666" lon="0.23729">
        <ele>55.9</ele>
        <time>2022-09-23T07:59:12Z</time>
      </trkpt>
      <trkpt lat="44.04664" lon="0.23722">
        <ele>55.4</ele>
        <time>2022-09-23T07:59:16Z</time>
      </trkpt>
      <trkpt lat="44.04661" lon="0.23715">
        <ele>55</ele>
        <time>2022-09-23T07:59:19Z</time>
      </trkpt>
      <trkpt lat="44.04658" lon="0.23705">
        <ele>54.2</ele>
        <time>2022-09-23T07:59:27Z</time>
      </trkpt>
      <trkpt lat="44.04656" lon="0.23697">
        <ele>54.2</ele>
        <time>2022-09-23T07:59:30Z</time>
      </trkpt>
      <trkpt lat="44.04653" lon="0.23687">
        <ele>54.7</ele>
        <time>2022-09-23T07:59:39Z</time>
      </trkpt>
      <trkpt lat="44.04651" lon="0.2368">
        <ele>55.4</ele>
        <time>2022-09-23T07:59:42Z</time>
      </trkpt>
      <trkpt lat="44.04649" lon="0.23671">
        <ele>56.6</ele>
        <time>2022-09-23T07:59:50Z</time>
      </trkpt>
      <trkpt lat="44.04646" lon="0.23664">
        <ele>56.8</ele>
        <time>2022-09-23T07:59:53Z</time>
      </trkpt>
      <trkpt lat="44.04644" lon="0.23658">
        <ele>57.2</ele>
        <time>2022-09-23T07:59:59Z</time>
      </trkpt>
      <trkpt lat="44.04642" lon="0.23652">
        <ele>57.3</ele>
        <time>2022-09-23T08:00:02Z</time>
      </trkpt>
      <trkpt lat="44.04639" lon="0.2364">
        <ele>57.2</ele>
        <time>2022-09-23T08:00:12Z</time>
      </trkpt>
      <trkpt lat="44.04637" lon="0.23632">
        <ele>56.8</ele>
        <time>2022-09-23T08:00:15Z</time>
      </trkpt>
      <trkpt lat="44.04634" lon="0.23622">
        <ele>55.7</ele>
        <time>2022-09-23T08:00:22Z</time>
      </trkpt>
      <trkpt lat="44.04631" lon="0.23612">
        <ele>54.9</ele>
        <time>2022-09-23T08:00:25Z</time>
      </trkpt>
      <trkpt lat="44.04629" lon="0.23605">
        <ele>54.2</ele>
        <time>2022-09-23T08:00:28Z</time>
      </trkpt>
      <trkpt lat="44.04627" lon="0.23597">
        <ele>53.8</ele>
        <time>2022-09-23T08:00:32Z</time>
      </trkpt>
      <trkpt lat="44.04625" lon="0.23589">
        <ele>54</ele>
        <time>2022-09-23T08:00:41Z</time>
      </trkpt>
      <trkpt lat="44.04622" lon="0.2358">
        <ele>54.4</ele>
        <time>2022-09-23T08:00:44Z</time>
      </trkpt>
      <trkpt lat="44.04619" lon="0.23571">
        <ele>54.6</ele>
        <time>2022-09-23T08:00:50Z</time>
      </trkpt>
      <trkpt lat="44.04616" lon="0.23564">
        <ele>54.7</ele>
        <time>2022-09-23T08:00:53Z</time>
      </trkpt>
      <trkpt lat="44.04613" lon="0.23557">
        <ele>54.8</ele>
        <time>2022-09-23T08:00:57Z</time>
      </trkpt>
      <trkpt lat="44.04609" lon="0.23551">
        <ele>54.9</ele>
        <time>2022-09-23T08:01:00Z</time>
      </trkpt>
      <trkpt lat="44.04606" lon="0.23542">
        <ele>55.8</ele>
        <time>2022-09-23T08:01:09Z</time>
      </trkpt>
      <trkpt lat="44.04605" lon="0.23535">
        <ele>56.6</ele>
        <time>2022-09-23T08:01:12Z</time>
      </trkpt>
      <trkpt lat="44.04601" lon="0.23527">
        <ele>57.6</ele>
        <time>2022-09-23T08:01:20Z</time>
      </trkpt>
      <trkpt lat="44.04599" lon="0.2352">
        <ele>57.6</ele>
        <time>2022-09-23T08:01:23Z</time>
      </trkpt>
      <trkpt lat="44.04598" lon="0.23513">
        <ele>57.2</ele>
        <time>2022-09-23T08:01:28Z</time>
      </trkpt>
      <trkpt lat="44.04597" lon="0.23506">
        <ele>57.2</ele>
        <time>2022-09-23T08:01:34Z</time>
      </trkpt>
      <trkpt lat="44.04595" lon="0.23496">
        <ele>57.7</ele>
        <time>2022-09-23T08:01:37Z</time>
      </trkpt>
      <trkpt lat="44.04592" lon="0.23484">
        <ele>58.6</ele>
        <time>2022-09-23T08:01:43Z</time>
      </trkpt>
      <trkpt lat="44.04589" lon="0.23476">
        <ele>59.1</ele>
        <time>2022-09-23T08:01:46Z</time>
      </trkpt>
      <trkpt lat="44.04586" lon="0.23464">
        <ele>60.7</ele>
        <time>2022-09-23T08:01:55Z</time>
      </trkpt>
      <trkpt lat="44.04584" lon="0.23456">
        <ele>61.2</ele>
        <time>2022-09-23T08:01:58Z</time>
      </trkpt>
      <trkpt lat="44.04581" lon="0.2345">
        <ele>61.5</ele>
        <time>2022-09-23T08:02:03Z</time>
      </trkpt>
      <trkpt lat="44.0458" lon="0.23443">
        <ele>61.8</ele>
        <time>2022-09-23T08:02:06Z</time>
      </trkpt>
      <trkpt lat="44.04577" lon="0.23437">
        <ele>62.6</ele>
        <time>2022-09-23T08:02:11Z</time>
      </trkpt>
      <trkpt lat="44.04573" lon="0.2343">
        <ele>63.4</ele>
        <time>2022-09-23T08:02:14Z</time>
      </trkpt>
      <trkpt lat="44.0457" lon="0.23423">
        <ele>64</ele>
        <time>2022-09-23T08:02:18Z</time>
      </trkpt>
      <trkpt lat="44.04571" lon="0.23417">
        <ele>64</ele>
        <time>2022-09-23T08:02:22Z</time>
      </trkpt>
      <trkpt lat="44.0457" lon="0.23407">
        <ele>62.1</ele>
        <time>2022-09-23T08:02:34Z</time>
      </trkpt>
      <trkpt lat="44.04568" lon="0.23401">
        <ele>60.4</ele>
        <time>2022-09-23T08:02:37Z</time>
      </trkpt>
      <trkpt lat="44.04565" lon="0.23393">
        <ele>56.8</ele>
        <time>2022-09-23T08:02:59Z</time>
      </trkpt>
      <trkpt lat="44.04562" lon="0.23387">
        <ele>56.5</ele>
        <time>2022-09-23T08:03:04Z</time>
      </trkpt>
      <trkpt lat="44.04561" lon="0.2338">
        <ele>57.5</ele>
        <time>2022-09-23T08:11:39Z</time>
      </trkpt>
      <trkpt lat="44.0456" lon="0.23374">
        <ele>58.5</ele>
        <time>2022-09-23T08:11:42Z</time>
      </trkpt>
      <trkpt lat="44.04559" lon="0.23367">
        <ele>60.3</ele>
        <time>2022-09-23T08:11:51Z</time>
      </trkpt>
      <trkpt lat="44.04557" lon="0.2336">
        <ele>61</ele>
        <time>2022-09-23T08:11:57Z</time>
      </trkpt>
      <trkpt lat="44.04555" lon="0.23353">
        <ele>61.1</ele>
        <time>2022-09-23T08:12:01Z</time>
      </trkpt>
      <trkpt lat="44.04552" lon="0.23347">
        <ele>61.7</ele>
        <time>2022-09-23T08:12:06Z</time>
      </trkpt>
      <trkpt lat="44.04551" lon="0.23339">
        <ele>62.1</ele>
        <time>2022-09-23T08:12:11Z</time>
      </trkpt>
      <trkpt lat="44.04549" lon="0.23332">
        <ele>62.1</ele>
        <time>2022-09-23T08:12:15Z</time>
      </trkpt>
      <trkpt lat="44.04548" lon="0.23326">
        <ele>62.2</ele>
        <time>2022-09-23T08:12:19Z</time>
      </trkpt>
      <trkpt lat="44.04546" lon="0.23319">
        <ele>62.1</ele>
        <time>2022-09-23T08:12:23Z</time>
      </trkpt>
      <trkpt lat="44.04544" lon="0.23312">
        <ele>61.8</ele>
        <time>2022-09-23T08:12:27Z</time>
      </trkpt>
      <trkpt lat="44.04542" lon="0.23305">
        <ele>60.9</ele>
        <time>2022-09-23T08:12:32Z</time>
      </trkpt>
      <trkpt lat="44.0454" lon="0.23299">
        <ele>60.1</ele>
        <time>2022-09-23T08:12:36Z</time>
      </trkpt>
      <trkpt lat="44.04539" lon="0.23293">
        <ele>59.3</ele>
        <time>2022-09-23T08:12:40Z</time>
      </trkpt>
      <trkpt lat="44.04537" lon="0.23286">
        <ele>58.8</ele>
        <time>2022-09-23T08:12:44Z</time>
      </trkpt>
      <trkpt lat="44.04535" lon="0.2328">
        <ele>58.4</ele>
        <time>2022-09-23T08:12:48Z</time>
      </trkpt>
      <trkpt lat="44.04534" lon="0.23274">
        <ele>58.5</ele>
        <time>2022-09-23T08:12:53Z</time>
      </trkpt>
      <trkpt lat="44.04533" lon="0.23267">
        <ele>58.8</ele>
        <time>2022-09-23T08:12:57Z</time>
      </trkpt>
      <trkpt lat="44.04533" lon="0.2326">
        <ele>59.4</ele>
        <time>2022-09-23T08:13:01Z</time>
      </trkpt>
      <trkpt lat="44.04532" lon="0.23253">
        <ele>59.8</ele>
        <time>2022-09-23T08:13:05Z</time>
      </trkpt>
      <trkpt lat="44.0453" lon="0.23245">
        <ele>60.3</ele>
        <time>2022-09-23T08:13:14Z</time>
      </trkpt>
      <trkpt lat="44.04529" lon="0.23237">
        <ele>60.4</ele>
        <time>2022-09-23T08:13:17Z</time>
      </trkpt>
      <trkpt lat="44.04528" lon="0.23229">
        <ele>60.6</ele>
        <time>2022-09-23T08:13:23Z</time>
      </trkpt>
      <trkpt lat="44.04528" lon="0.23222">
        <ele>60.7</ele>
        <time>2022-09-23T08:13:26Z</time>
      </trkpt>
      <trkpt lat="44.04526" lon="0.23211">
        <ele>60.9</ele>
        <time>2022-09-23T08:13:37Z</time>
      </trkpt>
      <trkpt lat="44.04525" lon="0.23203">
        <ele>60.8</ele>
        <time>2022-09-23T08:13:40Z</time>
      </trkpt>
      <trkpt lat="44.04524" lon="0.23195">
        <ele>60.5</ele>
        <time>2022-09-23T08:13:45Z</time>
      </trkpt>
      <trkpt lat="44.04522" lon="0.23187">
        <ele>60.2</ele>
        <time>2022-09-23T08:13:48Z</time>
      </trkpt>
      <trkpt lat="44.04522" lon="0.23181">
        <ele>59.9</ele>
        <time>2022-09-23T08:13:52Z</time>
      </trkpt>
      <trkpt lat="44.04521" lon="0.23174">
        <ele>59.8</ele>
        <time>2022-09-23T08:13:55Z</time>
      </trkpt>
      <trkpt lat="44.04519" lon="0.23167">
        <ele>59.7</ele>
        <time>2022-09-23T08:13:58Z</time>
      </trkpt>
      <trkpt lat="44.04518" lon="0.2316">
        <ele>59.6</ele>
        <time>2022-09-23T08:14:02Z</time>
      </trkpt>
      <trkpt lat="44.04517" lon="0.23153">
        <ele>59.8</ele>
        <time>2022-09-23T08:14:06Z</time>
      </trkpt>
      <trkpt lat="44.04516" lon="0.23146">
        <ele>60.2</ele>
        <time>2022-09-23T08:14:10Z</time>
      </trkpt>
      <trkpt lat="44.04515" lon="0.2314">
        <ele>60.5</ele>
        <time>2022-09-23T08:14:15Z</time>
      </trkpt>
      <trkpt lat="44.04514" lon="0.23133">
        <ele>60.4</ele>
        <time>2022-09-23T08:14:20Z</time>
      </trkpt>
      <trkpt lat="44.04513" lon="0.23126">
        <ele>60.1</ele>
        <time>2022-09-23T08:14:23Z</time>
      </trkpt>
      <trkpt lat="44.04513" lon="0.23119">
        <ele>60.3</ele>
        <time>2022-09-23T08:14:26Z</time>
      </trkpt>
      <trkpt lat="44.04513" lon="0.23112">
        <ele>60.6</ele>
        <time>2022-09-23T08:14:30Z</time>
      </trkpt>
      <trkpt lat="44.04511" lon="0.23103">
        <ele>61.2</ele>
        <time>2022-09-23T08:14:41Z</time>
      </trkpt>
      <trkpt lat="44.04511" lon="0.23095">
        <ele>61.2</ele>
        <time>2022-09-23T08:14:44Z</time>
      </trkpt>
      <trkpt lat="44.04511" lon="0.23087">
        <ele>61.7</ele>
        <time>2022-09-23T08:14:48Z</time>
      </trkpt>
      <trkpt lat="44.0451" lon="0.2308">
        <ele>62.5</ele>
        <time>2022-09-23T08:14:52Z</time>
      </trkpt>
      <trkpt lat="44.04509" lon="0.23073">
        <ele>62.9</ele>
        <time>2022-09-23T08:14:56Z</time>
      </trkpt>
      <trkpt lat="44.04508" lon="0.23067">
        <ele>62.8</ele>
        <time>2022-09-23T08:15:00Z</time>
      </trkpt>
      <trkpt lat="44.04508" lon="0.2306">
        <ele>62.2</ele>
        <time>2022-09-23T08:15:04Z</time>
      </trkpt>
      <trkpt lat="44.04507" lon="0.23053">
        <ele>62.2</ele>
        <time>2022-09-23T08:15:08Z</time>
      </trkpt>
      <trkpt lat="44.04506" lon="0.23047">
        <ele>62.5</ele>
        <time>2022-09-23T08:15:12Z</time>
      </trkpt>
      <trkpt lat="44.04505" lon="0.23035">
        <ele>63</ele>
        <time>2022-09-23T08:15:24Z</time>
      </trkpt>
      <trkpt lat="44.04506" lon="0.23028">
        <ele>63</ele>
        <time>2022-09-23T08:15:27Z</time>
      </trkpt>
      <trkpt lat="44.04506" lon="0.2302">
        <ele>63.1</ele>
        <time>2022-09-23T08:15:33Z</time>
      </trkpt>
      <trkpt lat="44.04505" lon="0.23011">
        <ele>63.1</ele>
        <time>2022-09-23T08:15:36Z</time>
      </trkpt>
      <trkpt lat="44.04505" lon="0.23005">
        <ele>63.2</ele>
        <time>2022-09-23T08:15:40Z</time>
      </trkpt>
      <trkpt lat="44.04507" lon="0.22998">
        <ele>63.3</ele>
        <time>2022-09-23T08:15:44Z</time>
      </trkpt>
      <trkpt lat="44.04506" lon="0.22988">
        <ele>63.3</ele>
        <time>2022-09-23T08:15:53Z</time>
      </trkpt>
      <trkpt lat="44.04505" lon="0.22979">
        <ele>63</ele>
        <time>2022-09-23T08:15:56Z</time>
      </trkpt>
      <trkpt lat="44.04504" lon="0.22969">
        <ele>62.4</ele>
        <time>2022-09-23T08:16:03Z</time>
      </trkpt>
      <trkpt lat="44.04504" lon="0.22961">
        <ele>62.1</ele>
        <time>2022-09-23T08:16:06Z</time>
      </trkpt>
      <trkpt lat="44.04503" lon="0.22954">
        <ele>61.8</ele>
        <time>2022-09-23T08:16:10Z</time>
      </trkpt>
      <trkpt lat="44.04503" lon="0.22947">
        <ele>61.6</ele>
        <time>2022-09-23T08:16:13Z</time>
      </trkpt>
      <trkpt lat="44.04502" lon="0.22941">
        <ele>61.7</ele>
        <time>2022-09-23T08:16:17Z</time>
      </trkpt>
      <trkpt lat="44.04502" lon="0.22934">
        <ele>62</ele>
        <time>2022-09-23T08:16:20Z</time>
      </trkpt>
      <trkpt lat="44.04501" lon="0.22926">
        <ele>62.8</ele>
        <time>2022-09-23T08:16:25Z</time>
      </trkpt>
      <trkpt lat="44.04499" lon="0.22919">
        <ele>63.3</ele>
        <time>2022-09-23T08:16:28Z</time>
      </trkpt>
      <trkpt lat="44.04499" lon="0.22913">
        <ele>63.8</ele>
        <time>2022-09-23T08:16:34Z</time>
      </trkpt>
      <trkpt lat="44.04499" lon="0.22906">
        <ele>64.1</ele>
        <time>2022-09-23T08:16:40Z</time>
      </trkpt>
      <trkpt lat="44.04498" lon="0.22898">
        <ele>64.5</ele>
        <time>2022-09-23T08:16:43Z</time>
      </trkpt>
      <trkpt lat="44.04498" lon="0.2289">
        <ele>64.9</ele>
        <time>2022-09-23T08:16:47Z</time>
      </trkpt>
      <trkpt lat="44.04497" lon="0.22881">
        <ele>65</ele>
        <time>2022-09-23T08:16:52Z</time>
      </trkpt>
      <trkpt lat="44.04497" lon="0.22875">
        <ele>65.1</ele>
        <time>2022-09-23T08:16:56Z</time>
      </trkpt>
      <trkpt lat="44.04496" lon="0.22866">
        <ele>65.3</ele>
        <time>2022-09-23T08:17:03Z</time>
      </trkpt>
      <trkpt lat="44.04496" lon="0.22858">
        <ele>65.3</ele>
        <time>2022-09-23T08:17:06Z</time>
      </trkpt>
      <trkpt lat="44.04495" lon="0.22848">
        <ele>64.8</ele>
        <time>2022-09-23T08:17:15Z</time>
      </trkpt>
      <trkpt lat="44.04494" lon="0.22841">
        <ele>64.3</ele>
        <time>2022-09-23T08:17:18Z</time>
      </trkpt>
      <trkpt lat="44.04493" lon="0.22833">
        <ele>63.6</ele>
        <time>2022-09-23T08:17:22Z</time>
      </trkpt>
      <trkpt lat="44.04493" lon="0.22821">
        <ele>62.7</ele>
        <time>2022-09-23T08:17:32Z</time>
      </trkpt>
      <trkpt lat="44.04493" lon="0.22812">
        <ele>62.5</ele>
        <time>2022-09-23T08:17:35Z</time>
      </trkpt>
      <trkpt lat="44.04493" lon="0.22804">
        <ele>61.7</ele>
        <time>2022-09-23T08:17:39Z</time>
      </trkpt>
      <trkpt lat="44.04492" lon="0.22795">
        <ele>61</ele>
        <time>2022-09-23T08:17:47Z</time>
      </trkpt>
      <trkpt lat="44.04491" lon="0.22787">
        <ele>60.7</ele>
        <time>2022-09-23T08:17:50Z</time>
      </trkpt>
      <trkpt lat="44.0449" lon="0.22778">
        <ele>60.8</ele>
        <time>2022-09-23T08:17:57Z</time>
      </trkpt>
      <trkpt lat="44.04488" lon="0.22769">
        <ele>61</ele>
        <time>2022-09-23T08:18:00Z</time>
      </trkpt>
      <trkpt lat="44.04487" lon="0.22763">
        <ele>61.7</ele>
        <time>2022-09-23T08:18:08Z</time>
      </trkpt>
      <trkpt lat="44.04487" lon="0.22753">
        <ele>61.9</ele>
        <time>2022-09-23T08:18:11Z</time>
      </trkpt>
      <trkpt lat="44.04488" lon="0.22747">
        <ele>61.9</ele>
        <time>2022-09-23T08:18:14Z</time>
      </trkpt>
      <trkpt lat="44.04488" lon="0.22738">
        <ele>61.6</ele>
        <time>2022-09-23T08:18:21Z</time>
      </trkpt>
      <trkpt lat="44.04487" lon="0.22728">
        <ele>61.4</ele>
        <time>2022-09-23T08:18:24Z</time>
      </trkpt>
      <trkpt lat="44.04487" lon="0.22721">
        <ele>61.2</ele>
        <time>2022-09-23T08:18:27Z</time>
      </trkpt>
      <trkpt lat="44.04486" lon="0.22714">
        <ele>61</ele>
        <time>2022-09-23T08:18:32Z</time>
      </trkpt>
      <trkpt lat="44.04485" lon="0.22707">
        <ele>60.9</ele>
        <time>2022-09-23T08:18:38Z</time>
      </trkpt>
      <trkpt lat="44.04485" lon="0.22699">
        <ele>60.7</ele>
        <time>2022-09-23T08:18:41Z</time>
      </trkpt>
      <trkpt lat="44.04485" lon="0.22691">
        <ele>60.5</ele>
        <time>2022-09-23T08:18:47Z</time>
      </trkpt>
      <trkpt lat="44.04485" lon="0.22684">
        <ele>60.5</ele>
        <time>2022-09-23T08:18:50Z</time>
      </trkpt>
      <trkpt lat="44.04486" lon="0.22673">
        <ele>59.9</ele>
        <time>2022-09-23T08:18:59Z</time>
      </trkpt>
      <trkpt lat="44.04487" lon="0.22666">
        <ele>59.7</ele>
        <time>2022-09-23T08:19:02Z</time>
      </trkpt>
      <trkpt lat="44.04487" lon="0.22658">
        <ele>59.4</ele>
        <time>2022-09-23T08:19:07Z</time>
      </trkpt>
      <trkpt lat="44.04486" lon="0.22651">
        <ele>59.6</ele>
        <time>2022-09-23T08:19:12Z</time>
      </trkpt>
      <trkpt lat="44.04485" lon="0.22645">
        <ele>60.1</ele>
        <time>2022-09-23T08:19:20Z</time>
      </trkpt>
      <trkpt lat="44.04484" lon="0.22636">
        <ele>60.5</ele>
        <time>2022-09-23T08:19:23Z</time>
      </trkpt>
      <trkpt lat="44.04483" lon="0.22629">
        <ele>61</ele>
        <time>2022-09-23T08:19:26Z</time>
      </trkpt>
      <trkpt lat="44.04482" lon="0.2262">
        <ele>61.9</ele>
        <time>2022-09-23T08:19:33Z</time>
      </trkpt>
      <trkpt lat="44.04482" lon="0.2261">
        <ele>62.3</ele>
        <time>2022-09-23T08:19:36Z</time>
      </trkpt>
      <trkpt lat="44.04482" lon="0.226">
        <ele>63</ele>
        <time>2022-09-23T08:19:42Z</time>
      </trkpt>
      <trkpt lat="44.04483" lon="0.22592">
        <ele>63.3</ele>
        <time>2022-09-23T08:19:45Z</time>
      </trkpt>
      <trkpt lat="44.04483" lon="0.22582">
        <ele>64.2</ele>
        <time>2022-09-23T08:19:53Z</time>
      </trkpt>
      <trkpt lat="44.04482" lon="0.22575">
        <ele>64.8</ele>
        <time>2022-09-23T08:19:56Z</time>
      </trkpt>
      <trkpt lat="44.04482" lon="0.22565">
        <ele>65.6</ele>
        <time>2022-09-23T08:20:04Z</time>
      </trkpt>
      <trkpt lat="44.04482" lon="0.22556">
        <ele>65.7</ele>
        <time>2022-09-23T08:20:07Z</time>
      </trkpt>
      <trkpt lat="44.04481" lon="0.22549">
        <ele>65.5</ele>
        <time>2022-09-23T08:20:10Z</time>
      </trkpt>
      <trkpt lat="44.04479" lon="0.22541">
        <ele>65.3</ele>
        <time>2022-09-23T08:20:14Z</time>
      </trkpt>
      <trkpt lat="44.04478" lon="0.22533">
        <ele>64.8</ele>
        <time>2022-09-23T08:20:23Z</time>
      </trkpt>
      <trkpt lat="44.04479" lon="0.22526">
        <ele>64.6</ele>
        <time>2022-09-23T08:20:26Z</time>
      </trkpt>
      <trkpt lat="44.04481" lon="0.2252">
        <ele>64.3</ele>
        <time>2022-09-23T08:20:30Z</time>
      </trkpt>
      <trkpt lat="44.04484" lon="0.22513">
        <ele>64</ele>
        <time>2022-09-23T08:20:33Z</time>
      </trkpt>
      <trkpt lat="44.04487" lon="0.22508">
        <ele>63.7</ele>
        <time>2022-09-23T08:20:36Z</time>
      </trkpt>
      <trkpt lat="44.04489" lon="0.225">
        <ele>63.6</ele>
        <time>2022-09-23T08:20:45Z</time>
      </trkpt>
      <trkpt lat="44.0449" lon="0.22493">
        <ele>63.6</ele>
        <time>2022-09-23T08:20:48Z</time>
      </trkpt>
      <trkpt lat="44.04491" lon="0.22483">
        <ele>63.5</ele>
        <time>2022-09-23T08:20:58Z</time>
      </trkpt>
      <trkpt lat="44.04492" lon="0.22474">
        <ele>63.4</ele>
        <time>2022-09-23T08:21:01Z</time>
      </trkpt>
      <trkpt lat="44.04493" lon="0.22465">
        <ele>63.1</ele>
        <time>2022-09-23T08:21:09Z</time>
      </trkpt>
      <trkpt lat="44.04494" lon="0.22458">
        <ele>63.1</ele>
        <time>2022-09-23T08:21:12Z</time>
      </trkpt>
      <trkpt lat="44.04496" lon="0.22451">
        <ele>63.1</ele>
        <time>2022-09-23T08:21:18Z</time>
      </trkpt>
      <trkpt lat="44.04497" lon="0.22444">
        <ele>63.2</ele>
        <time>2022-09-23T08:21:21Z</time>
      </trkpt>
      <trkpt lat="44.04499" lon="0.22434">
        <ele>63.1</ele>
        <time>2022-09-23T08:21:29Z</time>
      </trkpt>
      <trkpt lat="44.04501" lon="0.22425">
        <ele>62.8</ele>
        <time>2022-09-23T08:21:32Z</time>
      </trkpt>
      <trkpt lat="44.04502" lon="0.22415">
        <ele>62.2</ele>
        <time>2022-09-23T08:21:38Z</time>
      </trkpt>
      <trkpt lat="44.04504" lon="0.22407">
        <ele>61.9</ele>
        <time>2022-09-23T08:21:41Z</time>
      </trkpt>
      <trkpt lat="44.04507" lon="0.22398">
        <ele>61.7</ele>
        <time>2022-09-23T08:21:49Z</time>
      </trkpt>
      <trkpt lat="44.04508" lon="0.22389">
        <ele>61.8</ele>
        <time>2022-09-23T08:21:52Z</time>
      </trkpt>
      <trkpt lat="44.04509" lon="0.22383">
        <ele>61.9</ele>
        <time>2022-09-23T08:21:55Z</time>
      </trkpt>
      <trkpt lat="44.04509" lon="0.22375">
        <ele>62.2</ele>
        <time>2022-09-23T08:21:59Z</time>
      </trkpt>
      <trkpt lat="44.0451" lon="0.22368">
        <ele>62.5</ele>
        <time>2022-09-23T08:22:02Z</time>
      </trkpt>
      <trkpt lat="44.04511" lon="0.22356">
        <ele>63.9</ele>
        <time>2022-09-23T08:22:11Z</time>
      </trkpt>
      <trkpt lat="44.0451" lon="0.22348">
        <ele>64.6</ele>
        <time>2022-09-23T08:22:14Z</time>
      </trkpt>
      <trkpt lat="44.04511" lon="0.22338">
        <ele>65.6</ele>
        <time>2022-09-23T08:22:22Z</time>
      </trkpt>
      <trkpt lat="44.04512" lon="0.2233">
        <ele>65.8</ele>
        <time>2022-09-23T08:22:25Z</time>
      </trkpt>
      <trkpt lat="44.04513" lon="0.2232">
        <ele>66</ele>
        <time>2022-09-23T08:22:35Z</time>
      </trkpt>
      <trkpt lat="44.04513" lon="0.22312">
        <ele>65.6</ele>
        <time>2022-09-23T08:22:38Z</time>
      </trkpt>
      <trkpt lat="44.04515" lon="0.22302">
        <ele>64.9</ele>
        <time>2022-09-23T08:22:46Z</time>
      </trkpt>
      <trkpt lat="44.04516" lon="0.22294">
        <ele>64.4</ele>
        <time>2022-09-23T08:22:49Z</time>
      </trkpt>
      <trkpt lat="44.04518" lon="0.22284">
        <ele>63.5</ele>
        <time>2022-09-23T08:22:56Z</time>
      </trkpt>
      <trkpt lat="44.04519" lon="0.22275">
        <ele>62.9</ele>
        <time>2022-09-23T08:22:59Z</time>
      </trkpt>
      <trkpt lat="44.04521" lon="0.22267">
        <ele>62.1</ele>
        <time>2022-09-23T08:23:05Z</time>
      </trkpt>
      <trkpt lat="44.04523" lon="0.22261">
        <ele>62.2</ele>
        <time>2022-09-23T08:23:08Z</time>
      </trkpt>
      <trkpt lat="44.04524" lon="0.22252">
        <ele>62</ele>
        <time>2022-09-23T08:23:17Z</time>
      </trkpt>
      <trkpt lat="44.04524" lon="0.22243">
        <ele>62</ele>
        <time>2022-09-23T08:23:20Z</time>
      </trkpt>
      <trkpt lat="44.04525" lon="0.22234">
        <ele>61.9</ele>
        <time>2022-09-23T08:23:27Z</time>
      </trkpt>
      <trkpt lat="44.04527" lon="0.22227">
        <ele>62</ele>
        <time>2022-09-23T08:23:30Z</time>
      </trkpt>
      <trkpt lat="44.04527" lon="0.22217">
        <ele>62.2</ele>
        <time>2022-09-23T08:23:39Z</time>
      </trkpt>
      <trkpt lat="44.04526" lon="0.22208">
        <ele>62.3</ele>
        <time>2022-09-23T08:23:42Z</time>
      </trkpt>
      <trkpt lat="44.04526" lon="0.22201">
        <ele>62.3</ele>
        <time>2022-09-23T08:23:45Z</time>
      </trkpt>
      <trkpt lat="44.04525" lon="0.2219">
        <ele>62</ele>
        <time>2022-09-23T08:23:54Z</time>
      </trkpt>
      <trkpt lat="44.04523" lon="0.22181">
        <ele>61.9</ele>
        <time>2022-09-23T08:23:57Z</time>
      </trkpt>
      <trkpt lat="44.04523" lon="0.2217">
        <ele>61.8</ele>
        <time>2022-09-23T08:24:04Z</time>
      </trkpt>
      <trkpt lat="44.04522" lon="0.22161">
        <ele>61.7</ele>
        <time>2022-09-23T08:24:07Z</time>
      </trkpt>
      <trkpt lat="44.04521" lon="0.22154">
        <ele>61.4</ele>
        <time>2022-09-23T08:24:10Z</time>
      </trkpt>
      <trkpt lat="44.04521" lon="0.22146">
        <ele>61.2</ele>
        <time>2022-09-23T08:24:14Z</time>
      </trkpt>
      <trkpt lat="44.0452" lon="0.22138">
        <ele>61.2</ele>
        <time>2022-09-23T08:24:18Z</time>
      </trkpt>
      <trkpt lat="44.0452" lon="0.22132">
        <ele>61.2</ele>
        <time>2022-09-23T08:24:22Z</time>
      </trkpt>
      <trkpt lat="44.04519" lon="0.22124">
        <ele>61.2</ele>
        <time>2022-09-23T08:24:29Z</time>
      </trkpt>
      <trkpt lat="44.04519" lon="0.22116">
        <ele>61.1</ele>
        <time>2022-09-23T08:24:32Z</time>
      </trkpt>
      <trkpt lat="44.04519" lon="0.22106">
        <ele>60.9</ele>
        <time>2022-09-23T08:24:41Z</time>
      </trkpt>
      <trkpt lat="44.04519" lon="0.22098">
        <ele>60.8</ele>
        <time>2022-09-23T08:24:44Z</time>
      </trkpt>
      <trkpt lat="44.04519" lon="0.22089">
        <ele>60.8</ele>
        <time>2022-09-23T08:24:51Z</time>
      </trkpt>
      <trkpt lat="44.04518" lon="0.2208">
        <ele>60.9</ele>
        <time>2022-09-23T08:24:54Z</time>
      </trkpt>
      <trkpt lat="44.04516" lon="0.2207">
        <ele>60.7</ele>
        <time>2022-09-23T08:25:03Z</time>
      </trkpt>
      <trkpt lat="44.04514" lon="0.22063">
        <ele>60.4</ele>
        <time>2022-09-23T08:25:06Z</time>
      </trkpt>
      <trkpt lat="44.04512" lon="0.22053">
        <ele>60</ele>
        <time>2022-09-23T08:25:13Z</time>
      </trkpt>
      <trkpt lat="44.04511" lon="0.22045">
        <ele>59.6</ele>
        <time>2022-09-23T08:25:16Z</time>
      </trkpt>
      <trkpt lat="44.0451" lon="0.22035">
        <ele>58.5</ele>
        <time>2022-09-23T08:25:25Z</time>
      </trkpt>
      <trkpt lat="44.0451" lon="0.22027">
        <ele>57.9</ele>
        <time>2022-09-23T08:25:28Z</time>
      </trkpt>
      <trkpt lat="44.0451" lon="0.22021">
        <ele>57.2</ele>
        <time>2022-09-23T08:25:31Z</time>
      </trkpt>
      <trkpt lat="44.04506" lon="0.22009">
        <ele>55.3</ele>
        <time>2022-09-23T08:25:41Z</time>
      </trkpt>
      <trkpt lat="44.04504" lon="0.22001">
        <ele>54.9</ele>
        <time>2022-09-23T08:25:44Z</time>
      </trkpt>
      <trkpt lat="44.04501" lon="0.21994">
        <ele>54.4</ele>
        <time>2022-09-23T08:25:48Z</time>
      </trkpt>
      <trkpt lat="44.04499" lon="0.21988">
        <ele>54.1</ele>
        <time>2022-09-23T08:25:51Z</time>
      </trkpt>
      <trkpt lat="44.04498" lon="0.21981">
        <ele>53.9</ele>
        <time>2022-09-23T08:25:55Z</time>
      </trkpt>
      <trkpt lat="44.04497" lon="0.21975">
        <ele>54.1</ele>
        <time>2022-09-23T08:25:58Z</time>
      </trkpt>
      <trkpt lat="44.04496" lon="0.21968">
        <ele>54.5</ele>
        <time>2022-09-23T08:26:02Z</time>
      </trkpt>
      <trkpt lat="44.04494" lon="0.21961">
        <ele>55.1</ele>
        <time>2022-09-23T08:26:07Z</time>
      </trkpt>
      <trkpt lat="44.04493" lon="0.21953">
        <ele>55.4</ele>
        <time>2022-09-23T08:26:10Z</time>
      </trkpt>
      <trkpt lat="44.04491" lon="0.21943">
        <ele>56.2</ele>
        <time>2022-09-23T08:26:18Z</time>
      </trkpt>
      <trkpt lat="44.04489" lon="0.21934">
        <ele>56.6</ele>
        <time>2022-09-23T08:26:21Z</time>
      </trkpt>
      <trkpt lat="44.04486" lon="0.21922">
        <ele>57.5</ele>
        <time>2022-09-23T08:26:31Z</time>
      </trkpt>
      <trkpt lat="44.04485" lon="0.21913">
        <ele>57.9</ele>
        <time>2022-09-23T08:26:34Z</time>
      </trkpt>
      <trkpt lat="44.04484" lon="0.21907">
        <ele>58.9</ele>
        <time>2022-09-23T08:26:42Z</time>
      </trkpt>
      <trkpt lat="44.04483" lon="0.21901">
        <ele>59.6</ele>
        <time>2022-09-23T08:26:45Z</time>
      </trkpt>
      <trkpt lat="44.04482" lon="0.21891">
        <ele>60.5</ele>
        <time>2022-09-23T08:26:48Z</time>
      </trkpt>
      <trkpt lat="44.04481" lon="0.21884">
        <ele>61.3</ele>
        <time>2022-09-23T08:26:51Z</time>
      </trkpt>
      <trkpt lat="44.04479" lon="0.21875">
        <ele>62.3</ele>
        <time>2022-09-23T08:26:59Z</time>
      </trkpt>
      <trkpt lat="44.04478" lon="0.21867">
        <ele>62.6</ele>
        <time>2022-09-23T08:27:02Z</time>
      </trkpt>
      <trkpt lat="44.04476" lon="0.2186">
        <ele>63</ele>
        <time>2022-09-23T08:27:06Z</time>
      </trkpt>
      <trkpt lat="44.04474" lon="0.21854">
        <ele>63.4</ele>
        <time>2022-09-23T08:27:09Z</time>
      </trkpt>
      <trkpt lat="44.04473" lon="0.21843">
        <ele>64.7</ele>
        <time>2022-09-23T08:27:18Z</time>
      </trkpt>
      <trkpt lat="44.04472" lon="0.21835">
        <ele>65.1</ele>
        <time>2022-09-23T08:27:21Z</time>
      </trkpt>
      <trkpt lat="44.04471" lon="0.21823">
        <ele>66</ele>
        <time>2022-09-23T08:27:32Z</time>
      </trkpt>
      <trkpt lat="44.0447" lon="0.21815">
        <ele>66.2</ele>
        <time>2022-09-23T08:27:35Z</time>
      </trkpt>
      <trkpt lat="44.04468" lon="0.21804">
        <ele>66</ele>
        <time>2022-09-23T08:27:43Z</time>
      </trkpt>
      <trkpt lat="44.04465" lon="0.21796">
        <ele>65.5</ele>
        <time>2022-09-23T08:27:46Z</time>
      </trkpt>
      <trkpt lat="44.04464" lon="0.21789">
        <ele>64.5</ele>
        <time>2022-09-23T08:27:50Z</time>
      </trkpt>
      <trkpt lat="44.04461" lon="0.21782">
        <ele>62.7</ele>
        <time>2022-09-23T08:27:58Z</time>
      </trkpt>
      <trkpt lat="44.04458" lon="0.21774">
        <ele>61.7</ele>
        <time>2022-09-23T08:28:01Z</time>
      </trkpt>
      <trkpt lat="44.04457" lon="0.21768">
        <ele>60.7</ele>
        <time>2022-09-23T08:28:04Z</time>
      </trkpt>
      <trkpt lat="44.04455" lon="0.2176">
        <ele>60.2</ele>
        <time>2022-09-23T08:28:07Z</time>
      </trkpt>
      <trkpt lat="44.04454" lon="0.21754">
        <ele>59.9</ele>
        <time>2022-09-23T08:28:11Z</time>
      </trkpt>
      <trkpt lat="44.04454" lon="0.21746">
        <ele>59.6</ele>
        <time>2022-09-23T08:28:20Z</time>
      </trkpt>
      <trkpt lat="44.04453" lon="0.21738">
        <ele>59.5</ele>
        <time>2022-09-23T08:28:23Z</time>
      </trkpt>
      <trkpt lat="44.04452" lon="0.21731">
        <ele>59.3</ele>
        <time>2022-09-23T08:28:27Z</time>
      </trkpt>
      <trkpt lat="44.04451" lon="0.21724">
        <ele>59.1</ele>
        <time>2022-09-23T08:28:30Z</time>
      </trkpt>
      <trkpt lat="44.04449" lon="0.21717">
        <ele>58.9</ele>
        <time>2022-09-23T08:28:33Z</time>
      </trkpt>
      <trkpt lat="44.04447" lon="0.21709">
        <ele>58.7</ele>
        <time>2022-09-23T08:28:39Z</time>
      </trkpt>
      <trkpt lat="44.04444" lon="0.217">
        <ele>58.6</ele>
        <time>2022-09-23T08:28:42Z</time>
      </trkpt>
      <trkpt lat="44.04442" lon="0.21695">
        <ele>58.8</ele>
        <time>2022-09-23T08:28:46Z</time>
      </trkpt>
      <trkpt lat="44.0444" lon="0.21688">
        <ele>59.6</ele>
        <time>2022-09-23T08:28:52Z</time>
      </trkpt>
      <trkpt lat="44.04439" lon="0.21681">
        <ele>60.5</ele>
        <time>2022-09-23T08:28:55Z</time>
      </trkpt>
      <trkpt lat="44.04438" lon="0.21671">
        <ele>62.4</ele>
        <time>2022-09-23T08:29:04Z</time>
      </trkpt>
      <trkpt lat="44.04438" lon="0.21663">
        <ele>63.3</ele>
        <time>2022-09-23T08:29:07Z</time>
      </trkpt>
      <trkpt lat="44.04438" lon="0.21656">
        <ele>64.1</ele>
        <time>2022-09-23T08:29:10Z</time>
      </trkpt>
      <trkpt lat="44.04438" lon="0.21649">
        <ele>64.8</ele>
        <time>2022-09-23T08:29:14Z</time>
      </trkpt>
      <trkpt lat="44.04437" lon="0.21642">
        <ele>65.1</ele>
        <time>2022-09-23T08:29:19Z</time>
      </trkpt>
      <trkpt lat="44.04435" lon="0.21635">
        <ele>64.8</ele>
        <time>2022-09-23T08:29:23Z</time>
      </trkpt>
      <trkpt lat="44.04434" lon="0.21629">
        <ele>64.5</ele>
        <time>2022-09-23T08:29:26Z</time>
      </trkpt>
      <trkpt lat="44.04431" lon="0.21621">
        <ele>64.2</ele>
        <time>2022-09-23T08:29:30Z</time>
      </trkpt>
      <trkpt lat="44.04431" lon="0.21615">
        <ele>64.1</ele>
        <time>2022-09-23T08:29:33Z</time>
      </trkpt>
      <trkpt lat="44.0443" lon="0.21607">
        <ele>63.7</ele>
        <time>2022-09-23T08:29:38Z</time>
      </trkpt>
      <trkpt lat="44.04429" lon="0.21601">
        <ele>63.2</ele>
        <time>2022-09-23T08:29:42Z</time>
      </trkpt>
      <trkpt lat="44.04428" lon="0.21594">
        <ele>62.7</ele>
        <time>2022-09-23T08:29:46Z</time>
      </trkpt>
      <trkpt lat="44.04426" lon="0.21587">
        <ele>62.2</ele>
        <time>2022-09-23T08:29:50Z</time>
      </trkpt>
      <trkpt lat="44.04424" lon="0.21579">
        <ele>62</ele>
        <time>2022-09-23T08:29:54Z</time>
      </trkpt>
      <trkpt lat="44.04422" lon="0.21573">
        <ele>61.8</ele>
        <time>2022-09-23T08:29:57Z</time>
      </trkpt>
      <trkpt lat="44.04421" lon="0.21565">
        <ele>61.9</ele>
        <time>2022-09-23T08:30:01Z</time>
      </trkpt>
      <trkpt lat="44.04419" lon="0.21559">
        <ele>62.7</ele>
        <time>2022-09-23T08:30:05Z</time>
      </trkpt>
      <trkpt lat="44.04418" lon="0.21552">
        <ele>64.1</ele>
        <time>2022-09-23T08:30:09Z</time>
      </trkpt>
      <trkpt lat="44.04418" lon="0.21546">
        <ele>65.2</ele>
        <time>2022-09-23T08:30:12Z</time>
      </trkpt>
      <trkpt lat="44.04416" lon="0.21539">
        <ele>66.1</ele>
        <time>2022-09-23T08:30:16Z</time>
      </trkpt>
      <trkpt lat="44.04415" lon="0.21532">
        <ele>66.1</ele>
        <time>2022-09-23T08:30:22Z</time>
      </trkpt>
      <trkpt lat="44.04411" lon="0.21527">
        <ele>64.9</ele>
        <time>2022-09-23T08:30:27Z</time>
      </trkpt>
      <trkpt lat="44.04409" lon="0.21521">
        <ele>61.8</ele>
        <time>2022-09-23T08:32:32Z</time>
      </trkpt>
      <trkpt lat="44.0441" lon="0.2153">
        <ele>59.6</ele>
        <time>2022-09-23T08:32:41Z</time>
      </trkpt>
      <trkpt lat="44.0441" lon="0.21521">
        <ele>60.3</ele>
        <time>2022-09-23T08:41:05Z</time>
      </trkpt>
      <trkpt lat="44.0441" lon="0.21515">
        <ele>60.5</ele>
        <time>2022-09-23T08:41:08Z</time>
      </trkpt>
      <trkpt lat="44.04409" lon="0.21507">
        <ele>61</ele>
        <time>2022-09-23T08:41:12Z</time>
      </trkpt>
      <trkpt lat="44.04408" lon="0.215">
        <ele>61.6</ele>
        <time>2022-09-23T08:41:16Z</time>
      </trkpt>
      <trkpt lat="44.04407" lon="0.21494">
        <ele>62.4</ele>
        <time>2022-09-23T08:41:20Z</time>
      </trkpt>
      <trkpt lat="44.04406" lon="0.21487">
        <ele>63.4</ele>
        <time>2022-09-23T08:41:25Z</time>
      </trkpt>
      <trkpt lat="44.04404" lon="0.21481">
        <ele>64.4</ele>
        <time>2022-09-23T08:41:29Z</time>
      </trkpt>
      <trkpt lat="44.04403" lon="0.21474">
        <ele>65.2</ele>
        <time>2022-09-23T08:41:33Z</time>
      </trkpt>
      <trkpt lat="44.04402" lon="0.21468">
        <ele>65.7</ele>
        <time>2022-09-23T08:41:37Z</time>
      </trkpt>
      <trkpt lat="44.044" lon="0.21461">
        <ele>65.9</ele>
        <time>2022-09-23T08:41:41Z</time>
      </trkpt>
      <trkpt lat="44.04398" lon="0.21455">
        <ele>65.8</ele>
        <time>2022-09-23T08:41:45Z</time>
      </trkpt>
      <trkpt lat="44.04398" lon="0.21449">
        <ele>66.2</ele>
        <time>2022-09-23T08:41:49Z</time>
      </trkpt>
      <trkpt lat="44.04397" lon="0.21442">
        <ele>66.3</ele>
        <time>2022-09-23T08:41:53Z</time>
      </trkpt>
      <trkpt lat="44.04396" lon="0.21436">
        <ele>66.2</ele>
        <time>2022-09-23T08:41:57Z</time>
      </trkpt>
      <trkpt lat="44.04396" lon="0.21428">
        <ele>65.9</ele>
        <time>2022-09-23T08:42:02Z</time>
      </trkpt>
      <trkpt lat="44.04394" lon="0.21421">
        <ele>65.2</ele>
        <time>2022-09-23T08:42:07Z</time>
      </trkpt>
      <trkpt lat="44.04392" lon="0.21415">
        <ele>65.1</ele>
        <time>2022-09-23T08:42:11Z</time>
      </trkpt>
      <trkpt lat="44.04391" lon="0.21408">
        <ele>65.3</ele>
        <time>2022-09-23T08:42:15Z</time>
      </trkpt>
      <trkpt lat="44.0439" lon="0.21402">
        <ele>65.9</ele>
        <time>2022-09-23T08:42:19Z</time>
      </trkpt>
      <trkpt lat="44.04388" lon="0.21394">
        <ele>66.3</ele>
        <time>2022-09-23T08:42:23Z</time>
      </trkpt>
      <trkpt lat="44.04386" lon="0.21387">
        <ele>66.5</ele>
        <time>2022-09-23T08:42:27Z</time>
      </trkpt>
      <trkpt lat="44.04385" lon="0.2138">
        <ele>66.9</ele>
        <time>2022-09-23T08:42:31Z</time>
      </trkpt>
      <trkpt lat="44.04384" lon="0.21373">
        <ele>67.1</ele>
        <time>2022-09-23T08:42:35Z</time>
      </trkpt>
      <trkpt lat="44.04383" lon="0.21366">
        <ele>67.4</ele>
        <time>2022-09-23T08:42:39Z</time>
      </trkpt>
      <trkpt lat="44.04382" lon="0.21359">
        <ele>67.9</ele>
        <time>2022-09-23T08:42:43Z</time>
      </trkpt>
      <trkpt lat="44.04379" lon="0.21352">
        <ele>68.1</ele>
        <time>2022-09-23T08:42:47Z</time>
      </trkpt>
      <trkpt lat="44.04377" lon="0.21345">
        <ele>68</ele>
        <time>2022-09-23T08:42:51Z</time>
      </trkpt>
      <trkpt lat="44.04376" lon="0.21339">
        <ele>67.5</ele>
        <time>2022-09-23T08:42:55Z</time>
      </trkpt>
      <trkpt lat="44.04375" lon="0.21332">
        <ele>67.3</ele>
        <time>2022-09-23T08:43:00Z</time>
      </trkpt>
      <trkpt lat="44.04374" lon="0.21325">
        <ele>67.2</ele>
        <time>2022-09-23T08:43:05Z</time>
      </trkpt>
      <trkpt lat="44.04373" lon="0.21317">
        <ele>66.5</ele>
        <time>2022-09-23T08:43:10Z</time>
      </trkpt>
      <trkpt lat="44.04372" lon="0.21309">
        <ele>65.8</ele>
        <time>2022-09-23T08:43:14Z</time>
      </trkpt>
      <trkpt lat="44.04371" lon="0.21303">
        <ele>66</ele>
        <time>2022-09-23T08:43:18Z</time>
      </trkpt>
      <trkpt lat="44.04369" lon="0.21296">
        <ele>66.2</ele>
        <time>2022-09-23T08:43:22Z</time>
      </trkpt>
      <trkpt lat="44.04369" lon="0.21288">
        <ele>66.6</ele>
        <time>2022-09-23T08:43:27Z</time>
      </trkpt>
      <trkpt lat="44.04367" lon="0.21281">
        <ele>66.5</ele>
        <time>2022-09-23T08:43:32Z</time>
      </trkpt>
      <trkpt lat="44.04365" lon="0.21273">
        <ele>67.1</ele>
        <time>2022-09-23T08:43:37Z</time>
      </trkpt>
      <trkpt lat="44.04364" lon="0.21266">
        <ele>67.5</ele>
        <time>2022-09-23T08:43:41Z</time>
      </trkpt>
      <trkpt lat="44.04363" lon="0.21259">
        <ele>67.1</ele>
        <time>2022-09-23T08:43:45Z</time>
      </trkpt>
      <trkpt lat="44.04361" lon="0.21251">
        <ele>66.1</ele>
        <time>2022-09-23T08:43:49Z</time>
      </trkpt>
      <trkpt lat="44.0436" lon="0.21244">
        <ele>65.2</ele>
        <time>2022-09-23T08:43:53Z</time>
      </trkpt>
      <trkpt lat="44.0436" lon="0.21238">
        <ele>64.5</ele>
        <time>2022-09-23T08:43:57Z</time>
      </trkpt>
      <trkpt lat="44.04359" lon="0.21231">
        <ele>63.7</ele>
        <time>2022-09-23T08:44:03Z</time>
      </trkpt>
      <trkpt lat="44.04357" lon="0.21224">
        <ele>63.4</ele>
        <time>2022-09-23T08:44:09Z</time>
      </trkpt>
      <trkpt lat="44.04356" lon="0.21217">
        <ele>63.6</ele>
        <time>2022-09-23T08:44:15Z</time>
      </trkpt>
      <trkpt lat="44.04356" lon="0.2121">
        <ele>63.5</ele>
        <time>2022-09-23T08:44:19Z</time>
      </trkpt>
      <trkpt lat="44.04353" lon="0.21202">
        <ele>63.7</ele>
        <time>2022-09-23T08:44:23Z</time>
      </trkpt>
      <trkpt lat="44.04352" lon="0.21196">
        <ele>63.6</ele>
        <time>2022-09-23T08:44:29Z</time>
      </trkpt>
      <trkpt lat="44.0435" lon="0.2119">
        <ele>63.4</ele>
        <time>2022-09-23T08:44:32Z</time>
      </trkpt>
      <trkpt lat="44.04349" lon="0.21184">
        <ele>63.7</ele>
        <time>2022-09-23T08:44:35Z</time>
      </trkpt>
      <trkpt lat="44.04346" lon="0.21177">
        <ele>64.7</ele>
        <time>2022-09-23T08:44:38Z</time>
      </trkpt>
      <trkpt lat="44.04346" lon="0.21169">
        <ele>65.8</ele>
        <time>2022-09-23T08:44:45Z</time>
      </trkpt>
      <trkpt lat="44.04346" lon="0.21161">
        <ele>64.2</ele>
        <time>2022-09-23T08:44:52Z</time>
      </trkpt>
      <trkpt lat="44.04345" lon="0.21155">
        <ele>62.7</ele>
        <time>2022-09-23T08:44:55Z</time>
      </trkpt>
      <trkpt lat="44.04344" lon="0.21148">
        <ele>61.1</ele>
        <time>2022-09-23T08:44:58Z</time>
      </trkpt>
      <trkpt lat="44.04343" lon="0.21142">
        <ele>59.4</ele>
        <time>2022-09-23T08:45:02Z</time>
      </trkpt>
      <trkpt lat="44.04343" lon="0.21135">
        <ele>57.9</ele>
        <time>2022-09-23T08:45:06Z</time>
      </trkpt>
      <trkpt lat="44.04341" lon="0.21129">
        <ele>56.6</ele>
        <time>2022-09-23T08:45:11Z</time>
      </trkpt>
      <trkpt lat="44.04339" lon="0.21122">
        <ele>56.1</ele>
        <time>2022-09-23T08:45:14Z</time>
      </trkpt>
      <trkpt lat="44.04337" lon="0.21116">
        <ele>55.4</ele>
        <time>2022-09-23T08:45:19Z</time>
      </trkpt>
      <trkpt lat="44.04335" lon="0.21109">
        <ele>55</ele>
        <time>2022-09-23T08:45:22Z</time>
      </trkpt>
      <trkpt lat="44.04334" lon="0.21103">
        <ele>54.8</ele>
        <time>2022-09-23T08:45:26Z</time>
      </trkpt>
      <trkpt lat="44.04331" lon="0.21096">
        <ele>56.3</ele>
        <time>2022-09-23T08:46:38Z</time>
      </trkpt>
      <trkpt lat="44.04328" lon="0.21092">
        <ele>58.8</ele>
        <time>2022-09-23T08:46:45Z</time>
      </trkpt>
      <trkpt lat="44.04332" lon="0.21089">
        <ele>61.4</ele>
        <time>2022-09-23T08:49:47Z</time>
      </trkpt>
      <trkpt lat="44.04337" lon="0.21085">
        <ele>61.9</ele>
        <time>2022-09-23T08:49:50Z</time>
      </trkpt>
      <trkpt lat="44.04342" lon="0.21082">
        <ele>62.4</ele>
        <time>2022-09-23T08:49:55Z</time>
      </trkpt>
      <trkpt lat="44.04346" lon="0.21079">
        <ele>62.3</ele>
        <time>2022-09-23T08:50:00Z</time>
      </trkpt>
      <trkpt lat="44.04351" lon="0.21076">
        <ele>62.3</ele>
        <time>2022-09-23T08:50:04Z</time>
      </trkpt>
      <trkpt lat="44.04357" lon="0.21072">
        <ele>62.4</ele>
        <time>2022-09-23T08:50:16Z</time>
      </trkpt>
      <trkpt lat="44.04362" lon="0.21069">
        <ele>62.6</ele>
        <time>2022-09-23T08:50:19Z</time>
      </trkpt>
      <trkpt lat="44.04367" lon="0.21068">
        <ele>63.1</ele>
        <time>2022-09-23T08:50:24Z</time>
      </trkpt>
      <trkpt lat="44.04372" lon="0.21064">
        <ele>63.1</ele>
        <time>2022-09-23T08:50:28Z</time>
      </trkpt>
      <trkpt lat="44.04376" lon="0.2106">
        <ele>63.1</ele>
        <time>2022-09-23T08:50:31Z</time>
      </trkpt>
      <trkpt lat="44.04381" lon="0.21056">
        <ele>63.4</ele>
        <time>2022-09-23T08:50:34Z</time>
      </trkpt>
      <trkpt lat="44.04385" lon="0.21051">
        <ele>63.6</ele>
        <time>2022-09-23T08:50:38Z</time>
      </trkpt>
      <trkpt lat="44.0439" lon="0.21047">
        <ele>63.5</ele>
        <time>2022-09-23T08:50:42Z</time>
      </trkpt>
      <trkpt lat="44.04395" lon="0.21044">
        <ele>63.4</ele>
        <time>2022-09-23T08:50:46Z</time>
      </trkpt>
      <trkpt lat="44.04402" lon="0.21041">
        <ele>63.4</ele>
        <time>2022-09-23T08:50:57Z</time>
      </trkpt>
      <trkpt lat="44.04407" lon="0.21037">
        <ele>63.5</ele>
        <time>2022-09-23T08:51:00Z</time>
      </trkpt>
      <trkpt lat="44.04412" lon="0.21034">
        <ele>63.5</ele>
        <time>2022-09-23T08:51:06Z</time>
      </trkpt>
      <trkpt lat="44.04417" lon="0.2103">
        <ele>63.5</ele>
        <time>2022-09-23T08:51:09Z</time>
      </trkpt>
      <trkpt lat="44.04422" lon="0.21028">
        <ele>63.9</ele>
        <time>2022-09-23T08:51:12Z</time>
      </trkpt>
      <trkpt lat="44.04429" lon="0.21024">
        <ele>65.1</ele>
        <time>2022-09-23T08:51:20Z</time>
      </trkpt>
      <trkpt lat="44.04436" lon="0.2102">
        <ele>64.8</ele>
        <time>2022-09-23T08:51:23Z</time>
      </trkpt>
      <trkpt lat="44.0444" lon="0.21017">
        <ele>64.2</ele>
        <time>2022-09-23T08:51:27Z</time>
      </trkpt>
      <trkpt lat="44.04445" lon="0.21013">
        <ele>63.2</ele>
        <time>2022-09-23T08:51:34Z</time>
      </trkpt>
      <trkpt lat="44.04451" lon="0.2101">
        <ele>62.5</ele>
        <time>2022-09-23T08:51:37Z</time>
      </trkpt>
      <trkpt lat="44.04455" lon="0.21008">
        <ele>61.1</ele>
        <time>2022-09-23T08:51:41Z</time>
      </trkpt>
      <trkpt lat="44.04462" lon="0.21003">
        <ele>59.3</ele>
        <time>2022-09-23T08:51:53Z</time>
      </trkpt>
      <trkpt lat="44.04467" lon="0.20999">
        <ele>58.8</ele>
        <time>2022-09-23T08:51:56Z</time>
      </trkpt>
      <trkpt lat="44.04473" lon="0.20995">
        <ele>58.1</ele>
        <time>2022-09-23T08:52:04Z</time>
      </trkpt>
      <trkpt lat="44.04478" lon="0.20991">
        <ele>58</ele>
        <time>2022-09-23T08:52:07Z</time>
      </trkpt>
      <trkpt lat="44.04483" lon="0.20989">
        <ele>58.3</ele>
        <time>2022-09-23T08:52:12Z</time>
      </trkpt>
      <trkpt lat="44.04487" lon="0.20987">
        <ele>59.6</ele>
        <time>2022-09-23T08:52:23Z</time>
      </trkpt>
      <trkpt lat="44.04493" lon="0.20984">
        <ele>60.2</ele>
        <time>2022-09-23T08:52:26Z</time>
      </trkpt>
      <trkpt lat="44.04496" lon="0.2098">
        <ele>61.1</ele>
        <time>2022-09-23T08:52:31Z</time>
      </trkpt>
      <trkpt lat="44.04501" lon="0.20977">
        <ele>61.4</ele>
        <time>2022-09-23T08:53:07Z</time>
      </trkpt>
      <trkpt lat="44.04506" lon="0.20975">
        <ele>60.9</ele>
        <time>2022-09-23T08:53:10Z</time>
      </trkpt>
      <trkpt lat="44.04512" lon="0.20973">
        <ele>59.9</ele>
        <time>2022-09-23T08:53:19Z</time>
      </trkpt>
      <trkpt lat="44.04517" lon="0.20972">
        <ele>59.4</ele>
        <time>2022-09-23T08:53:22Z</time>
      </trkpt>
      <trkpt lat="44.04522" lon="0.20966">
        <ele>58.3</ele>
        <time>2022-09-23T08:54:53Z</time>
      </trkpt>
      <trkpt lat="44.04526" lon="0.20961">
        <ele>58.2</ele>
        <time>2022-09-23T08:54:56Z</time>
      </trkpt>
      <trkpt lat="44.04527" lon="0.20953">
        <ele>58.2</ele>
        <time>2022-09-23T08:55:01Z</time>
      </trkpt>
      <trkpt lat="44.04529" lon="0.20947">
        <ele>58.4</ele>
        <time>2022-09-23T08:55:09Z</time>
      </trkpt>
      <trkpt lat="44.04534" lon="0.20949">
        <ele>58.4</ele>
        <time>2022-09-23T08:55:12Z</time>
      </trkpt>
      <trkpt lat="44.04539" lon="0.20949">
        <ele>58.3</ele>
        <time>2022-09-23T08:55:15Z</time>
      </trkpt>
      <trkpt lat="44.04544" lon="0.20948">
        <ele>57</ele>
        <time>2022-09-23T08:55:22Z</time>
      </trkpt>
      <trkpt lat="44.04545" lon="0.20941">
        <ele>56.5</ele>
        <time>2022-09-23T08:55:31Z</time>
      </trkpt>
      <trkpt lat="44.04548" lon="0.20936">
        <ele>56.6</ele>
        <time>2022-09-23T08:55:34Z</time>
      </trkpt>
      <trkpt lat="44.04552" lon="0.2093">
        <ele>57.1</ele>
        <time>2022-09-23T08:55:44Z</time>
      </trkpt>
      <trkpt lat="44.04558" lon="0.20928">
        <ele>57.2</ele>
        <time>2022-09-23T08:55:47Z</time>
      </trkpt>
      <trkpt lat="44.04563" lon="0.20927">
        <ele>57.8</ele>
        <time>2022-09-23T08:55:50Z</time>
      </trkpt>
      <trkpt lat="44.04567" lon="0.20923">
        <ele>58.5</ele>
        <time>2022-09-23T08:55:54Z</time>
      </trkpt>
      <trkpt lat="44.04571" lon="0.20921">
        <ele>59.7</ele>
        <time>2022-09-23T08:56:02Z</time>
      </trkpt>
      <trkpt lat="44.04576" lon="0.2092">
        <ele>61.4</ele>
        <time>2022-09-23T08:56:21Z</time>
      </trkpt>
      <trkpt lat="44.04581" lon="0.2092">
        <ele>62.1</ele>
        <time>2022-09-23T08:56:24Z</time>
      </trkpt>
      <trkpt lat="44.04586" lon="0.20918">
        <ele>63.8</ele>
        <time>2022-09-23T08:56:29Z</time>
      </trkpt>
      <trkpt lat="44.04591" lon="0.20916">
        <ele>66</ele>
        <time>2022-09-23T08:56:38Z</time>
      </trkpt>
      <trkpt lat="44.04596" lon="0.20916">
        <ele>67.7</ele>
        <time>2022-09-23T08:56:44Z</time>
      </trkpt>
      <trkpt lat="44.046" lon="0.20914">
        <ele>70</ele>
        <time>2022-09-23T08:56:58Z</time>
      </trkpt>
      <trkpt lat="44.04606" lon="0.20913">
        <ele>72.1</ele>
        <time>2022-09-23T08:57:02Z</time>
      </trkpt>
      <trkpt lat="44.0461" lon="0.20914">
        <ele>74.5</ele>
        <time>2022-09-23T08:57:06Z</time>
      </trkpt>
      <trkpt lat="44.04615" lon="0.20916">
        <ele>76.5</ele>
        <time>2022-09-23T08:57:11Z</time>
      </trkpt>
      <trkpt lat="44.0462" lon="0.20916">
        <ele>78.7</ele>
        <time>2022-09-23T08:57:27Z</time>
      </trkpt>
      <trkpt lat="44.04625" lon="0.20916">
        <ele>79.6</ele>
        <time>2022-09-23T08:57:34Z</time>
      </trkpt>
      <trkpt lat="44.04627" lon="0.2091">
        <ele>81.3</ele>
        <time>2022-09-23T08:59:02Z</time>
      </trkpt>
      <trkpt lat="44.04628" lon="0.20904">
        <ele>82.5</ele>
        <time>2022-09-23T08:59:06Z</time>
      </trkpt>
      <trkpt lat="44.04632" lon="0.20898">
        <ele>85.1</ele>
        <time>2022-09-23T09:00:44Z</time>
      </trkpt>
      <trkpt lat="44.04635" lon="0.20893">
        <ele>85.7</ele>
        <time>2022-09-23T09:00:47Z</time>
      </trkpt>
      <trkpt lat="44.04639" lon="0.20885">
        <ele>85.4</ele>
        <time>2022-09-23T09:00:59Z</time>
      </trkpt>
      <trkpt lat="44.04642" lon="0.20878">
        <ele>84.2</ele>
        <time>2022-09-23T09:01:02Z</time>
      </trkpt>
      <trkpt lat="44.04644" lon="0.20872">
        <ele>82.1</ele>
        <time>2022-09-23T09:01:07Z</time>
      </trkpt>
      <trkpt lat="44.04647" lon="0.20866">
        <ele>79.7</ele>
        <time>2022-09-23T09:01:18Z</time>
      </trkpt>
      <trkpt lat="44.04651" lon="0.2086">
        <ele>78.6</ele>
        <time>2022-09-23T09:01:21Z</time>
      </trkpt>
      <trkpt lat="44.04655" lon="0.20854">
        <ele>77</ele>
        <time>2022-09-23T09:01:25Z</time>
      </trkpt>
      <trkpt lat="44.04657" lon="0.20843">
        <ele>74.3</ele>
        <time>2022-09-23T09:01:37Z</time>
      </trkpt>
      <trkpt lat="44.04659" lon="0.20835">
        <ele>74</ele>
        <time>2022-09-23T09:01:40Z</time>
      </trkpt>
      <trkpt lat="44.04661" lon="0.2083">
        <ele>74</ele>
        <time>2022-09-23T09:01:43Z</time>
      </trkpt>
      <trkpt lat="44.04664" lon="0.20823">
        <ele>74.4</ele>
        <time>2022-09-23T09:01:46Z</time>
      </trkpt>
      <trkpt lat="44.04668" lon="0.20819">
        <ele>75.4</ele>
        <time>2022-09-23T09:01:49Z</time>
      </trkpt>
      <trkpt lat="44.04675" lon="0.2082">
        <ele>76.5</ele>
        <time>2022-09-23T09:01:52Z</time>
      </trkpt>
      <trkpt lat="44.04681" lon="0.20822">
        <ele>77.7</ele>
        <time>2022-09-23T09:01:55Z</time>
      </trkpt>
      <trkpt lat="44.04686" lon="0.20824">
        <ele>79.5</ele>
        <time>2022-09-23T09:02:00Z</time>
      </trkpt>
      <trkpt lat="44.04689" lon="0.20829">
        <ele>81</ele>
        <time>2022-09-23T09:02:09Z</time>
      </trkpt>
      <trkpt lat="44.04693" lon="0.20839">
        <ele>82.9</ele>
        <time>2022-09-23T09:02:22Z</time>
      </trkpt>
      <trkpt lat="44.04697" lon="0.20846">
        <ele>83.9</ele>
        <time>2022-09-23T09:02:25Z</time>
      </trkpt>
      <trkpt lat="44.04702" lon="0.20854">
        <ele>87</ele>
        <time>2022-09-23T09:02:39Z</time>
      </trkpt>
      <trkpt lat="44.04706" lon="0.20859">
        <ele>88</ele>
        <time>2022-09-23T09:02:42Z</time>
      </trkpt>
      <trkpt lat="44.0471" lon="0.20863">
        <ele>89.7</ele>
        <time>2022-09-23T09:02:47Z</time>
      </trkpt>
      <trkpt lat="44.04715" lon="0.20866">
        <ele>92.4</ele>
        <time>2022-09-23T09:02:52Z</time>
      </trkpt>
      <trkpt lat="44.04719" lon="0.20873">
        <ele>93.4</ele>
        <time>2022-09-23T09:03:10Z</time>
      </trkpt>
      <trkpt lat="44.04724" lon="0.2088">
        <ele>92.2</ele>
        <time>2022-09-23T09:03:13Z</time>
      </trkpt>
      <trkpt lat="44.04727" lon="0.20887">
        <ele>91.4</ele>
        <time>2022-09-23T09:03:16Z</time>
      </trkpt>
      <trkpt lat="44.04726" lon="0.20894">
        <ele>91.2</ele>
        <time>2022-09-23T09:03:20Z</time>
      </trkpt>
      <trkpt lat="44.04727" lon="0.20902">
        <ele>93.7</ele>
        <time>2022-09-23T09:03:36Z</time>
      </trkpt>
      <trkpt lat="44.04727" lon="0.20908">
        <ele>96.8</ele>
        <time>2022-09-23T09:03:40Z</time>
      </trkpt>
      <trkpt lat="44.04726" lon="0.20916">
        <ele>101.8</ele>
        <time>2022-09-23T09:04:04Z</time>
      </trkpt>
      <trkpt lat="44.04724" lon="0.20922">
        <ele>103.3</ele>
        <time>2022-09-23T09:04:10Z</time>
      </trkpt>
      <trkpt lat="44.04725" lon="0.20929">
        <ele>104.3</ele>
        <time>2022-09-23T09:04:57Z</time>
      </trkpt>
      <trkpt lat="44.04727" lon="0.20935">
        <ele>104.2</ele>
        <time>2022-09-23T09:05:02Z</time>
      </trkpt>
      <trkpt lat="44.04725" lon="0.20941">
        <ele>103.8</ele>
        <time>2022-09-23T09:08:32Z</time>
      </trkpt>
      <trkpt lat="44.04723" lon="0.20948">
        <ele>103.7</ele>
        <time>2022-09-23T09:08:35Z</time>
      </trkpt>
      <trkpt lat="44.04721" lon="0.20953">
        <ele>103.7</ele>
        <time>2022-09-23T09:08:44Z</time>
      </trkpt>
      <trkpt lat="44.04717" lon="0.20958">
        <ele>104.3</ele>
        <time>2022-09-23T09:08:57Z</time>
      </trkpt>
      <trkpt lat="44.04713" lon="0.20962">
        <ele>105</ele>
        <time>2022-09-23T09:09:01Z</time>
      </trkpt>
      <trkpt lat="44.04708" lon="0.2096">
        <ele>105.8</ele>
        <time>2022-09-23T09:09:24Z</time>
      </trkpt>
      <trkpt lat="44.04705" lon="0.20958">
        <ele>104.5</ele>
        <time>2022-09-23T09:10:41Z</time>
      </trkpt>
      <trkpt lat="44.04706" lon="0.20964">
        <ele>104.1</ele>
        <time>2022-09-23T09:10:45Z</time>
      </trkpt>
      <trkpt lat="44.04711" lon="0.20968">
        <ele>103.3</ele>
        <time>2022-09-23T09:11:21Z</time>
      </trkpt>
      <trkpt lat="44.0471" lon="0.20975">
        <ele>104.4</ele>
        <time>2022-09-23T09:11:25Z</time>
      </trkpt>
      <trkpt lat="44.04711" lon="0.20981">
        <ele>105.5</ele>
        <time>2022-09-23T09:11:30Z</time>
      </trkpt>
      <trkpt lat="44.0471" lon="0.20989">
        <ele>105.8</ele>
        <time>2022-09-23T09:11:36Z</time>
      </trkpt>
      <trkpt lat="44.04706" lon="0.20998">
        <ele>105.5</ele>
        <time>2022-09-23T09:11:48Z</time>
      </trkpt>
      <trkpt lat="44.04705" lon="0.21005">
        <ele>105.3</ele>
        <time>2022-09-23T09:11:51Z</time>
      </trkpt>
      <trkpt lat="44.04704" lon="0.21011">
        <ele>104.4</ele>
        <time>2022-09-23T09:11:56Z</time>
      </trkpt>
      <trkpt lat="44.04703" lon="0.2102">
        <ele>103.5</ele>
        <time>2022-09-23T09:12:04Z</time>
      </trkpt>
      <trkpt lat="44.04704" lon="0.2103">
        <ele>103.2</ele>
        <time>2022-09-23T09:12:07Z</time>
      </trkpt>
      <trkpt lat="44.04706" lon="0.21037">
        <ele>102.9</ele>
        <time>2022-09-23T09:12:10Z</time>
      </trkpt>
      <trkpt lat="44.04717" lon="0.21052">
        <ele>106.8</ele>
        <time>2022-09-23T09:13:55Z</time>
      </trkpt>
      <trkpt lat="44.04718" lon="0.21061">
        <ele>106.6</ele>
        <time>2022-09-23T09:13:58Z</time>
      </trkpt>
      <trkpt lat="44.04702" lon="0.21027">
        <ele>100.4</ele>
        <time>2022-09-23T09:14:32Z</time>
      </trkpt>
      <trkpt lat="44.04704" lon="0.21034">
        <ele>99.3</ele>
        <time>2022-09-23T09:14:43Z</time>
      </trkpt>
      <trkpt lat="44.04703" lon="0.21041">
        <ele>100.3</ele>
        <time>2022-09-23T09:14:47Z</time>
      </trkpt>
      <trkpt lat="44.04704" lon="0.21049">
        <ele>107.6</ele>
        <time>2022-09-23T09:15:44Z</time>
      </trkpt>
      <trkpt lat="44.04707" lon="0.21054">
        <ele>105.5</ele>
        <time>2022-09-23T09:16:37Z</time>
      </trkpt>
      <trkpt lat="44.04711" lon="0.21058">
        <ele>104.6</ele>
        <time>2022-09-23T09:16:40Z</time>
      </trkpt>
      <trkpt lat="44.04711" lon="0.21066">
        <ele>103.6</ele>
        <time>2022-09-23T09:17:02Z</time>
      </trkpt>
      <trkpt lat="44.04711" lon="0.21074">
        <ele>104.5</ele>
        <time>2022-09-23T09:17:05Z</time>
      </trkpt>
      <trkpt lat="44.04712" lon="0.21082">
        <ele>105.3</ele>
        <time>2022-09-23T09:17:08Z</time>
      </trkpt>
      <trkpt lat="44.04713" lon="0.21091">
        <ele>106.1</ele>
        <time>2022-09-23T09:17:12Z</time>
      </trkpt>
      <trkpt lat="44.04715" lon="0.21097">
        <ele>106.8</ele>
        <time>2022-09-23T09:17:16Z</time>
      </trkpt>
      <trkpt lat="44.04719" lon="0.21102">
        <ele>107.3</ele>
        <time>2022-09-23T09:17:21Z</time>
      </trkpt>
      <trkpt lat="44.04723" lon="0.21107">
        <ele>107</ele>
        <time>2022-09-23T09:17:26Z</time>
      </trkpt>
      <trkpt lat="44.04726" lon="0.21113">
        <ele>106.7</ele>
        <time>2022-09-23T09:17:30Z</time>
      </trkpt>
      <trkpt lat="44.04727" lon="0.21121">
        <ele>106.5</ele>
        <time>2022-09-23T09:17:34Z</time>
      </trkpt>
      <trkpt lat="44.04728" lon="0.21127">
        <ele>106.1</ele>
        <time>2022-09-23T09:17:38Z</time>
      </trkpt>
      <trkpt lat="44.0473" lon="0.21133">
        <ele>105.4</ele>
        <time>2022-09-23T09:17:43Z</time>
      </trkpt>
      <trkpt lat="44.04732" lon="0.21139">
        <ele>105.4</ele>
        <time>2022-09-23T09:17:47Z</time>
      </trkpt>
      <trkpt lat="44.04735" lon="0.21146">
        <ele>105.5</ele>
        <time>2022-09-23T09:17:51Z</time>
      </trkpt>
      <trkpt lat="44.04738" lon="0.21152">
        <ele>106</ele>
        <time>2022-09-23T09:18:00Z</time>
      </trkpt>
      <trkpt lat="44.04742" lon="0.21158">
        <ele>106.1</ele>
        <time>2022-09-23T09:18:04Z</time>
      </trkpt>
      <trkpt lat="44.04744" lon="0.21164">
        <ele>106.4</ele>
        <time>2022-09-23T09:18:08Z</time>
      </trkpt>
      <trkpt lat="44.04747" lon="0.21169">
        <ele>107</ele>
        <time>2022-09-23T09:18:14Z</time>
      </trkpt>
      <trkpt lat="44.04751" lon="0.21174">
        <ele>107.4</ele>
        <time>2022-09-23T09:18:21Z</time>
      </trkpt>
      <trkpt lat="44.04754" lon="0.21179">
        <ele>107.4</ele>
        <time>2022-09-23T09:18:24Z</time>
      </trkpt>
      <trkpt lat="44.04759" lon="0.21183">
        <ele>107.8</ele>
        <time>2022-09-23T09:18:28Z</time>
      </trkpt>
      <trkpt lat="44.04764" lon="0.21186">
        <ele>107.7</ele>
        <time>2022-09-23T09:18:32Z</time>
      </trkpt>
      <trkpt lat="44.04769" lon="0.21188">
        <ele>107.4</ele>
        <time>2022-09-23T09:18:35Z</time>
      </trkpt>
      <trkpt lat="44.04774" lon="0.21189">
        <ele>107.1</ele>
        <time>2022-09-23T09:18:40Z</time>
      </trkpt>
      <trkpt lat="44.04779" lon="0.21188">
        <ele>107.3</ele>
        <time>2022-09-23T09:18:46Z</time>
      </trkpt>
      <trkpt lat="44.04783" lon="0.21186">
        <ele>107.9</ele>
        <time>2022-09-23T09:18:53Z</time>
      </trkpt>
      <trkpt lat="44.04788" lon="0.21184">
        <ele>108.2</ele>
        <time>2022-09-23T09:18:56Z</time>
      </trkpt>
      <trkpt lat="44.04792" lon="0.21181">
        <ele>108.7</ele>
        <time>2022-09-23T09:19:00Z</time>
      </trkpt>
      <trkpt lat="44.04798" lon="0.21179">
        <ele>108.7</ele>
        <time>2022-09-23T09:19:14Z</time>
      </trkpt>
      <trkpt lat="44.04803" lon="0.21178">
        <ele>108.8</ele>
        <time>2022-09-23T09:19:17Z</time>
      </trkpt>
      <trkpt lat="44.04807" lon="0.21176">
        <ele>108.8</ele>
        <time>2022-09-23T09:19:22Z</time>
      </trkpt>
      <trkpt lat="44.04812" lon="0.21175">
        <ele>108.9</ele>
        <time>2022-09-23T09:19:28Z</time>
      </trkpt>
      <trkpt lat="44.04818" lon="0.21174">
        <ele>108.9</ele>
        <time>2022-09-23T09:19:31Z</time>
      </trkpt>
      <trkpt lat="44.04823" lon="0.21172">
        <ele>109</ele>
        <time>2022-09-23T09:19:34Z</time>
      </trkpt>
      <trkpt lat="44.04828" lon="0.2117">
        <ele>109.2</ele>
        <time>2022-09-23T09:19:38Z</time>
      </trkpt>
      <trkpt lat="44.04832" lon="0.21168">
        <ele>109.2</ele>
        <time>2022-09-23T09:19:42Z</time>
      </trkpt>
      <trkpt lat="44.04837" lon="0.21167">
        <ele>108.7</ele>
        <time>2022-09-23T09:19:48Z</time>
      </trkpt>
      <trkpt lat="44.04842" lon="0.21167">
        <ele>108.4</ele>
        <time>2022-09-23T09:19:55Z</time>
      </trkpt>
      <trkpt lat="44.04849" lon="0.21166">
        <ele>108.4</ele>
        <time>2022-09-23T09:19:58Z</time>
      </trkpt>
      <trkpt lat="44.04854" lon="0.21165">
        <ele>108.7</ele>
        <time>2022-09-23T09:20:01Z</time>
      </trkpt>
      <trkpt lat="44.04859" lon="0.21165">
        <ele>108.7</ele>
        <time>2022-09-23T09:20:05Z</time>
      </trkpt>
      <trkpt lat="44.04865" lon="0.21162">
        <ele>108.8</ele>
        <time>2022-09-23T09:20:11Z</time>
      </trkpt>
      <trkpt lat="44.04869" lon="0.21159">
        <ele>109</ele>
        <time>2022-09-23T09:20:14Z</time>
      </trkpt>
      <trkpt lat="44.04874" lon="0.21158">
        <ele>109.3</ele>
        <time>2022-09-23T09:20:18Z</time>
      </trkpt>
      <trkpt lat="44.04878" lon="0.21158">
        <ele>109.6</ele>
        <time>2022-09-23T09:20:22Z</time>
      </trkpt>
      <trkpt lat="44.04884" lon="0.21157">
        <ele>110</ele>
        <time>2022-09-23T09:20:27Z</time>
      </trkpt>
      <trkpt lat="44.04889" lon="0.21156">
        <ele>110.1</ele>
        <time>2022-09-23T09:20:31Z</time>
      </trkpt>
      <trkpt lat="44.04894" lon="0.21154">
        <ele>110.2</ele>
        <time>2022-09-23T09:20:35Z</time>
      </trkpt>
      <trkpt lat="44.049" lon="0.21156">
        <ele>110.4</ele>
        <time>2022-09-23T09:20:49Z</time>
      </trkpt>
      <trkpt lat="44.04906" lon="0.2116">
        <ele>110.5</ele>
        <time>2022-09-23T09:20:52Z</time>
      </trkpt>
      <trkpt lat="44.04909" lon="0.21165">
        <ele>110.9</ele>
        <time>2022-09-23T09:20:55Z</time>
      </trkpt>
      <trkpt lat="44.04911" lon="0.21171">
        <ele>111.6</ele>
        <time>2022-09-23T09:20:59Z</time>
      </trkpt>
      <trkpt lat="44.04912" lon="0.21178">
        <ele>112.5</ele>
        <time>2022-09-23T09:21:04Z</time>
      </trkpt>
      <trkpt lat="44.04912" lon="0.21186">
        <ele>113.1</ele>
        <time>2022-09-23T09:21:08Z</time>
      </trkpt>
      <trkpt lat="44.04911" lon="0.21194">
        <ele>113.3</ele>
        <time>2022-09-23T09:21:12Z</time>
      </trkpt>
      <trkpt lat="44.04911" lon="0.212">
        <ele>113.4</ele>
        <time>2022-09-23T09:21:16Z</time>
      </trkpt>
      <trkpt lat="44.04912" lon="0.21208">
        <ele>113.5</ele>
        <time>2022-09-23T09:21:20Z</time>
      </trkpt>
      <trkpt lat="44.04911" lon="0.21215">
        <ele>113.6</ele>
        <time>2022-09-23T09:21:24Z</time>
      </trkpt>
      <trkpt lat="44.04911" lon="0.21221">
        <ele>113.7</ele>
        <time>2022-09-23T09:21:28Z</time>
      </trkpt>
      <trkpt lat="44.0491" lon="0.21228">
        <ele>113.5</ele>
        <time>2022-09-23T09:21:33Z</time>
      </trkpt>
      <trkpt lat="44.04909" lon="0.21236">
        <ele>113.5</ele>
        <time>2022-09-23T09:21:39Z</time>
      </trkpt>
      <trkpt lat="44.0491" lon="0.21242">
        <ele>113.7</ele>
        <time>2022-09-23T09:21:43Z</time>
      </trkpt>
      <trkpt lat="44.04911" lon="0.21249">
        <ele>113.5</ele>
        <time>2022-09-23T09:21:48Z</time>
      </trkpt>
      <trkpt lat="44.0491" lon="0.21256">
        <ele>112.9</ele>
        <time>2022-09-23T09:21:53Z</time>
      </trkpt>
      <trkpt lat="44.04909" lon="0.21265">
        <ele>111.7</ele>
        <time>2022-09-23T09:21:59Z</time>
      </trkpt>
      <trkpt lat="44.04908" lon="0.21271">
        <ele>111.1</ele>
        <time>2022-09-23T09:22:03Z</time>
      </trkpt>
      <trkpt lat="44.04908" lon="0.21279">
        <ele>110.6</ele>
        <time>2022-09-23T09:22:10Z</time>
      </trkpt>
      <trkpt lat="44.04908" lon="0.21287">
        <ele>110.4</ele>
        <time>2022-09-23T09:22:13Z</time>
      </trkpt>
      <trkpt lat="44.04908" lon="0.21294">
        <ele>109.8</ele>
        <time>2022-09-23T09:22:16Z</time>
      </trkpt>
      <trkpt lat="44.04908" lon="0.21302">
        <ele>109.8</ele>
        <time>2022-09-23T09:22:20Z</time>
      </trkpt>
      <trkpt lat="44.04909" lon="0.2131">
        <ele>109.6</ele>
        <time>2022-09-23T09:22:24Z</time>
      </trkpt>
      <trkpt lat="44.0491" lon="0.21316">
        <ele>109.8</ele>
        <time>2022-09-23T09:22:31Z</time>
      </trkpt>
      <trkpt lat="44.04912" lon="0.21323">
        <ele>110.2</ele>
        <time>2022-09-23T09:22:35Z</time>
      </trkpt>
      <trkpt lat="44.04913" lon="0.2133">
        <ele>110.8</ele>
        <time>2022-09-23T09:22:38Z</time>
      </trkpt>
      <trkpt lat="44.04914" lon="0.21338">
        <ele>111.1</ele>
        <time>2022-09-23T09:22:42Z</time>
      </trkpt>
      <trkpt lat="44.04915" lon="0.21344">
        <ele>110.4</ele>
        <time>2022-09-23T09:22:46Z</time>
      </trkpt>
      <trkpt lat="44.04916" lon="0.21352">
        <ele>108.5</ele>
        <time>2022-09-23T09:22:51Z</time>
      </trkpt>
      <trkpt lat="44.04916" lon="0.21359">
        <ele>107.1</ele>
        <time>2022-09-23T09:22:56Z</time>
      </trkpt>
      <trkpt lat="44.04917" lon="0.21365">
        <ele>106.5</ele>
        <time>2022-09-23T09:23:00Z</time>
      </trkpt>
      <trkpt lat="44.04919" lon="0.21372">
        <ele>106.3</ele>
        <time>2022-09-23T09:23:05Z</time>
      </trkpt>
      <trkpt lat="44.04921" lon="0.21379">
        <ele>106</ele>
        <time>2022-09-23T09:23:09Z</time>
      </trkpt>
      <trkpt lat="44.04922" lon="0.21386">
        <ele>105.7</ele>
        <time>2022-09-23T09:23:13Z</time>
      </trkpt>
      <trkpt lat="44.04924" lon="0.21393">
        <ele>105.9</ele>
        <time>2022-09-23T09:23:17Z</time>
      </trkpt>
      <trkpt lat="44.04926" lon="0.21398">
        <ele>106.2</ele>
        <time>2022-09-23T09:23:21Z</time>
      </trkpt>
      <trkpt lat="44.04928" lon="0.21405">
        <ele>106.8</ele>
        <time>2022-09-23T09:23:25Z</time>
      </trkpt>
      <trkpt lat="44.0493" lon="0.21414">
        <ele>107.3</ele>
        <time>2022-09-23T09:23:38Z</time>
      </trkpt>
      <trkpt lat="44.04931" lon="0.21422">
        <ele>107.3</ele>
        <time>2022-09-23T09:23:41Z</time>
      </trkpt>
      <trkpt lat="44.04931" lon="0.21429">
        <ele>107.6</ele>
        <time>2022-09-23T09:23:44Z</time>
      </trkpt>
      <trkpt lat="44.04931" lon="0.21435">
        <ele>107.5</ele>
        <time>2022-09-23T09:23:47Z</time>
      </trkpt>
      <trkpt lat="44.04928" lon="0.21441">
        <ele>107.4</ele>
        <time>2022-09-23T09:23:51Z</time>
      </trkpt>
      <trkpt lat="44.04933" lon="0.21438">
        <ele>107.7</ele>
        <time>2022-09-23T09:24:41Z</time>
      </trkpt>
      <trkpt lat="44.04939" lon="0.21437">
        <ele>107.4</ele>
        <time>2022-09-23T09:24:47Z</time>
      </trkpt>
      <trkpt lat="44.04944" lon="0.21437">
        <ele>107</ele>
        <time>2022-09-23T09:24:50Z</time>
      </trkpt>
      <trkpt lat="44.04949" lon="0.2144">
        <ele>106.7</ele>
        <time>2022-09-23T09:24:54Z</time>
      </trkpt>
      <trkpt lat="44.04954" lon="0.21443">
        <ele>106.4</ele>
        <time>2022-09-23T09:24:58Z</time>
      </trkpt>
      <trkpt lat="44.04958" lon="0.21446">
        <ele>105.9</ele>
        <time>2022-09-23T09:25:03Z</time>
      </trkpt>
      <trkpt lat="44.04963" lon="0.21448">
        <ele>105.6</ele>
        <time>2022-09-23T09:25:08Z</time>
      </trkpt>
      <trkpt lat="44.04969" lon="0.21451">
        <ele>105.6</ele>
        <time>2022-09-23T09:25:14Z</time>
      </trkpt>
      <trkpt lat="44.04973" lon="0.21453">
        <ele>105.5</ele>
        <time>2022-09-23T09:25:17Z</time>
      </trkpt>
      <trkpt lat="44.04979" lon="0.21454">
        <ele>105.2</ele>
        <time>2022-09-23T09:25:21Z</time>
      </trkpt>
      <trkpt lat="44.04984" lon="0.21456">
        <ele>105.1</ele>
        <time>2022-09-23T09:25:25Z</time>
      </trkpt>
      <trkpt lat="44.04989" lon="0.21458">
        <ele>105.2</ele>
        <time>2022-09-23T09:25:29Z</time>
      </trkpt>
      <trkpt lat="44.04994" lon="0.2146">
        <ele>105.2</ele>
        <time>2022-09-23T09:25:33Z</time>
      </trkpt>
      <trkpt lat="44.04998" lon="0.21461">
        <ele>105</ele>
        <time>2022-09-23T09:25:37Z</time>
      </trkpt>
      <trkpt lat="44.05004" lon="0.21464">
        <ele>105</ele>
        <time>2022-09-23T09:25:41Z</time>
      </trkpt>
      <trkpt lat="44.05009" lon="0.21468">
        <ele>105</ele>
        <time>2022-09-23T09:25:47Z</time>
      </trkpt>
      <trkpt lat="44.05015" lon="0.21472">
        <ele>105</ele>
        <time>2022-09-23T09:25:51Z</time>
      </trkpt>
      <trkpt lat="44.05019" lon="0.21472">
        <ele>105</ele>
        <time>2022-09-23T09:25:56Z</time>
      </trkpt>
      <trkpt lat="44.05024" lon="0.21474">
        <ele>104.8</ele>
        <time>2022-09-23T09:26:01Z</time>
      </trkpt>
      <trkpt lat="44.05028" lon="0.21478">
        <ele>104.5</ele>
        <time>2022-09-23T09:26:04Z</time>
      </trkpt>
      <trkpt lat="44.05033" lon="0.21479">
        <ele>104.4</ele>
        <time>2022-09-23T09:26:07Z</time>
      </trkpt>
      <trkpt lat="44.05038" lon="0.21481">
        <ele>104.4</ele>
        <time>2022-09-23T09:26:10Z</time>
      </trkpt>
      <trkpt lat="44.05043" lon="0.21484">
        <ele>104.2</ele>
        <time>2022-09-23T09:26:14Z</time>
      </trkpt>
      <trkpt lat="44.05048" lon="0.21487">
        <ele>103.9</ele>
        <time>2022-09-23T09:26:18Z</time>
      </trkpt>
      <trkpt lat="44.05052" lon="0.21489">
        <ele>103.3</ele>
        <time>2022-09-23T09:26:22Z</time>
      </trkpt>
      <trkpt lat="44.05059" lon="0.21494">
        <ele>102.2</ele>
        <time>2022-09-23T09:26:33Z</time>
      </trkpt>
      <trkpt lat="44.05064" lon="0.21498">
        <ele>101.9</ele>
        <time>2022-09-23T09:26:36Z</time>
      </trkpt>
      <trkpt lat="44.05069" lon="0.21501">
        <ele>101.6</ele>
        <time>2022-09-23T09:26:40Z</time>
      </trkpt>
      <trkpt lat="44.05073" lon="0.21503">
        <ele>101.6</ele>
        <time>2022-09-23T09:26:43Z</time>
      </trkpt>
      <trkpt lat="44.05077" lon="0.21506">
        <ele>102.1</ele>
        <time>2022-09-23T09:26:46Z</time>
      </trkpt>
      <trkpt lat="44.05082" lon="0.21509">
        <ele>103.1</ele>
        <time>2022-09-23T09:26:51Z</time>
      </trkpt>
      <trkpt lat="44.05087" lon="0.21512">
        <ele>103.5</ele>
        <time>2022-09-23T09:26:57Z</time>
      </trkpt>
      <trkpt lat="44.05093" lon="0.21516">
        <ele>103.4</ele>
        <time>2022-09-23T09:27:00Z</time>
      </trkpt>
      <trkpt lat="44.05097" lon="0.2152">
        <ele>103.1</ele>
        <time>2022-09-23T09:27:03Z</time>
      </trkpt>
      <trkpt lat="44.05101" lon="0.21522">
        <ele>102.2</ele>
        <time>2022-09-23T09:27:07Z</time>
      </trkpt>
      <trkpt lat="44.05106" lon="0.21524">
        <ele>101.1</ele>
        <time>2022-09-23T09:27:11Z</time>
      </trkpt>
      <trkpt lat="44.05111" lon="0.21527">
        <ele>99.9</ele>
        <time>2022-09-23T09:27:16Z</time>
      </trkpt>
      <trkpt lat="44.05116" lon="0.2153">
        <ele>98.9</ele>
        <time>2022-09-23T09:27:20Z</time>
      </trkpt>
      <trkpt lat="44.0512" lon="0.21533">
        <ele>98</ele>
        <time>2022-09-23T09:27:24Z</time>
      </trkpt>
      <trkpt lat="44.05125" lon="0.21536">
        <ele>96.8</ele>
        <time>2022-09-23T09:27:29Z</time>
      </trkpt>
      <trkpt lat="44.05129" lon="0.21538">
        <ele>95.8</ele>
        <time>2022-09-23T09:27:34Z</time>
      </trkpt>
      <trkpt lat="44.05134" lon="0.21541">
        <ele>94.6</ele>
        <time>2022-09-23T09:27:43Z</time>
      </trkpt>
      <trkpt lat="44.05139" lon="0.21544">
        <ele>93.8</ele>
        <time>2022-09-23T09:27:46Z</time>
      </trkpt>
      <trkpt lat="44.05145" lon="0.21549">
        <ele>92.2</ele>
        <time>2022-09-23T09:27:54Z</time>
      </trkpt>
      <trkpt lat="44.05151" lon="0.21552">
        <ele>91.1</ele>
        <time>2022-09-23T09:27:57Z</time>
      </trkpt>
      <trkpt lat="44.05156" lon="0.21554">
        <ele>90.4</ele>
        <time>2022-09-23T09:28:00Z</time>
      </trkpt>
      <trkpt lat="44.05162" lon="0.21558">
        <ele>90.3</ele>
        <time>2022-09-23T09:28:03Z</time>
      </trkpt>
      <trkpt lat="44.05169" lon="0.21563">
        <ele>90.3</ele>
        <time>2022-09-23T09:28:12Z</time>
      </trkpt>
      <trkpt lat="44.05173" lon="0.21567">
        <ele>90.4</ele>
        <time>2022-09-23T09:28:15Z</time>
      </trkpt>
      <trkpt lat="44.0518" lon="0.21568">
        <ele>90.4</ele>
        <time>2022-09-23T09:28:30Z</time>
      </trkpt>
      <trkpt lat="44.05185" lon="0.21568">
        <ele>90</ele>
        <time>2022-09-23T09:28:33Z</time>
      </trkpt>
      <trkpt lat="44.05191" lon="0.21569">
        <ele>89.4</ele>
        <time>2022-09-23T09:28:44Z</time>
      </trkpt>
      <trkpt lat="44.05196" lon="0.2157">
        <ele>89.4</ele>
        <time>2022-09-23T09:28:47Z</time>
      </trkpt>
      <trkpt lat="44.05203" lon="0.21572">
        <ele>89.7</ele>
        <time>2022-09-23T09:28:56Z</time>
      </trkpt>
      <trkpt lat="44.05208" lon="0.21575">
        <ele>90</ele>
        <time>2022-09-23T09:28:59Z</time>
      </trkpt>
      <trkpt lat="44.05215" lon="0.21579">
        <ele>91</ele>
        <time>2022-09-23T09:29:08Z</time>
      </trkpt>
      <trkpt lat="44.05219" lon="0.21582">
        <ele>91.6</ele>
        <time>2022-09-23T09:29:11Z</time>
      </trkpt>
      <trkpt lat="44.05225" lon="0.21586">
        <ele>92.7</ele>
        <time>2022-09-23T09:29:18Z</time>
      </trkpt>
      <trkpt lat="44.0523" lon="0.21589">
        <ele>93.2</ele>
        <time>2022-09-23T09:29:21Z</time>
      </trkpt>
      <trkpt lat="44.05236" lon="0.21592">
        <ele>93.8</ele>
        <time>2022-09-23T09:29:24Z</time>
      </trkpt>
      <trkpt lat="44.05241" lon="0.21596">
        <ele>94.4</ele>
        <time>2022-09-23T09:29:27Z</time>
      </trkpt>
      <trkpt lat="44.05247" lon="0.21602">
        <ele>95.8</ele>
        <time>2022-09-23T09:29:38Z</time>
      </trkpt>
      <trkpt lat="44.05252" lon="0.21604">
        <ele>96</ele>
        <time>2022-09-23T09:29:41Z</time>
      </trkpt>
      <trkpt lat="44.05258" lon="0.21609">
        <ele>96.2</ele>
        <time>2022-09-23T09:29:53Z</time>
      </trkpt>
      <trkpt lat="44.05262" lon="0.21612">
        <ele>96.1</ele>
        <time>2022-09-23T09:29:56Z</time>
      </trkpt>
      <trkpt lat="44.05269" lon="0.21615">
        <ele>95.6</ele>
        <time>2022-09-23T09:30:11Z</time>
      </trkpt>
      <trkpt lat="44.05276" lon="0.21619">
        <ele>95.1</ele>
        <time>2022-09-23T09:30:14Z</time>
      </trkpt>
      <trkpt lat="44.05283" lon="0.21626">
        <ele>94.5</ele>
        <time>2022-09-23T09:30:22Z</time>
      </trkpt>
      <trkpt lat="44.05288" lon="0.21631">
        <ele>94.6</ele>
        <time>2022-09-23T09:30:25Z</time>
      </trkpt>
      <trkpt lat="44.05292" lon="0.21635">
        <ele>94.8</ele>
        <time>2022-09-23T09:30:32Z</time>
      </trkpt>
      <trkpt lat="44.05301" lon="0.21635">
        <ele>96</ele>
        <time>2022-09-23T09:30:35Z</time>
      </trkpt>
      <trkpt lat="44.05306" lon="0.21637">
        <ele>97</ele>
        <time>2022-09-23T09:30:40Z</time>
      </trkpt>
      <trkpt lat="44.05311" lon="0.21637">
        <ele>97.5</ele>
        <time>2022-09-23T09:30:43Z</time>
      </trkpt>
      <trkpt lat="44.05316" lon="0.21636">
        <ele>98.6</ele>
        <time>2022-09-23T09:30:49Z</time>
      </trkpt>
      <trkpt lat="44.05321" lon="0.21634">
        <ele>99.3</ele>
        <time>2022-09-23T09:30:58Z</time>
      </trkpt>
      <trkpt lat="44.05327" lon="0.21632">
        <ele>99.5</ele>
        <time>2022-09-23T09:31:01Z</time>
      </trkpt>
      <trkpt lat="44.05334" lon="0.2163">
        <ele>100</ele>
        <time>2022-09-23T09:31:11Z</time>
      </trkpt>
      <trkpt lat="44.05339" lon="0.21628">
        <ele>100.3</ele>
        <time>2022-09-23T09:31:14Z</time>
      </trkpt>
      <trkpt lat="44.05345" lon="0.21627">
        <ele>101.1</ele>
        <time>2022-09-23T09:31:24Z</time>
      </trkpt>
      <trkpt lat="44.05351" lon="0.21624">
        <ele>101.3</ele>
        <time>2022-09-23T09:31:27Z</time>
      </trkpt>
      <trkpt lat="44.05357" lon="0.21618">
        <ele>101.5</ele>
        <time>2022-09-23T09:31:37Z</time>
      </trkpt>
      <trkpt lat="44.05362" lon="0.21613">
        <ele>101.4</ele>
        <time>2022-09-23T09:31:40Z</time>
      </trkpt>
      <trkpt lat="44.05368" lon="0.21611">
        <ele>100.5</ele>
        <time>2022-09-23T09:32:02Z</time>
      </trkpt>
      <trkpt lat="44.05374" lon="0.21613">
        <ele>99.6</ele>
        <time>2022-09-23T09:32:05Z</time>
      </trkpt>
      <trkpt lat="44.05379" lon="0.21615">
        <ele>98.7</ele>
        <time>2022-09-23T09:32:08Z</time>
      </trkpt>
      <trkpt lat="44.05384" lon="0.21616">
        <ele>97.1</ele>
        <time>2022-09-23T09:32:14Z</time>
      </trkpt>
      <trkpt lat="44.0539" lon="0.21616">
        <ele>95.9</ele>
        <time>2022-09-23T09:32:31Z</time>
      </trkpt>
      <trkpt lat="44.05396" lon="0.21618">
        <ele>95.9</ele>
        <time>2022-09-23T09:32:34Z</time>
      </trkpt>
      <trkpt lat="44.05404" lon="0.21619">
        <ele>96</ele>
        <time>2022-09-23T09:32:46Z</time>
      </trkpt>
      <trkpt lat="44.05409" lon="0.21617">
        <ele>95</ele>
        <time>2022-09-23T09:33:07Z</time>
      </trkpt>
      <trkpt lat="44.0541" lon="0.21624">
        <ele>95.9</ele>
        <time>2022-09-23T09:33:44Z</time>
      </trkpt>
      <trkpt lat="44.0541" lon="0.21631">
        <ele>97.6</ele>
        <time>2022-09-23T09:33:48Z</time>
      </trkpt>
      <trkpt lat="44.05404" lon="0.21627">
        <ele>99.8</ele>
        <time>2022-09-23T09:34:17Z</time>
      </trkpt>
      <trkpt lat="44.054" lon="0.21624">
        <ele>99.4</ele>
        <time>2022-09-23T09:34:31Z</time>
      </trkpt>
      <trkpt lat="44.05406" lon="0.21621">
        <ele>98.6</ele>
        <time>2022-09-23T09:34:34Z</time>
      </trkpt>
      <trkpt lat="44.05411" lon="0.2162">
        <ele>97.8</ele>
        <time>2022-09-23T09:34:39Z</time>
      </trkpt>
      <trkpt lat="44.05416" lon="0.21619">
        <ele>97.7</ele>
        <time>2022-09-23T09:34:45Z</time>
      </trkpt>
      <trkpt lat="44.05421" lon="0.21618">
        <ele>97.8</ele>
        <time>2022-09-23T09:34:48Z</time>
      </trkpt>
      <trkpt lat="44.05428" lon="0.21619">
        <ele>97.8</ele>
        <time>2022-09-23T09:34:58Z</time>
      </trkpt>
      <trkpt lat="44.05433" lon="0.21619">
        <ele>97.7</ele>
        <time>2022-09-23T09:35:01Z</time>
      </trkpt>
      <trkpt lat="44.0544" lon="0.21619">
        <ele>97.1</ele>
        <time>2022-09-23T09:35:11Z</time>
      </trkpt>
      <trkpt lat="44.05445" lon="0.2162">
        <ele>96.9</ele>
        <time>2022-09-23T09:35:14Z</time>
      </trkpt>
      <trkpt lat="44.05451" lon="0.2162">
        <ele>96.1</ele>
        <time>2022-09-23T09:35:25Z</time>
      </trkpt>
      <trkpt lat="44.05456" lon="0.2162">
        <ele>95.5</ele>
        <time>2022-09-23T09:35:31Z</time>
      </trkpt>
      <trkpt lat="44.05461" lon="0.21621">
        <ele>95.1</ele>
        <time>2022-09-23T09:35:38Z</time>
      </trkpt>
      <trkpt lat="44.05467" lon="0.21621">
        <ele>95</ele>
        <time>2022-09-23T09:35:41Z</time>
      </trkpt>
      <trkpt lat="44.05473" lon="0.2162">
        <ele>94.8</ele>
        <time>2022-09-23T09:35:44Z</time>
      </trkpt>
      <trkpt lat="44.0548" lon="0.21623">
        <ele>94.3</ele>
        <time>2022-09-23T09:35:54Z</time>
      </trkpt>
      <trkpt lat="44.05485" lon="0.21627">
        <ele>94.1</ele>
        <time>2022-09-23T09:35:57Z</time>
      </trkpt>
      <trkpt lat="44.05489" lon="0.21628">
        <ele>93.7</ele>
        <time>2022-09-23T09:36:00Z</time>
      </trkpt>
      <trkpt lat="44.05494" lon="0.21629">
        <ele>93.6</ele>
        <time>2022-09-23T09:36:03Z</time>
      </trkpt>
      <trkpt lat="44.05501" lon="0.2163">
        <ele>93.4</ele>
        <time>2022-09-23T09:36:17Z</time>
      </trkpt>
      <trkpt lat="44.05507" lon="0.2163">
        <ele>93.8</ele>
        <time>2022-09-23T09:36:20Z</time>
      </trkpt>
      <trkpt lat="44.05512" lon="0.21632">
        <ele>94.4</ele>
        <time>2022-09-23T09:36:24Z</time>
      </trkpt>
      <trkpt lat="44.05519" lon="0.21637">
        <ele>95.3</ele>
        <time>2022-09-23T09:36:37Z</time>
      </trkpt>
      <trkpt lat="44.05523" lon="0.2164">
        <ele>95.4</ele>
        <time>2022-09-23T09:36:40Z</time>
      </trkpt>
      <trkpt lat="44.05528" lon="0.21642">
        <ele>95.5</ele>
        <time>2022-09-23T09:36:45Z</time>
      </trkpt>
      <trkpt lat="44.05535" lon="0.21643">
        <ele>95.9</ele>
        <time>2022-09-23T09:36:56Z</time>
      </trkpt>
      <trkpt lat="44.0554" lon="0.21643">
        <ele>96.5</ele>
        <time>2022-09-23T09:36:59Z</time>
      </trkpt>
      <trkpt lat="44.05545" lon="0.21645">
        <ele>98.2</ele>
        <time>2022-09-23T09:37:04Z</time>
      </trkpt>
      <trkpt lat="44.05553" lon="0.21647">
        <ele>101.1</ele>
        <time>2022-09-23T09:37:19Z</time>
      </trkpt>
      <trkpt lat="44.05558" lon="0.21649">
        <ele>101.6</ele>
        <time>2022-09-23T09:37:22Z</time>
      </trkpt>
      <trkpt lat="44.05564" lon="0.21653">
        <ele>102</ele>
        <time>2022-09-23T09:37:30Z</time>
      </trkpt>
      <trkpt lat="44.05568" lon="0.21656">
        <ele>102.1</ele>
        <time>2022-09-23T09:37:33Z</time>
      </trkpt>
      <trkpt lat="44.05574" lon="0.2166">
        <ele>102.3</ele>
        <time>2022-09-23T09:37:43Z</time>
      </trkpt>
      <trkpt lat="44.05579" lon="0.21661">
        <ele>102.1</ele>
        <time>2022-09-23T09:37:47Z</time>
      </trkpt>
      <trkpt lat="44.05585" lon="0.21662">
        <ele>101.9</ele>
        <time>2022-09-23T09:37:55Z</time>
      </trkpt>
      <trkpt lat="44.05591" lon="0.21664">
        <ele>102.2</ele>
        <time>2022-09-23T09:37:58Z</time>
      </trkpt>
      <trkpt lat="44.05599" lon="0.21666">
        <ele>102.4</ele>
        <time>2022-09-23T09:38:15Z</time>
      </trkpt>
      <trkpt lat="44.05603" lon="0.21668">
        <ele>102.1</ele>
        <time>2022-09-23T09:38:18Z</time>
      </trkpt>
      <trkpt lat="44.0561" lon="0.21667">
        <ele>102.5</ele>
        <time>2022-09-23T09:38:27Z</time>
      </trkpt>
      <trkpt lat="44.05615" lon="0.21665">
        <ele>103.9</ele>
        <time>2022-09-23T09:38:31Z</time>
      </trkpt>
      <trkpt lat="44.0562" lon="0.21669">
        <ele>107.5</ele>
        <time>2022-09-23T09:38:37Z</time>
      </trkpt>
      <trkpt lat="44.05624" lon="0.21674">
        <ele>110.5</ele>
        <time>2022-09-23T09:38:40Z</time>
      </trkpt>
      <trkpt lat="44.05632" lon="0.21677">
        <ele>116.9</ele>
        <time>2022-09-23T09:38:52Z</time>
      </trkpt>
      <trkpt lat="44.05638" lon="0.21678">
        <ele>118.1</ele>
        <time>2022-09-23T09:38:55Z</time>
      </trkpt>
      <trkpt lat="44.05646" lon="0.2168">
        <ele>120.9</ele>
        <time>2022-09-23T09:39:07Z</time>
      </trkpt>
      <trkpt lat="44.05651" lon="0.21683">
        <ele>121.2</ele>
        <time>2022-09-23T09:39:10Z</time>
      </trkpt>
      <trkpt lat="44.05657" lon="0.21689">
        <ele>120.6</ele>
        <time>2022-09-23T09:39:22Z</time>
      </trkpt>
      <trkpt lat="44.05663" lon="0.21694">
        <ele>120.2</ele>
        <time>2022-09-23T09:39:25Z</time>
      </trkpt>
      <trkpt lat="44.05667" lon="0.21696">
        <ele>119.9</ele>
        <time>2022-09-23T09:39:34Z</time>
      </trkpt>
      <trkpt lat="44.05676" lon="0.21699">
        <ele>120.7</ele>
        <time>2022-09-23T09:39:37Z</time>
      </trkpt>
      <trkpt lat="44.05684" lon="0.21699">
        <ele>120</ele>
        <time>2022-09-23T09:39:47Z</time>
      </trkpt>
      <trkpt lat="44.05689" lon="0.217">
        <ele>118.9</ele>
        <time>2022-09-23T09:39:50Z</time>
      </trkpt>
      <trkpt lat="44.05694" lon="0.21703">
        <ele>117.5</ele>
        <time>2022-09-23T09:39:56Z</time>
      </trkpt>
      <trkpt lat="44.05699" lon="0.2171">
        <ele>116.6</ele>
        <time>2022-09-23T09:40:14Z</time>
      </trkpt>
      <trkpt lat="44.05704" lon="0.21714">
        <ele>116.7</ele>
        <time>2022-09-23T09:40:17Z</time>
      </trkpt>
      <trkpt lat="44.05708" lon="0.21716">
        <ele>116.7</ele>
        <time>2022-09-23T09:40:20Z</time>
      </trkpt>
      <trkpt lat="44.05715" lon="0.21715">
        <ele>116.3</ele>
        <time>2022-09-23T09:40:24Z</time>
      </trkpt>
      <trkpt lat="44.05719" lon="0.21714">
        <ele>115.9</ele>
        <time>2022-09-23T09:40:27Z</time>
      </trkpt>
      <trkpt lat="44.05725" lon="0.21714">
        <ele>115.3</ele>
        <time>2022-09-23T09:40:32Z</time>
      </trkpt>
      <trkpt lat="44.05731" lon="0.21715">
        <ele>115</ele>
        <time>2022-09-23T09:40:35Z</time>
      </trkpt>
      <trkpt lat="44.05736" lon="0.21717">
        <ele>114.9</ele>
        <time>2022-09-23T09:40:38Z</time>
      </trkpt>
      <trkpt lat="44.05742" lon="0.2172">
        <ele>115</ele>
        <time>2022-09-23T09:40:47Z</time>
      </trkpt>
      <trkpt lat="44.05747" lon="0.21722">
        <ele>115.2</ele>
        <time>2022-09-23T09:40:50Z</time>
      </trkpt>
      <trkpt lat="44.05751" lon="0.21724">
        <ele>115.6</ele>
        <time>2022-09-23T09:40:59Z</time>
      </trkpt>
      <trkpt lat="44.05756" lon="0.21725">
        <ele>115.7</ele>
        <time>2022-09-23T09:41:04Z</time>
      </trkpt>
      <trkpt lat="44.05761" lon="0.21727">
        <ele>114.7</ele>
        <time>2022-09-23T09:43:15Z</time>
      </trkpt>
      <trkpt lat="44.05765" lon="0.2173">
        <ele>113.4</ele>
        <time>2022-09-23T09:43:21Z</time>
      </trkpt>
      <trkpt lat="44.05761" lon="0.21736">
        <ele>112.4</ele>
        <time>2022-09-23T09:44:21Z</time>
      </trkpt>
      <trkpt lat="44.05758" lon="0.2174">
        <ele>112.4</ele>
        <time>2022-09-23T09:44:30Z</time>
      </trkpt>
      <trkpt lat="44.05763" lon="0.21738">
        <ele>113.9</ele>
        <time>2022-09-23T09:45:17Z</time>
      </trkpt>
      <trkpt lat="44.05767" lon="0.21735">
        <ele>112.3</ele>
        <time>2022-09-23T09:48:12Z</time>
      </trkpt>
      <trkpt lat="44.05772" lon="0.21738">
        <ele>108.7</ele>
        <time>2022-09-23T09:49:41Z</time>
      </trkpt>
      <trkpt lat="44.05779" lon="0.21743">
        <ele>113.1</ele>
        <time>2022-09-23T09:50:02Z</time>
      </trkpt>
      <trkpt lat="44.05784" lon="0.21745">
        <ele>113.5</ele>
        <time>2022-09-23T09:50:05Z</time>
      </trkpt>
      <trkpt lat="44.05788" lon="0.21747">
        <ele>114.6</ele>
        <time>2022-09-23T09:50:12Z</time>
      </trkpt>
      <trkpt lat="44.05793" lon="0.21749">
        <ele>114.6</ele>
        <time>2022-09-23T09:50:19Z</time>
      </trkpt>
      <trkpt lat="44.05797" lon="0.21749">
        <ele>114.3</ele>
        <time>2022-09-23T09:50:22Z</time>
      </trkpt>
      <trkpt lat="44.05803" lon="0.21753">
        <ele>113</ele>
        <time>2022-09-23T09:50:36Z</time>
      </trkpt>
      <trkpt lat="44.05807" lon="0.21758">
        <ele>112.4</ele>
        <time>2022-09-23T09:50:39Z</time>
      </trkpt>
      <trkpt lat="44.05813" lon="0.21762">
        <ele>111.2</ele>
        <time>2022-09-23T09:50:46Z</time>
      </trkpt>
      <trkpt lat="44.05819" lon="0.21763">
        <ele>110.4</ele>
        <time>2022-09-23T09:50:49Z</time>
      </trkpt>
      <trkpt lat="44.05826" lon="0.21767">
        <ele>108.9</ele>
        <time>2022-09-23T09:51:00Z</time>
      </trkpt>
      <trkpt lat="44.05832" lon="0.2177">
        <ele>108.6</ele>
        <time>2022-09-23T09:51:03Z</time>
      </trkpt>
      <trkpt lat="44.05839" lon="0.21773">
        <ele>107.9</ele>
        <time>2022-09-23T09:51:13Z</time>
      </trkpt>
      <trkpt lat="44.05845" lon="0.21775">
        <ele>107.5</ele>
        <time>2022-09-23T09:51:16Z</time>
      </trkpt>
      <trkpt lat="44.0585" lon="0.21777">
        <ele>107.2</ele>
        <time>2022-09-23T09:51:19Z</time>
      </trkpt>
      <trkpt lat="44.05854" lon="0.21779">
        <ele>107.1</ele>
        <time>2022-09-23T09:51:22Z</time>
      </trkpt>
      <trkpt lat="44.0586" lon="0.21781">
        <ele>107</ele>
        <time>2022-09-23T09:51:26Z</time>
      </trkpt>
      <trkpt lat="44.05867" lon="0.21783">
        <ele>106.8</ele>
        <time>2022-09-23T09:51:39Z</time>
      </trkpt>
      <trkpt lat="44.05873" lon="0.21782">
        <ele>106.7</ele>
        <time>2022-09-23T09:51:42Z</time>
      </trkpt>
      <trkpt lat="44.05879" lon="0.21783">
        <ele>106.9</ele>
        <time>2022-09-23T09:51:45Z</time>
      </trkpt>
      <trkpt lat="44.05884" lon="0.21784">
        <ele>107.3</ele>
        <time>2022-09-23T09:51:48Z</time>
      </trkpt>
      <trkpt lat="44.0589" lon="0.21785">
        <ele>108.3</ele>
        <time>2022-09-23T09:51:52Z</time>
      </trkpt>
      <trkpt lat="44.05895" lon="0.21785">
        <ele>110.1</ele>
        <time>2022-09-23T09:51:55Z</time>
      </trkpt>
      <trkpt lat="44.05899" lon="0.21786">
        <ele>112.1</ele>
        <time>2022-09-23T09:51:58Z</time>
      </trkpt>
      <trkpt lat="44.05906" lon="0.2179">
        <ele>115.6</ele>
        <time>2022-09-23T09:52:11Z</time>
      </trkpt>
      <trkpt lat="44.05911" lon="0.21792">
        <ele>116.2</ele>
        <time>2022-09-23T09:52:14Z</time>
      </trkpt>
      <trkpt lat="44.05916" lon="0.21794">
        <ele>116.1</ele>
        <time>2022-09-23T09:52:20Z</time>
      </trkpt>
      <trkpt lat="44.05921" lon="0.21794">
        <ele>115.7</ele>
        <time>2022-09-23T09:52:33Z</time>
      </trkpt>
      <trkpt lat="44.05926" lon="0.21794">
        <ele>115.5</ele>
        <time>2022-09-23T09:52:36Z</time>
      </trkpt>
      <trkpt lat="44.05932" lon="0.21795">
        <ele>115.7</ele>
        <time>2022-09-23T09:52:46Z</time>
      </trkpt>
      <trkpt lat="44.05937" lon="0.21797">
        <ele>116.2</ele>
        <time>2022-09-23T09:52:49Z</time>
      </trkpt>
      <trkpt lat="44.05942" lon="0.21798">
        <ele>116.7</ele>
        <time>2022-09-23T09:52:53Z</time>
      </trkpt>
      <trkpt lat="44.05948" lon="0.21799">
        <ele>117.3</ele>
        <time>2022-09-23T09:53:04Z</time>
      </trkpt>
      <trkpt lat="44.05953" lon="0.218">
        <ele>117.4</ele>
        <time>2022-09-23T09:53:07Z</time>
      </trkpt>
      <trkpt lat="44.0596" lon="0.21802">
        <ele>117.9</ele>
        <time>2022-09-23T09:53:16Z</time>
      </trkpt>
      <trkpt lat="44.05965" lon="0.21803">
        <ele>118.2</ele>
        <time>2022-09-23T09:53:19Z</time>
      </trkpt>
      <trkpt lat="44.0597" lon="0.21804">
        <ele>119</ele>
        <time>2022-09-23T09:53:23Z</time>
      </trkpt>
      <trkpt lat="44.05975" lon="0.21806">
        <ele>119.5</ele>
        <time>2022-09-23T09:53:28Z</time>
      </trkpt>
      <trkpt lat="44.05979" lon="0.21807">
        <ele>119.9</ele>
        <time>2022-09-23T09:53:31Z</time>
      </trkpt>
      <trkpt lat="44.05988" lon="0.21809">
        <ele>120.4</ele>
        <time>2022-09-23T09:53:44Z</time>
      </trkpt>
      <trkpt lat="44.05992" lon="0.21809">
        <ele>120.3</ele>
        <time>2022-09-23T09:53:47Z</time>
      </trkpt>
      <trkpt lat="44.05999" lon="0.21808">
        <ele>119.9</ele>
        <time>2022-09-23T09:53:57Z</time>
      </trkpt>
      <trkpt lat="44.06004" lon="0.21808">
        <ele>119.5</ele>
        <time>2022-09-23T09:54:00Z</time>
      </trkpt>
      <trkpt lat="44.0601" lon="0.2181">
        <ele>118.8</ele>
        <time>2022-09-23T09:54:09Z</time>
      </trkpt>
      <trkpt lat="44.06016" lon="0.21814">
        <ele>118.5</ele>
        <time>2022-09-23T09:54:12Z</time>
      </trkpt>
      <trkpt lat="44.0602" lon="0.21816">
        <ele>118.2</ele>
        <time>2022-09-23T09:54:15Z</time>
      </trkpt>
      <trkpt lat="44.06027" lon="0.2182">
        <ele>117.6</ele>
        <time>2022-09-23T09:54:28Z</time>
      </trkpt>
      <trkpt lat="44.06032" lon="0.21822">
        <ele>117.4</ele>
        <time>2022-09-23T09:54:31Z</time>
      </trkpt>
      <trkpt lat="44.06038" lon="0.21826">
        <ele>116.8</ele>
        <time>2022-09-23T09:54:43Z</time>
      </trkpt>
      <trkpt lat="44.06044" lon="0.21829">
        <ele>116.7</ele>
        <time>2022-09-23T09:54:46Z</time>
      </trkpt>
      <trkpt lat="44.06049" lon="0.21835">
        <ele>116.3</ele>
        <time>2022-09-23T09:54:56Z</time>
      </trkpt>
      <trkpt lat="44.06053" lon="0.21839">
        <ele>116.1</ele>
        <time>2022-09-23T09:54:59Z</time>
      </trkpt>
      <trkpt lat="44.06059" lon="0.21845">
        <ele>115.8</ele>
        <time>2022-09-23T09:55:08Z</time>
      </trkpt>
      <trkpt lat="44.06065" lon="0.2185">
        <ele>115.7</ele>
        <time>2022-09-23T09:55:11Z</time>
      </trkpt>
      <trkpt lat="44.06069" lon="0.21851">
        <ele>116.4</ele>
        <time>2022-09-23T09:55:14Z</time>
      </trkpt>
      <trkpt lat="44.06073" lon="0.21854">
        <ele>117.3</ele>
        <time>2022-09-23T09:55:19Z</time>
      </trkpt>
      <trkpt lat="44.06078" lon="0.21859">
        <ele>117.8</ele>
        <time>2022-09-23T09:55:27Z</time>
      </trkpt>
      <trkpt lat="44.06083" lon="0.21866">
        <ele>117.5</ele>
        <time>2022-09-23T09:55:30Z</time>
      </trkpt>
      <trkpt lat="44.06089" lon="0.2187">
        <ele>116.9</ele>
        <time>2022-09-23T09:55:35Z</time>
      </trkpt>
      <trkpt lat="44.06093" lon="0.21872">
        <ele>116.3</ele>
        <time>2022-09-23T09:55:39Z</time>
      </trkpt>
      <trkpt lat="44.06098" lon="0.21877">
        <ele>115.3</ele>
        <time>2022-09-23T09:55:50Z</time>
      </trkpt>
      <trkpt lat="44.06105" lon="0.21881">
        <ele>115.6</ele>
        <time>2022-09-23T09:55:53Z</time>
      </trkpt>
      <trkpt lat="44.06109" lon="0.21883">
        <ele>115.7</ele>
        <time>2022-09-23T09:55:58Z</time>
      </trkpt>
      <trkpt lat="44.06114" lon="0.21885">
        <ele>115.6</ele>
        <time>2022-09-23T09:56:05Z</time>
      </trkpt>
      <trkpt lat="44.06121" lon="0.21887">
        <ele>115.7</ele>
        <time>2022-09-23T09:56:08Z</time>
      </trkpt>
      <trkpt lat="44.06128" lon="0.21891">
        <ele>116.4</ele>
        <time>2022-09-23T09:56:19Z</time>
      </trkpt>
      <trkpt lat="44.06133" lon="0.21894">
        <ele>116.8</ele>
        <time>2022-09-23T09:56:22Z</time>
      </trkpt>
      <trkpt lat="44.0614" lon="0.21897">
        <ele>117.5</ele>
        <time>2022-09-23T09:56:31Z</time>
      </trkpt>
      <trkpt lat="44.06146" lon="0.21899">
        <ele>117.4</ele>
        <time>2022-09-23T09:56:34Z</time>
      </trkpt>
      <trkpt lat="44.06153" lon="0.21901">
        <ele>116.7</ele>
        <time>2022-09-23T09:56:43Z</time>
      </trkpt>
      <trkpt lat="44.06158" lon="0.21902">
        <ele>116.2</ele>
        <time>2022-09-23T09:56:46Z</time>
      </trkpt>
      <trkpt lat="44.06164" lon="0.21903">
        <ele>114.9</ele>
        <time>2022-09-23T09:56:55Z</time>
      </trkpt>
      <trkpt lat="44.06169" lon="0.21903">
        <ele>114.2</ele>
        <time>2022-09-23T09:56:58Z</time>
      </trkpt>
      <trkpt lat="44.06175" lon="0.21907">
        <ele>112.7</ele>
        <time>2022-09-23T09:57:15Z</time>
      </trkpt>
      <trkpt lat="44.0618" lon="0.21911">
        <ele>112.3</ele>
        <time>2022-09-23T09:57:18Z</time>
      </trkpt>
      <trkpt lat="44.06187" lon="0.21913">
        <ele>111.1</ele>
        <time>2022-09-23T09:57:24Z</time>
      </trkpt>
      <trkpt lat="44.06194" lon="0.21914">
        <ele>110.2</ele>
        <time>2022-09-23T09:57:27Z</time>
      </trkpt>
      <trkpt lat="44.06201" lon="0.21914">
        <ele>109</ele>
        <time>2022-09-23T09:57:33Z</time>
      </trkpt>
      <trkpt lat="44.06207" lon="0.21915">
        <ele>108.4</ele>
        <time>2022-09-23T09:57:36Z</time>
      </trkpt>
      <trkpt lat="44.06214" lon="0.21916">
        <ele>107.2</ele>
        <time>2022-09-23T09:57:44Z</time>
      </trkpt>
      <trkpt lat="44.0622" lon="0.21918">
        <ele>106.5</ele>
        <time>2022-09-23T09:57:47Z</time>
      </trkpt>
      <trkpt lat="44.06226" lon="0.21919">
        <ele>105.4</ele>
        <time>2022-09-23T09:57:53Z</time>
      </trkpt>
      <trkpt lat="44.06231" lon="0.21921">
        <ele>104.8</ele>
        <time>2022-09-23T09:57:56Z</time>
      </trkpt>
      <trkpt lat="44.06237" lon="0.21924">
        <ele>103.5</ele>
        <time>2022-09-23T09:58:06Z</time>
      </trkpt>
      <trkpt lat="44.06242" lon="0.21925">
        <ele>103.2</ele>
        <time>2022-09-23T09:58:09Z</time>
      </trkpt>
      <trkpt lat="44.06248" lon="0.2193">
        <ele>102.4</ele>
        <time>2022-09-23T09:58:18Z</time>
      </trkpt>
      <trkpt lat="44.06253" lon="0.21933">
        <ele>102.1</ele>
        <time>2022-09-23T09:58:21Z</time>
      </trkpt>
      <trkpt lat="44.06259" lon="0.21938">
        <ele>101.5</ele>
        <time>2022-09-23T09:58:28Z</time>
      </trkpt>
      <trkpt lat="44.06265" lon="0.21942">
        <ele>101.3</ele>
        <time>2022-09-23T09:58:31Z</time>
      </trkpt>
      <trkpt lat="44.06271" lon="0.21948">
        <ele>100.7</ele>
        <time>2022-09-23T09:58:41Z</time>
      </trkpt>
      <trkpt lat="44.06275" lon="0.21953">
        <ele>100.3</ele>
        <time>2022-09-23T09:58:44Z</time>
      </trkpt>
      <trkpt lat="44.06281" lon="0.21959">
        <ele>100.1</ele>
        <time>2022-09-23T09:58:52Z</time>
      </trkpt>
      <trkpt lat="44.06286" lon="0.21965">
        <ele>100.8</ele>
        <time>2022-09-23T09:58:55Z</time>
      </trkpt>
      <trkpt lat="44.06292" lon="0.21973">
        <ele>102.5</ele>
        <time>2022-09-23T09:59:02Z</time>
      </trkpt>
      <trkpt lat="44.06297" lon="0.21979">
        <ele>103.5</ele>
        <time>2022-09-23T09:59:05Z</time>
      </trkpt>
      <trkpt lat="44.06302" lon="0.21985">
        <ele>104.5</ele>
        <time>2022-09-23T09:59:08Z</time>
      </trkpt>
      <trkpt lat="44.06305" lon="0.2199">
        <ele>105.2</ele>
        <time>2022-09-23T09:59:11Z</time>
      </trkpt>
      <trkpt lat="44.06308" lon="0.21996">
        <ele>106</ele>
        <time>2022-09-23T09:59:16Z</time>
      </trkpt>
      <trkpt lat="44.06311" lon="0.22001">
        <ele>106.1</ele>
        <time>2022-09-23T09:59:19Z</time>
      </trkpt>
      <trkpt lat="44.06314" lon="0.22007">
        <ele>106.4</ele>
        <time>2022-09-23T09:59:23Z</time>
      </trkpt>
      <trkpt lat="44.06316" lon="0.22014">
        <ele>106.5</ele>
        <time>2022-09-23T09:59:28Z</time>
      </trkpt>
      <trkpt lat="44.06319" lon="0.22023">
        <ele>106.6</ele>
        <time>2022-09-23T09:59:41Z</time>
      </trkpt>
      <trkpt lat="44.06321" lon="0.2203">
        <ele>106.4</ele>
        <time>2022-09-23T09:59:44Z</time>
      </trkpt>
      <trkpt lat="44.06322" lon="0.22037">
        <ele>106</ele>
        <time>2022-09-23T09:59:48Z</time>
      </trkpt>
      <trkpt lat="44.06327" lon="0.22048">
        <ele>105</ele>
        <time>2022-09-23T10:00:00Z</time>
      </trkpt>
      <trkpt lat="44.06332" lon="0.22057">
        <ele>104.4</ele>
        <time>2022-09-23T10:00:03Z</time>
      </trkpt>
      <trkpt lat="44.06335" lon="0.22062">
        <ele>103.7</ele>
        <time>2022-09-23T10:00:06Z</time>
      </trkpt>
      <trkpt lat="44.0634" lon="0.22065">
        <ele>102.2</ele>
        <time>2022-09-23T10:00:12Z</time>
      </trkpt>
      <trkpt lat="44.06344" lon="0.22068">
        <ele>101.3</ele>
        <time>2022-09-23T10:00:16Z</time>
      </trkpt>
      <trkpt lat="44.06348" lon="0.22071">
        <ele>100.2</ele>
        <time>2022-09-23T10:00:24Z</time>
      </trkpt>
      <trkpt lat="44.06352" lon="0.22075">
        <ele>99.9</ele>
        <time>2022-09-23T10:00:27Z</time>
      </trkpt>
      <trkpt lat="44.06359" lon="0.22082">
        <ele>99.2</ele>
        <time>2022-09-23T10:00:41Z</time>
      </trkpt>
      <trkpt lat="44.06363" lon="0.22087">
        <ele>98.6</ele>
        <time>2022-09-23T10:00:44Z</time>
      </trkpt>
      <trkpt lat="44.06368" lon="0.22093">
        <ele>97.3</ele>
        <time>2022-09-23T10:00:53Z</time>
      </trkpt>
      <trkpt lat="44.06372" lon="0.22098">
        <ele>96.5</ele>
        <time>2022-09-23T10:00:56Z</time>
      </trkpt>
      <trkpt lat="44.06373" lon="0.22107">
        <ele>95.2</ele>
        <time>2022-09-23T10:01:04Z</time>
      </trkpt>
      <trkpt lat="44.06374" lon="0.22119">
        <ele>94.6</ele>
        <time>2022-09-23T10:01:07Z</time>
      </trkpt>
      <trkpt lat="44.06374" lon="0.22126">
        <ele>94.3</ele>
        <time>2022-09-23T10:01:10Z</time>
      </trkpt>
      <trkpt lat="44.06376" lon="0.22135">
        <ele>93.7</ele>
        <time>2022-09-23T10:01:21Z</time>
      </trkpt>
      <trkpt lat="44.06379" lon="0.22141">
        <ele>93.4</ele>
        <time>2022-09-23T10:01:24Z</time>
      </trkpt>
      <trkpt lat="44.06384" lon="0.22146">
        <ele>92.8</ele>
        <time>2022-09-23T10:01:36Z</time>
      </trkpt>
      <trkpt lat="44.06389" lon="0.22148">
        <ele>92.8</ele>
        <time>2022-09-23T10:01:39Z</time>
      </trkpt>
      <trkpt lat="44.06395" lon="0.22153">
        <ele>92.6</ele>
        <time>2022-09-23T10:01:51Z</time>
      </trkpt>
      <trkpt lat="44.06399" lon="0.22157">
        <ele>92.3</ele>
        <time>2022-09-23T10:01:54Z</time>
      </trkpt>
      <trkpt lat="44.06405" lon="0.22161">
        <ele>91.5</ele>
        <time>2022-09-23T10:02:05Z</time>
      </trkpt>
      <trkpt lat="44.0641" lon="0.22164">
        <ele>91.1</ele>
        <time>2022-09-23T10:02:08Z</time>
      </trkpt>
      <trkpt lat="44.06415" lon="0.2217">
        <ele>90.6</ele>
        <time>2022-09-23T10:02:21Z</time>
      </trkpt>
      <trkpt lat="44.06419" lon="0.22174">
        <ele>90.4</ele>
        <time>2022-09-23T10:02:24Z</time>
      </trkpt>
      <trkpt lat="44.06425" lon="0.22176">
        <ele>90.3</ele>
        <time>2022-09-23T10:04:20Z</time>
      </trkpt>
      <trkpt lat="44.0643" lon="0.22177">
        <ele>90.3</ele>
        <time>2022-09-23T10:04:23Z</time>
      </trkpt>
      <trkpt lat="44.06436" lon="0.22182">
        <ele>90.1</ele>
        <time>2022-09-23T10:04:30Z</time>
      </trkpt>
      <trkpt lat="44.06441" lon="0.22189">
        <ele>89.8</ele>
        <time>2022-09-23T10:04:33Z</time>
      </trkpt>
      <trkpt lat="44.06445" lon="0.22193">
        <ele>89.6</ele>
        <time>2022-09-23T10:04:36Z</time>
      </trkpt>
      <trkpt lat="44.06451" lon="0.22198">
        <ele>88.9</ele>
        <time>2022-09-23T10:04:48Z</time>
      </trkpt>
      <trkpt lat="44.06456" lon="0.22201">
        <ele>88.5</ele>
        <time>2022-09-23T10:04:51Z</time>
      </trkpt>
      <trkpt lat="44.06462" lon="0.22205">
        <ele>87.6</ele>
        <time>2022-09-23T10:05:01Z</time>
      </trkpt>
      <trkpt lat="44.06467" lon="0.22208">
        <ele>87.2</ele>
        <time>2022-09-23T10:05:04Z</time>
      </trkpt>
      <trkpt lat="44.06474" lon="0.2221">
        <ele>86</ele>
        <time>2022-09-23T10:05:16Z</time>
      </trkpt>
      <trkpt lat="44.0648" lon="0.2221">
        <ele>85.8</ele>
        <time>2022-09-23T10:05:19Z</time>
      </trkpt>
      <trkpt lat="44.06487" lon="0.2221">
        <ele>86.1</ele>
        <time>2022-09-23T10:05:30Z</time>
      </trkpt>
      <trkpt lat="44.06492" lon="0.2221">
        <ele>86.8</ele>
        <time>2022-09-23T10:05:33Z</time>
      </trkpt>
      <trkpt lat="44.06497" lon="0.22212">
        <ele>87.7</ele>
        <time>2022-09-23T10:05:38Z</time>
      </trkpt>
      <trkpt lat="44.06505" lon="0.2221">
        <ele>88.2</ele>
        <time>2022-09-23T10:05:50Z</time>
      </trkpt>
      <trkpt lat="44.06511" lon="0.22208">
        <ele>87.8</ele>
        <time>2022-09-23T10:05:53Z</time>
      </trkpt>
      <trkpt lat="44.06516" lon="0.22207">
        <ele>86.9</ele>
        <time>2022-09-23T10:05:56Z</time>
      </trkpt>
      <trkpt lat="44.06521" lon="0.22205">
        <ele>86.4</ele>
        <time>2022-09-23T10:05:59Z</time>
      </trkpt>
      <trkpt lat="44.06526" lon="0.22204">
        <ele>85.6</ele>
        <time>2022-09-23T10:06:07Z</time>
      </trkpt>
      <trkpt lat="44.06531" lon="0.22203">
        <ele>85.2</ele>
        <time>2022-09-23T10:06:12Z</time>
      </trkpt>
      <trkpt lat="44.06538" lon="0.22203">
        <ele>84.9</ele>
        <time>2022-09-23T10:06:15Z</time>
      </trkpt>
      <trkpt lat="44.06544" lon="0.22203">
        <ele>84.9</ele>
        <time>2022-09-23T10:06:18Z</time>
      </trkpt>
      <trkpt lat="44.06551" lon="0.22202">
        <ele>84.8</ele>
        <time>2022-09-23T10:06:27Z</time>
      </trkpt>
      <trkpt lat="44.06556" lon="0.222">
        <ele>85</ele>
        <time>2022-09-23T10:06:31Z</time>
      </trkpt>
      <trkpt lat="44.06562" lon="0.22201">
        <ele>84.3</ele>
        <time>2022-09-23T10:06:40Z</time>
      </trkpt>
      <trkpt lat="44.06567" lon="0.22203">
        <ele>83.2</ele>
        <time>2022-09-23T10:06:43Z</time>
      </trkpt>
      <trkpt lat="44.06572" lon="0.22205">
        <ele>82.1</ele>
        <time>2022-09-23T10:06:47Z</time>
      </trkpt>
      <trkpt lat="44.06576" lon="0.2221">
        <ele>81.4</ele>
        <time>2022-09-23T10:06:51Z</time>
      </trkpt>
      <trkpt lat="44.0658" lon="0.22215">
        <ele>81.2</ele>
        <time>2022-09-23T10:06:54Z</time>
      </trkpt>
      <trkpt lat="44.06585" lon="0.22223">
        <ele>80.5</ele>
        <time>2022-09-23T10:07:04Z</time>
      </trkpt>
      <trkpt lat="44.06588" lon="0.22229">
        <ele>80</ele>
        <time>2022-09-23T10:07:07Z</time>
      </trkpt>
      <trkpt lat="44.06592" lon="0.22237">
        <ele>78.6</ele>
        <time>2022-09-23T10:07:19Z</time>
      </trkpt>
      <trkpt lat="44.06595" lon="0.22242">
        <ele>77.6</ele>
        <time>2022-09-23T10:07:22Z</time>
      </trkpt>
      <trkpt lat="44.06599" lon="0.2225">
        <ele>75.5</ele>
        <time>2022-09-23T10:07:31Z</time>
      </trkpt>
      <trkpt lat="44.06603" lon="0.22257">
        <ele>74.6</ele>
        <time>2022-09-23T10:07:34Z</time>
      </trkpt>
      <trkpt lat="44.06608" lon="0.22264">
        <ele>73.2</ele>
        <time>2022-09-23T10:07:43Z</time>
      </trkpt>
      <trkpt lat="44.06612" lon="0.22268">
        <ele>72.8</ele>
        <time>2022-09-23T10:07:46Z</time>
      </trkpt>
      <trkpt lat="44.06617" lon="0.22274">
        <ele>71.5</ele>
        <time>2022-09-23T10:07:58Z</time>
      </trkpt>
      <trkpt lat="44.06621" lon="0.22278">
        <ele>70.9</ele>
        <time>2022-09-23T10:08:01Z</time>
      </trkpt>
      <trkpt lat="44.06628" lon="0.2228">
        <ele>69</ele>
        <time>2022-09-23T10:09:00Z</time>
      </trkpt>
      <trkpt lat="44.06632" lon="0.22279">
        <ele>68.5</ele>
        <time>2022-09-23T10:09:03Z</time>
      </trkpt>
      <trkpt lat="44.06638" lon="0.22274">
        <ele>67.3</ele>
        <time>2022-09-23T10:09:17Z</time>
      </trkpt>
      <trkpt lat="44.06643" lon="0.2227">
        <ele>66.7</ele>
        <time>2022-09-23T10:09:20Z</time>
      </trkpt>
      <trkpt lat="44.06646" lon="0.22266">
        <ele>66</ele>
        <time>2022-09-23T10:09:24Z</time>
      </trkpt>
      <trkpt lat="44.0665" lon="0.22261">
        <ele>65.5</ele>
        <time>2022-09-23T10:09:28Z</time>
      </trkpt>
      <trkpt lat="44.06655" lon="0.22257">
        <ele>65</ele>
        <time>2022-09-23T10:09:32Z</time>
      </trkpt>
      <trkpt lat="44.06658" lon="0.22253">
        <ele>64.5</ele>
        <time>2022-09-23T10:09:37Z</time>
      </trkpt>
      <trkpt lat="44.06662" lon="0.22249">
        <ele>64.4</ele>
        <time>2022-09-23T10:09:44Z</time>
      </trkpt>
      <trkpt lat="44.06666" lon="0.22246">
        <ele>64.4</ele>
        <time>2022-09-23T10:09:48Z</time>
      </trkpt>
      <trkpt lat="44.06672" lon="0.22241">
        <ele>64.5</ele>
        <time>2022-09-23T10:09:55Z</time>
      </trkpt>
      <trkpt lat="44.06676" lon="0.22237">
        <ele>65.1</ele>
        <time>2022-09-23T10:09:58Z</time>
      </trkpt>
      <trkpt lat="44.0668" lon="0.22233">
        <ele>65.8</ele>
        <time>2022-09-23T10:10:01Z</time>
      </trkpt>
      <trkpt lat="44.06685" lon="0.2223">
        <ele>66.6</ele>
        <time>2022-09-23T10:10:04Z</time>
      </trkpt>
      <trkpt lat="44.06689" lon="0.22226">
        <ele>67.8</ele>
        <time>2022-09-23T10:10:08Z</time>
      </trkpt>
      <trkpt lat="44.06694" lon="0.22223">
        <ele>69.1</ele>
        <time>2022-09-23T10:10:13Z</time>
      </trkpt>
      <trkpt lat="44.06697" lon="0.22218">
        <ele>70.4</ele>
        <time>2022-09-23T10:10:18Z</time>
      </trkpt>
      <trkpt lat="44.06702" lon="0.22214">
        <ele>70.8</ele>
        <time>2022-09-23T10:10:24Z</time>
      </trkpt>
      <trkpt lat="44.06704" lon="0.22207">
        <ele>70.9</ele>
        <time>2022-09-23T10:10:28Z</time>
      </trkpt>
      <trkpt lat="44.06706" lon="0.22201">
        <ele>70.8</ele>
        <time>2022-09-23T10:10:32Z</time>
      </trkpt>
      <trkpt lat="44.06707" lon="0.22195">
        <ele>70.5</ele>
        <time>2022-09-23T10:10:39Z</time>
      </trkpt>
      <trkpt lat="44.06708" lon="0.22188">
        <ele>70.5</ele>
        <time>2022-09-23T10:10:46Z</time>
      </trkpt>
      <trkpt lat="44.0671" lon="0.22182">
        <ele>70.5</ele>
        <time>2022-09-23T10:10:49Z</time>
      </trkpt>
      <trkpt lat="44.06711" lon="0.22174">
        <ele>70.7</ele>
        <time>2022-09-23T10:10:53Z</time>
      </trkpt>
      <trkpt lat="44.06714" lon="0.22167">
        <ele>70.9</ele>
        <time>2022-09-23T10:10:57Z</time>
      </trkpt>
      <trkpt lat="44.06715" lon="0.2216">
        <ele>71.2</ele>
        <time>2022-09-23T10:11:02Z</time>
      </trkpt>
      <trkpt lat="44.06717" lon="0.22155">
        <ele>71</ele>
        <time>2022-09-23T10:11:06Z</time>
      </trkpt>
      <trkpt lat="44.0672" lon="0.22147">
        <ele>70.3</ele>
        <time>2022-09-23T10:11:13Z</time>
      </trkpt>
      <trkpt lat="44.06721" lon="0.2214">
        <ele>70.5</ele>
        <time>2022-09-23T10:11:17Z</time>
      </trkpt>
      <trkpt lat="44.06721" lon="0.2213">
        <ele>70.9</ele>
        <time>2022-09-23T10:11:30Z</time>
      </trkpt>
      <trkpt lat="44.0672" lon="0.22124">
        <ele>71.3</ele>
        <time>2022-09-23T10:11:33Z</time>
      </trkpt>
      <trkpt lat="44.0672" lon="0.22115">
        <ele>71.6</ele>
        <time>2022-09-23T10:11:43Z</time>
      </trkpt>
      <trkpt lat="44.06721" lon="0.22108">
        <ele>71.6</ele>
        <time>2022-09-23T10:11:49Z</time>
      </trkpt>
    </trkseg>
  </trk>
</gpx>